<?xml version='1.0' encoding='UTF-8'?><gpx version="1.1" creator="JPX - https://github.com/jenetics/jpx" xmlns="http://www.topografix.com/GPX/1/1"><trk><trkseg><trkpt lat="40.019610684786535" lon="18.15865344496815"><ele>111.0</ele><time>2026-04-29T17:16:31.998Z</time></trkpt><trkpt lat="40.01958918694634" lon="18.15856798055291"><ele>111.0</ele><time>2026-04-29T17:17:12Z</time></trkpt><trkpt lat="40.01959615935228" lon="18.158412204250403"><ele>111.0</ele><time>2026-04-29T17:17:14Z</time></trkpt><trkpt lat="40.01961155667477" lon="18.158325231531958"><ele>111.0</ele><time>2026-04-29T17:17:15Z</time></trkpt><trkpt lat="40.01961720277475" lon="18.158222719031382"><ele>111.0</ele><time>2026-04-29T17:17:16Z</time></trkpt><trkpt lat="40.019629340332955" lon="18.158110192766124"><ele>111.0</ele><time>2026-04-29T17:17:17Z</time></trkpt><trkpt lat="40.01964239764993" lon="18.15799737363052"><ele>111.19999999999999</ele><time>2026-04-29T17:17:18Z</time></trkpt><trkpt lat="40.01965449518033" lon="18.15788243369969"><ele>111.39999999999999</ele><time>2026-04-29T17:17:19Z</time></trkpt><trkpt lat="40.01966671172106" lon="18.157755195380833"><ele>111.6</ele><time>2026-04-29T17:17:20Z</time></trkpt><trkpt lat="40.019685347200536" lon="18.157602270773754"><ele>111.8</ele><time>2026-04-29T17:17:21Z</time></trkpt><trkpt lat="40.019696404884264" lon="18.157476962608406"><ele>112.0</ele><time>2026-04-29T17:17:22Z</time></trkpt><trkpt lat="40.01970641201186" lon="18.157384676193995"><ele>111.66666666666667</ele><time>2026-04-29T17:17:23Z</time></trkpt><trkpt lat="40.019713424885545" lon="18.157302140195767"><ele>111.33333333333334</ele><time>2026-04-29T17:17:25Z</time></trkpt><trkpt lat="40.019734813080014" lon="18.1572073787623"><ele>111.0</ele><time>2026-04-29T17:17:28Z</time></trkpt><trkpt lat="40.01974461724038" lon="18.157107674814572"><ele>110.66666666666666</ele><time>2026-04-29T17:17:29Z</time></trkpt><trkpt lat="40.019756233407776" lon="18.156989543560154"><ele>110.33333333333333</ele><time>2026-04-29T17:17:30Z</time></trkpt><trkpt lat="40.01977317105383" lon="18.15681729524903"><ele>110.0</ele><time>2026-04-29T17:17:31Z</time></trkpt><trkpt lat="40.01979234418861" lon="18.156622312995687"><ele>109.75</ele><time>2026-04-29T17:17:32Z</time></trkpt><trkpt lat="40.0198135379684" lon="18.156406781678132"><ele>109.5</ele><time>2026-04-29T17:17:33Z</time></trkpt><trkpt lat="40.0198166737046" lon="18.156224054562166"><ele>109.25</ele><time>2026-04-29T17:17:34Z</time></trkpt><trkpt lat="40.01983307056112" lon="18.156070980422893"><ele>109.0</ele><time>2026-04-29T17:17:35Z</time></trkpt><trkpt lat="40.01984910852587" lon="18.155933499308805"><ele>109.0</ele><time>2026-04-29T17:17:36Z</time></trkpt><trkpt lat="40.019863906657804" lon="18.155823344925473"><ele>109.0</ele><time>2026-04-29T17:17:37Z</time></trkpt><trkpt lat="40.01986672078291" lon="18.155717626836793"><ele>109.0</ele><time>2026-04-29T17:17:39Z</time></trkpt><trkpt lat="40.01976039939095" lon="18.155649811720295"><ele>109.0</ele><time>2026-04-29T17:17:42Z</time></trkpt><trkpt lat="40.0196762837267" lon="18.155641294402212"><ele>109.0</ele><time>2026-04-29T17:17:43Z</time></trkpt><trkpt lat="40.019565837657574" lon="18.155630893314274"><ele>108.6</ele><time>2026-04-29T17:17:44Z</time></trkpt><trkpt lat="40.0194422971049" lon="18.155607909041677"><ele>108.2</ele><time>2026-04-29T17:17:45Z</time></trkpt><trkpt lat="40.019367131129655" lon="18.15559708967323"><ele>107.79999999999998</ele><time>2026-04-29T17:17:46Z</time></trkpt><trkpt lat="40.01930035246282" lon="18.15557327510391"><ele>107.39999999999999</ele><time>2026-04-29T17:17:48Z</time></trkpt><trkpt lat="40.019278264350035" lon="18.155438042576122"><ele>107.0</ele><time>2026-04-29T17:17:51Z</time></trkpt><trkpt lat="40.01930089874139" lon="18.155335432098582"><ele>107.0</ele><time>2026-04-29T17:17:52Z</time></trkpt><trkpt lat="40.01931362689456" lon="18.15520748163941"><ele>107.0</ele><time>2026-04-29T17:17:53Z</time></trkpt><trkpt lat="40.01933091765547" lon="18.155039370283895"><ele>107.0</ele><time>2026-04-29T17:17:54Z</time></trkpt><trkpt lat="40.01935877122625" lon="18.15484124926854"><ele>107.0</ele><time>2026-04-29T17:17:55Z</time></trkpt><trkpt lat="40.019382374744715" lon="18.1546678084428"><ele>106.8</ele><time>2026-04-29T17:17:56Z</time></trkpt><trkpt lat="40.01939794557596" lon="18.154533601826003"><ele>106.6</ele><time>2026-04-29T17:17:57Z</time></trkpt><trkpt lat="40.019393736955664" lon="18.154400166212287"><ele>106.39999999999999</ele><time>2026-04-29T17:17:58Z</time></trkpt><trkpt lat="40.01939281555017" lon="18.1543048861439"><ele>106.19999999999999</ele><time>2026-04-29T17:17:59Z</time></trkpt><trkpt lat="40.01937215659162" lon="18.154225612608744"><ele>106.0</ele><time>2026-04-29T17:18:00Z</time></trkpt><trkpt lat="40.01928576503532" lon="18.154034582503616"><ele>106.0</ele><time>2026-04-29T17:18:02Z</time></trkpt><trkpt lat="40.019286812610105" lon="18.153932780952736"><ele>106.0</ele><time>2026-04-29T17:18:04Z</time></trkpt><trkpt lat="40.019286891296574" lon="18.153770031284417"><ele>106.0</ele><time>2026-04-29T17:18:06Z</time></trkpt><trkpt lat="40.01927961012965" lon="18.153637284121174"><ele>106.0</ele><time>2026-04-29T17:18:08Z</time></trkpt><trkpt lat="40.019353631390764" lon="18.15352226575787"><ele>106.0</ele><time>2026-04-29T17:18:10Z</time></trkpt><trkpt lat="40.01941486816913" lon="18.153449902261755"><ele>106.00000000000001</ele><time>2026-04-29T17:18:11Z</time></trkpt><trkpt lat="40.01946868449923" lon="18.153381519052598"><ele>106.0</ele><time>2026-04-29T17:18:12Z</time></trkpt><trkpt lat="40.019536290959266" lon="18.153316759033704"><ele>106.0</ele><time>2026-04-29T17:18:13.999Z</time></trkpt><trkpt lat="40.0196231198555" lon="18.153243443006147"><ele>106.0</ele><time>2026-04-29T17:18:15.999Z</time></trkpt><trkpt lat="40.019694812566506" lon="18.1532129541197"><ele>106.00000000000001</ele><time>2026-04-29T17:18:16.999Z</time></trkpt><trkpt lat="40.01978803484429" lon="18.15318920844256"><ele>106.0</ele><time>2026-04-29T17:18:17.999Z</time></trkpt><trkpt lat="40.019895568492835" lon="18.153152462551354"><ele>105.66666666666667</ele><time>2026-04-29T17:18:18.999Z</time></trkpt><trkpt lat="40.020023684486056" lon="18.153071807931894"><ele>105.33333333333334</ele><time>2026-04-29T17:18:19.999Z</time></trkpt><trkpt lat="40.02016742829434" lon="18.152951671615718"><ele>105.0</ele><time>2026-04-29T17:18:20.999Z</time></trkpt><trkpt lat="40.02033981095305" lon="18.152846521350458"><ele>105.0</ele><time>2026-04-29T17:18:21.999Z</time></trkpt><trkpt lat="40.020514275506024" lon="18.152737122121188"><ele>105.0</ele><time>2026-04-29T17:18:22.999Z</time></trkpt><trkpt lat="40.02068916171929" lon="18.152645162603807"><ele>105.0</ele><time>2026-04-29T17:18:23.999Z</time></trkpt><trkpt lat="40.02084530923462" lon="18.15258048289377"><ele>105.8</ele><time>2026-04-29T17:18:24.999Z</time></trkpt><trkpt lat="40.020971030091054" lon="18.15254693903043"><ele>106.6</ele><time>2026-04-29T17:18:25.999Z</time></trkpt><trkpt lat="40.02107711234549" lon="18.152522525176124"><ele>107.4</ele><time>2026-04-29T17:18:26.999Z</time></trkpt><trkpt lat="40.021161545475636" lon="18.152507186704263"><ele>108.2</ele><time>2026-04-29T17:18:27.999Z</time></trkpt><trkpt lat="40.021239498577" lon="18.152500808675864"><ele>109.0</ele><time>2026-04-29T17:18:28.999Z</time></trkpt><trkpt lat="40.02135686159182" lon="18.15254475882071"><ele>109.00000000000001</ele><time>2026-04-29T17:18:30.999Z</time></trkpt><trkpt lat="40.02142035390233" lon="18.152576157673813"><ele>109.0</ele><time>2026-04-29T17:18:31.999Z</time></trkpt><trkpt lat="40.02149091214577" lon="18.152612512348515"><ele>109.0</ele><time>2026-04-29T17:18:32.999Z</time></trkpt><trkpt lat="40.021563247914784" lon="18.152666134312067"><ele>109.0</ele><time>2026-04-29T17:18:33.999Z</time></trkpt><trkpt lat="40.02163173255187" lon="18.15276537167111"><ele>109.00000000000001</ele><time>2026-04-29T17:18:34.999Z</time></trkpt><trkpt lat="40.021699458618016" lon="18.152885550695558"><ele>109.0</ele><time>2026-04-29T17:18:35.999Z</time></trkpt><trkpt lat="40.02175978373461" lon="18.153041399873565"><ele>109.33333333333334</ele><time>2026-04-29T17:18:36.999Z</time></trkpt><trkpt lat="40.02184021239293" lon="18.15321931392126"><ele>109.66666666666666</ele><time>2026-04-29T17:18:37.999Z</time></trkpt><trkpt lat="40.02192354068075" lon="18.153416850087503"><ele>110.0</ele><time>2026-04-29T17:18:38.999Z</time></trkpt><trkpt lat="40.02201585183264" lon="18.153632240126168"><ele>110.0</ele><time>2026-04-29T17:18:39.999Z</time></trkpt><trkpt lat="40.02210144133067" lon="18.153863718876558"><ele>110.0</ele><time>2026-04-29T17:18:40.999Z</time></trkpt><trkpt lat="40.022203074236224" lon="18.15409358068922"><ele>110.0</ele><time>2026-04-29T17:18:41.999Z</time></trkpt><trkpt lat="40.02231398699082" lon="18.154314676541993"><ele>110.0</ele><time>2026-04-29T17:18:42.999Z</time></trkpt><trkpt lat="40.022442747561115" lon="18.154540498639026"><ele>110.0</ele><time>2026-04-29T17:18:43.999Z</time></trkpt><trkpt lat="40.02258403862224" lon="18.154759583415515"><ele>110.0</ele><time>2026-04-29T17:18:44.999Z</time></trkpt><trkpt lat="40.022737072381176" lon="18.15497397289357"><ele>114.0</ele><time>2026-04-29T17:18:45.999Z</time></trkpt><trkpt lat="40.02289322027509" lon="18.155186781704852"><ele>118.0</ele><time>2026-04-29T17:18:46.999Z</time></trkpt><trkpt lat="40.023059553878774" lon="18.15539336288212"><ele>118.0</ele><time>2026-04-29T17:18:47.999Z</time></trkpt><trkpt lat="40.02323545911995" lon="18.155607340031178"><ele>118.0</ele><time>2026-04-29T17:18:48.999Z</time></trkpt><trkpt lat="40.02340653813958" lon="18.155817843490016"><ele>121.0</ele><time>2026-04-29T17:18:49.999Z</time></trkpt><trkpt lat="40.02357878758082" lon="18.156025582792193"><ele>124.0</ele><time>2026-04-29T17:18:50.999Z</time></trkpt><trkpt lat="40.02375863571835" lon="18.15622988780224"><ele>124.0</ele><time>2026-04-29T17:18:51.999Z</time></trkpt><trkpt lat="40.023934907578436" lon="18.156439630200488"><ele>124.0</ele><time>2026-04-29T17:18:52.999Z</time></trkpt><trkpt lat="40.02410674806708" lon="18.15664923659075"><ele>125.5</ele><time>2026-04-29T17:18:53.999Z</time></trkpt><trkpt lat="40.0242778333834" lon="18.15685965006751"><ele>127.0</ele><time>2026-04-29T17:18:54.999Z</time></trkpt><trkpt lat="40.02444698388312" lon="18.157062508405193"><ele>127.0</ele><time>2026-04-29T17:18:55.999Z</time></trkpt><trkpt lat="40.024617548092515" lon="18.157264829297993"><ele>127.0</ele><time>2026-04-29T17:18:56.999Z</time></trkpt><trkpt lat="40.02479587854326" lon="18.157456246087413"><ele>128.0</ele><time>2026-04-29T17:18:57.999Z</time></trkpt><trkpt lat="40.024981461638056" lon="18.157631201419434"><ele>129.0</ele><time>2026-04-29T17:18:58.999Z</time></trkpt><trkpt lat="40.02517848436698" lon="18.15779371290113"><ele>129.0</ele><time>2026-04-29T17:18:59.999Z</time></trkpt><trkpt lat="40.02538555268273" lon="18.1579387643923"><ele>129.0</ele><time>2026-04-29T17:19:00.999Z</time></trkpt><trkpt lat="40.025599975619684" lon="18.1580606659557"><ele>129.5</ele><time>2026-04-29T17:19:01.999Z</time></trkpt><trkpt lat="40.02581987845978" lon="18.15816649321039"><ele>130.0</ele><time>2026-04-29T17:19:02.999Z</time></trkpt><trkpt lat="40.02604772376258" lon="18.158254557427405"><ele>130.33333333333334</ele><time>2026-04-29T17:19:03.999Z</time></trkpt><trkpt lat="40.02627247453614" lon="18.15833010132212"><ele>130.66666666666666</ele><time>2026-04-29T17:19:04.999Z</time></trkpt><trkpt lat="40.026480005302915" lon="18.158390292954117"><ele>131.0</ele><time>2026-04-29T17:19:05.999Z</time></trkpt><trkpt lat="40.02665993428549" lon="18.158448789658696"><ele>131.0</ele><time>2026-04-29T17:19:06.999Z</time></trkpt><trkpt lat="40.02680407462576" lon="18.15850343754523"><ele>131.0</ele><time>2026-04-29T17:19:07.999Z</time></trkpt><trkpt lat="40.02693882698393" lon="18.158542694836786"><ele>131.0</ele><time>2026-04-29T17:19:08.999Z</time></trkpt><trkpt lat="40.02704348505335" lon="18.1585790759562"><ele>131.0</ele><time>2026-04-29T17:19:09.999Z</time></trkpt><trkpt lat="40.02713421672168" lon="18.158618268291814"><ele>131.0</ele><time>2026-04-29T17:19:10.999Z</time></trkpt><trkpt lat="40.027211958984445" lon="18.158660346152363"><ele>131.0</ele><time>2026-04-29T17:19:11.999Z</time></trkpt><trkpt lat="40.02728277452232" lon="18.158736252156675"><ele>131.0</ele><time>2026-04-29T17:19:12.999Z</time></trkpt><trkpt lat="40.02736762697198" lon="18.158832267124687"><ele>131.0</ele><time>2026-04-29T17:19:13.999Z</time></trkpt><trkpt lat="40.02747719521321" lon="18.15889131801429"><ele>131.0</ele><time>2026-04-29T17:19:14.999Z</time></trkpt><trkpt lat="40.02762801982167" lon="18.158929184462572"><ele>131.66666666666666</ele><time>2026-04-29T17:19:15.999Z</time></trkpt><trkpt lat="40.02778937619025" lon="18.159009565977883"><ele>132.33333333333334</ele><time>2026-04-29T17:19:16.999Z</time></trkpt><trkpt lat="40.027952252746644" lon="18.159141371168506"><ele>133.0</ele><time>2026-04-29T17:19:17.999Z</time></trkpt><trkpt lat="40.02813529091654" lon="18.159307424424863"><ele>133.5</ele><time>2026-04-29T17:19:18.999Z</time></trkpt><trkpt lat="40.02832165183114" lon="18.15949606341619"><ele>134.0</ele><time>2026-04-29T17:19:19.999Z</time></trkpt><trkpt lat="40.02851718519673" lon="18.159689393797787"><ele>135.5</ele><time>2026-04-29T17:19:20.999Z</time></trkpt><trkpt lat="40.02870641082173" lon="18.15991885054912"><ele>137.0</ele><time>2026-04-29T17:19:21.999Z</time></trkpt><trkpt lat="40.02888923924564" lon="18.160169501189593"><ele>137.0</ele><time>2026-04-29T17:19:22.999Z</time></trkpt><trkpt lat="40.02906744636594" lon="18.16044221281616"><ele>137.0</ele><time>2026-04-29T17:19:23.999Z</time></trkpt><trkpt lat="40.02923192213435" lon="18.16073235780348"><ele>137.5</ele><time>2026-04-29T17:19:24.999Z</time></trkpt><trkpt lat="40.029378748281346" lon="18.16102794623823"><ele>138.0</ele><time>2026-04-29T17:19:25.999Z</time></trkpt><trkpt lat="40.0295198137221" lon="18.16132013764463"><ele>139.5</ele><time>2026-04-29T17:19:26.999Z</time></trkpt><trkpt lat="40.02964486632321" lon="18.16160448621361"><ele>141.0</ele><time>2026-04-29T17:19:27.999Z</time></trkpt><trkpt lat="40.029760521520544" lon="18.161862345963936"><ele>141.0</ele><time>2026-04-29T17:19:28.999Z</time></trkpt><trkpt lat="40.0298612435229" lon="18.162090775432393"><ele>141.0</ele><time>2026-04-29T17:19:29.999Z</time></trkpt><trkpt lat="40.02995133898843" lon="18.162289017367176"><ele>141.0</ele><time>2026-04-29T17:19:30.999Z</time></trkpt><trkpt lat="40.03002592168789" lon="18.162444259339022"><ele>141.6</ele><time>2026-04-29T17:19:31.999Z</time></trkpt><trkpt lat="40.03009194557154" lon="18.162589594952568"><ele>142.2</ele><time>2026-04-29T17:19:32.999Z</time></trkpt><trkpt lat="40.03014168666313" lon="18.162705014872007"><ele>142.8</ele><time>2026-04-29T17:19:33.999Z</time></trkpt><trkpt lat="40.03018015132558" lon="18.16279832881023"><ele>143.4</ele><time>2026-04-29T17:19:34.999Z</time></trkpt><trkpt lat="40.03022375726771" lon="18.162918993615833"><ele>144.0</ele><time>2026-04-29T17:19:36.999Z</time></trkpt><trkpt lat="40.03023405413929" lon="18.16303124394875"><ele>144.0</ele><time>2026-04-29T17:19:38.999Z</time></trkpt><trkpt lat="40.030224717879534" lon="18.16311369433253"><ele>144.0</ele><time>2026-04-29T17:19:39.999Z</time></trkpt><trkpt lat="40.03022147942701" lon="18.16321433444091"><ele>144.0</ele><time>2026-04-29T17:19:40.999Z</time></trkpt><trkpt lat="40.03023502258002" lon="18.16332056898467"><ele>144.0</ele><time>2026-04-29T17:19:41.999Z</time></trkpt><trkpt lat="40.03025997217099" lon="18.16341875208213"><ele>144.0</ele><time>2026-04-29T17:19:42.999Z</time></trkpt><trkpt lat="40.03033778056998" lon="18.16349590574746"><ele>144.0</ele><time>2026-04-29T17:19:43.999Z</time></trkpt><trkpt lat="40.03043180297542" lon="18.163570944339508"><ele>144.25</ele><time>2026-04-29T17:19:44.999Z</time></trkpt><trkpt lat="40.03049583741545" lon="18.16370725633719"><ele>144.5</ele><time>2026-04-29T17:19:45.999Z</time></trkpt><trkpt lat="40.030543287816045" lon="18.163889323077804"><ele>144.75</ele><time>2026-04-29T17:19:46.999Z</time></trkpt><trkpt lat="40.03059307125064" lon="18.164080150138428"><ele>145.0</ele><time>2026-04-29T17:19:47.999Z</time></trkpt><trkpt lat="40.030651694981884" lon="18.164304582924753"><ele>145.33333333333334</ele><time>2026-04-29T17:19:48.999Z</time></trkpt><trkpt lat="40.030714375422185" lon="18.164549827080826"><ele>145.66666666666666</ele><time>2026-04-29T17:19:49.999Z</time></trkpt><trkpt lat="40.030780133384155" lon="18.164810533198473"><ele>146.0</ele><time>2026-04-29T17:19:50.999Z</time></trkpt><trkpt lat="40.030849638298825" lon="18.16507834067676"><ele>146.66666666666666</ele><time>2026-04-29T17:19:51.999Z</time></trkpt><trkpt lat="40.0309318019983" lon="18.16534474824746"><ele>147.33333333333334</ele><time>2026-04-29T17:19:52.999Z</time></trkpt><trkpt lat="40.030975213673294" lon="18.165608385325072"><ele>148.0</ele><time>2026-04-29T17:19:53.999Z</time></trkpt><trkpt lat="40.031022023431184" lon="18.16585201946058"><ele>148.66666666666669</ele><time>2026-04-29T17:19:54.999Z</time></trkpt><trkpt lat="40.03106223037296" lon="18.166098503095824"><ele>149.33333333333334</ele><time>2026-04-29T17:19:55.999Z</time></trkpt><trkpt lat="40.03109410644305" lon="18.16635159247295"><ele>150.0</ele><time>2026-04-29T17:19:56.999Z</time></trkpt><trkpt lat="40.03111343589237" lon="18.166613608210255"><ele>150.33333333333334</ele><time>2026-04-29T17:19:57.999Z</time></trkpt><trkpt lat="40.03112412158537" lon="18.166881930427692"><ele>150.66666666666669</ele><time>2026-04-29T17:19:58.999Z</time></trkpt><trkpt lat="40.031130242977625" lon="18.167141083276704"><ele>151.0</ele><time>2026-04-29T17:19:59.999Z</time></trkpt><trkpt lat="40.031130755658225" lon="18.167371591865514"><ele>151.75</ele><time>2026-04-29T17:20:00.999Z</time></trkpt><trkpt lat="40.03112604015193" lon="18.167575474633374"><ele>152.5</ele><time>2026-04-29T17:20:01.999Z</time></trkpt><trkpt lat="40.0311228848641" lon="18.16776552639928"><ele>153.25</ele><time>2026-04-29T17:20:02.999Z</time></trkpt><trkpt lat="40.03112016349872" lon="18.16793666906205"><ele>154.0</ele><time>2026-04-29T17:20:03.999Z</time></trkpt><trkpt lat="40.031117809288" lon="18.168092686341378"><ele>154.0</ele><time>2026-04-29T17:20:04.999Z</time></trkpt><trkpt lat="40.0311169706254" lon="18.16822682542754"><ele>154.0</ele><time>2026-04-29T17:20:05.999Z</time></trkpt><trkpt lat="40.03110733025211" lon="18.16832886095263"><ele>154.0</ele><time>2026-04-29T17:20:06.999Z</time></trkpt><trkpt lat="40.031090996573845" lon="18.168410537103146"><ele>154.0</ele><time>2026-04-29T17:20:07.999Z</time></trkpt><trkpt lat="40.03102465446444" lon="18.168552995240187"><ele>154.0</ele><time>2026-04-29T17:20:09.999Z</time></trkpt><trkpt lat="40.031018901216925" lon="18.16871293559977"><ele>154.0</ele><time>2026-04-29T17:20:11.999Z</time></trkpt><trkpt lat="40.031082009586115" lon="18.168837417357814"><ele>154.0</ele><time>2026-04-29T17:20:13.999Z</time></trkpt><trkpt lat="40.03115610716968" lon="18.168844659688997"><ele>154.0</ele><time>2026-04-29T17:20:14.999Z</time></trkpt><trkpt lat="40.031229776080814" lon="18.16877897550755"><ele>154.0</ele><time>2026-04-29T17:20:15.999Z</time></trkpt><trkpt lat="40.031305896009975" lon="18.16872688398203"><ele>154.0</ele><time>2026-04-29T17:20:16.999Z</time></trkpt><trkpt lat="40.03140530012132" lon="18.168671131614822"><ele>154.0</ele><time>2026-04-29T17:20:17.999Z</time></trkpt><trkpt lat="40.031528144147586" lon="18.168628492543476"><ele>154.0</ele><time>2026-04-29T17:20:18.999Z</time></trkpt><trkpt lat="40.0316879685954" lon="18.16861579351161"><ele>154.0</ele><time>2026-04-29T17:20:19.999Z</time></trkpt><trkpt lat="40.03185651568891" lon="18.16860379028114"><ele>155.0</ele><time>2026-04-29T17:20:20.999Z</time></trkpt><trkpt lat="40.032046656085825" lon="18.168621697225564"><ele>156.0</ele><time>2026-04-29T17:20:21.999Z</time></trkpt><trkpt lat="40.03224283634971" lon="18.168646338890998"><ele>157.0</ele><time>2026-04-29T17:20:22.999Z</time></trkpt><trkpt lat="40.03245431109345" lon="18.168687875339202"><ele>157.0</ele><time>2026-04-29T17:20:23.999Z</time></trkpt><trkpt lat="40.03267800839834" lon="18.16872413355156"><ele>157.0</ele><time>2026-04-29T17:20:24.999Z</time></trkpt><trkpt lat="40.03290898223575" lon="18.16876238617334"><ele>157.0</ele><time>2026-04-29T17:20:25.999Z</time></trkpt><trkpt lat="40.033139389003466" lon="18.1688048063621"><ele>157.0</ele><time>2026-04-29T17:20:26.999Z</time></trkpt><trkpt lat="40.033370919782705" lon="18.168843568793314"><ele>159.0</ele><time>2026-04-29T17:20:27.999Z</time></trkpt><trkpt lat="40.033603182153215" lon="18.168889204495134"><ele>161.0</ele><time>2026-04-29T17:20:28.999Z</time></trkpt><trkpt lat="40.03383004793913" lon="18.16893926741206"><ele>161.0</ele><time>2026-04-29T17:20:29.999Z</time></trkpt><trkpt lat="40.034052437545434" lon="18.169006061511638"><ele>161.0</ele><time>2026-04-29T17:20:30.999Z</time></trkpt><trkpt lat="40.03426926529445" lon="18.169102317823416"><ele>160.5</ele><time>2026-04-29T17:20:31.999Z</time></trkpt><trkpt lat="40.0345012246802" lon="18.169141611923248"><ele>160.0</ele><time>2026-04-29T17:20:32.999Z</time></trkpt><trkpt lat="40.03473270628585" lon="18.16918801812803"><ele>160.0</ele><time>2026-04-29T17:20:33.999Z</time></trkpt><trkpt lat="40.03496845449548" lon="18.16922842245575"><ele>160.0</ele><time>2026-04-29T17:20:34.999Z</time></trkpt><trkpt lat="40.03520021085643" lon="18.169256124269037"><ele>161.0</ele><time>2026-04-29T17:20:35.999Z</time></trkpt><trkpt lat="40.03542966044601" lon="18.169274749215237"><ele>162.0</ele><time>2026-04-29T17:20:36.999Z</time></trkpt><trkpt lat="40.03565893767661" lon="18.169321789849377"><ele>162.5</ele><time>2026-04-29T17:20:37.999Z</time></trkpt><trkpt lat="40.03589132104966" lon="18.16933762413023"><ele>163.0</ele><time>2026-04-29T17:20:38.999Z</time></trkpt><trkpt lat="40.036120869540866" lon="18.169354193122057"><ele>163.0</ele><time>2026-04-29T17:20:39.999Z</time></trkpt><trkpt lat="40.036350748013945" lon="18.169378130659265"><ele>163.0</ele><time>2026-04-29T17:20:40.999Z</time></trkpt><trkpt lat="40.0365821070408" lon="18.169412930907107"><ele>164.0</ele><time>2026-04-29T17:20:41.999Z</time></trkpt><trkpt lat="40.03680931531929" lon="18.16947208065712"><ele>165.0</ele><time>2026-04-29T17:20:42.999Z</time></trkpt><trkpt lat="40.03703246266751" lon="18.169548729653854"><ele>165.0</ele><time>2026-04-29T17:20:43.999Z</time></trkpt><trkpt lat="40.0372624500941" lon="18.169622846098473"><ele>165.0</ele><time>2026-04-29T17:20:44.999Z</time></trkpt><trkpt lat="40.03749046670373" lon="18.16966239134218"><ele>164.5</ele><time>2026-04-29T17:20:45.999Z</time></trkpt><trkpt lat="40.03772309156017" lon="18.169721381289296"><ele>164.0</ele><time>2026-04-29T17:20:46.999Z</time></trkpt><trkpt lat="40.037962753897645" lon="18.169755885129156"><ele>164.0</ele><time>2026-04-29T17:20:47.999Z</time></trkpt><trkpt lat="40.03819884645146" lon="18.169783211826395"><ele>164.0</ele><time>2026-04-29T17:20:48.999Z</time></trkpt><trkpt lat="40.038429883011325" lon="18.169809637076995"><ele>164.66666666666666</ele><time>2026-04-29T17:20:49.999Z</time></trkpt><trkpt lat="40.03864190755265" lon="18.16987777779305"><ele>165.33333333333334</ele><time>2026-04-29T17:20:50.999Z</time></trkpt><trkpt lat="40.03884910765128" lon="18.16996074575175"><ele>166.0</ele><time>2026-04-29T17:20:51.999Z</time></trkpt><trkpt lat="40.039057260850775" lon="18.170068447265027"><ele>166.0</ele><time>2026-04-29T17:20:52.999Z</time></trkpt><trkpt lat="40.03926978647241" lon="18.170184659363183"><ele>166.0</ele><time>2026-04-29T17:20:53.999Z</time></trkpt><trkpt lat="40.039482342543565" lon="18.17030202495693"><ele>166.0</ele><time>2026-04-29T17:20:54.999Z</time></trkpt><trkpt lat="40.039699452743456" lon="18.170422868308975"><ele>166.0</ele><time>2026-04-29T17:20:55.999Z</time></trkpt><trkpt lat="40.039919042936674" lon="18.1705450920032"><ele>165.5</ele><time>2026-04-29T17:20:56.999Z</time></trkpt><trkpt lat="40.040143824994544" lon="18.170670205526108"><ele>165.0</ele><time>2026-04-29T17:20:57.999Z</time></trkpt><trkpt lat="40.040366769648045" lon="18.170794296310504"><ele>163.5</ele><time>2026-04-29T17:20:58.999Z</time></trkpt><trkpt lat="40.04059543483629" lon="18.170922571382388"><ele>162.0</ele><time>2026-04-29T17:20:59.999Z</time></trkpt><trkpt lat="40.04083062167297" lon="18.171043754047506"><ele>160.5</ele><time>2026-04-29T17:21:00.999Z</time></trkpt><trkpt lat="40.04105443227113" lon="18.1711691555752"><ele>159.0</ele><time>2026-04-29T17:21:01.999Z</time></trkpt><trkpt lat="40.04126385945897" lon="18.171287655291763"><ele>159.0</ele><time>2026-04-29T17:21:02.999Z</time></trkpt><trkpt lat="40.04146592597606" lon="18.17139671792726"><ele>159.0</ele><time>2026-04-29T17:21:03.999Z</time></trkpt><trkpt lat="40.041677582370816" lon="18.17149060330339"><ele>159.0</ele><time>2026-04-29T17:21:04.999Z</time></trkpt><trkpt lat="40.041900559962535" lon="18.171559345395327"><ele>158.5</ele><time>2026-04-29T17:21:05.999Z</time></trkpt><trkpt lat="40.04213547493104" lon="18.17160094717011"><ele>158.0</ele><time>2026-04-29T17:21:06.999Z</time></trkpt><trkpt lat="40.04237810756531" lon="18.171619453951642"><ele>157.5</ele><time>2026-04-29T17:21:07.999Z</time></trkpt><trkpt lat="40.042635339082906" lon="18.1715972585229"><ele>157.0</ele><time>2026-04-29T17:21:08.999Z</time></trkpt><trkpt lat="40.04287359821578" lon="18.17161092674743"><ele>157.0</ele><time>2026-04-29T17:21:09.999Z</time></trkpt><trkpt lat="40.04308951285888" lon="18.171613007229407"><ele>157.0</ele><time>2026-04-29T17:21:10.999Z</time></trkpt><trkpt lat="40.04330833740972" lon="18.171654161972395"><ele>157.0</ele><time>2026-04-29T17:21:11.999Z</time></trkpt><trkpt lat="40.04353222228927" lon="18.17166756672659"><ele>156.66666666666669</ele><time>2026-04-29T17:21:12.999Z</time></trkpt><trkpt lat="40.04374933258109" lon="18.171669610247957"><ele>156.33333333333334</ele><time>2026-04-29T17:21:13.999Z</time></trkpt><trkpt lat="40.04396103432931" lon="18.17167616218191"><ele>156.0</ele><time>2026-04-29T17:21:14.999Z</time></trkpt><trkpt lat="40.04417184004659" lon="18.17166729588511"><ele>157.0</ele><time>2026-04-29T17:21:15.999Z</time></trkpt><trkpt lat="40.04435636312402" lon="18.171665394663165"><ele>158.0</ele><time>2026-04-29T17:21:16.999Z</time></trkpt><trkpt lat="40.044520181420694" lon="18.171686102780487"><ele>159.0</ele><time>2026-04-29T17:21:17.999Z</time></trkpt><trkpt lat="40.04467474296288" lon="18.171703997533985"><ele>159.0</ele><time>2026-04-29T17:21:18.999Z</time></trkpt><trkpt lat="40.04482169460992" lon="18.17171405179719"><ele>159.0</ele><time>2026-04-29T17:21:19.999Z</time></trkpt><trkpt lat="40.04495066710682" lon="18.171711912131407"><ele>159.0</ele><time>2026-04-29T17:21:20.999Z</time></trkpt><trkpt lat="40.04506773853531" lon="18.17170797851153"><ele>159.0</ele><time>2026-04-29T17:21:21.999Z</time></trkpt><trkpt lat="40.04518061678568" lon="18.17169388697986"><ele>158.25</ele><time>2026-04-29T17:21:22.999Z</time></trkpt><trkpt lat="40.04528942848996" lon="18.171671584862036"><ele>157.5</ele><time>2026-04-29T17:21:23.999Z</time></trkpt><trkpt lat="40.04541985685212" lon="18.171645763146763"><ele>156.75</ele><time>2026-04-29T17:21:24.999Z</time></trkpt><trkpt lat="40.04557726456006" lon="18.171617749031416"><ele>156.0</ele><time>2026-04-29T17:21:25.999Z</time></trkpt><trkpt lat="40.04576215107665" lon="18.17156638407417"><ele>157.0</ele><time>2026-04-29T17:21:26.999Z</time></trkpt><trkpt lat="40.04595394284296" lon="18.171495377732946"><ele>158.0</ele><time>2026-04-29T17:21:27.999Z</time></trkpt><trkpt lat="40.04615666202848" lon="18.17140922342939"><ele>159.0</ele><time>2026-04-29T17:21:28.999Z</time></trkpt><trkpt lat="40.04637562548677" lon="18.17131441753958"><ele>159.0</ele><time>2026-04-29T17:21:29.999Z</time></trkpt><trkpt lat="40.046604019483006" lon="18.171208454941834"><ele>159.0</ele><time>2026-04-29T17:21:30.999Z</time></trkpt><trkpt lat="40.046838082337" lon="18.171101628165843"><ele>158.0</ele><time>2026-04-29T17:21:31.999Z</time></trkpt><trkpt lat="40.047069239547234" lon="18.170991014916385"><ele>157.0</ele><time>2026-04-29T17:21:32.999Z</time></trkpt><trkpt lat="40.04730287308794" lon="18.170868265974516"><ele>157.0</ele><time>2026-04-29T17:21:33.999Z</time></trkpt><trkpt lat="40.04753465298757" lon="18.170733118931004"><ele>157.0</ele><time>2026-04-29T17:21:34.999Z</time></trkpt><trkpt lat="40.047766263363236" lon="18.170581530622247"><ele>157.0</ele><time>2026-04-29T17:21:35.999Z</time></trkpt><trkpt lat="40.047997145718526" lon="18.17042903529814"><ele>157.0</ele><time>2026-04-29T17:21:36.999Z</time></trkpt><trkpt lat="40.048228661757335" lon="18.170286899141278"><ele>155.5</ele><time>2026-04-29T17:21:37.999Z</time></trkpt><trkpt lat="40.0484592013009" lon="18.17013855517354"><ele>154.0</ele><time>2026-04-29T17:21:38.999Z</time></trkpt><trkpt lat="40.04869090726553" lon="18.169993483018676"><ele>155.0</ele><time>2026-04-29T17:21:39.999Z</time></trkpt><trkpt lat="40.04892250719759" lon="18.16985129590038"><ele>156.0</ele><time>2026-04-29T17:21:40.999Z</time></trkpt><trkpt lat="40.04914905214389" lon="18.169710306223543"><ele>156.0</ele><time>2026-04-29T17:21:41.999Z</time></trkpt><trkpt lat="40.04937976522464" lon="18.169574137720392"><ele>156.0</ele><time>2026-04-29T17:21:42.999Z</time></trkpt><trkpt lat="40.049610192024325" lon="18.169448713255093"><ele>156.0</ele><time>2026-04-29T17:21:43.999Z</time></trkpt><trkpt lat="40.04984391172692" lon="18.169333783767012"><ele>156.0</ele><time>2026-04-29T17:21:44.999Z</time></trkpt><trkpt lat="40.050081465522055" lon="18.169231651185175"><ele>153.5</ele><time>2026-04-29T17:21:45.999Z</time></trkpt><trkpt lat="40.05032534093096" lon="18.169141854307345"><ele>151.0</ele><time>2026-04-29T17:21:46.999Z</time></trkpt><trkpt lat="40.05057113765828" lon="18.16906846893961"><ele>152.0</ele><time>2026-04-29T17:21:47.999Z</time></trkpt><trkpt lat="40.05082163900568" lon="18.169003639005286"><ele>153.0</ele><time>2026-04-29T17:21:48.999Z</time></trkpt><trkpt lat="40.05107567168781" lon="18.168936000364994"><ele>153.0</ele><time>2026-04-29T17:21:49.999Z</time></trkpt><trkpt lat="40.05132998844394" lon="18.168873138604763"><ele>153.0</ele><time>2026-04-29T17:21:50.999Z</time></trkpt><trkpt lat="40.05158530028177" lon="18.168804569307394"><ele>152.0</ele><time>2026-04-29T17:21:51.999Z</time></trkpt><trkpt lat="40.05183680040976" lon="18.168734795659624"><ele>151.0</ele><time>2026-04-29T17:21:52.999Z</time></trkpt><trkpt lat="40.05208956765577" lon="18.168666866253005"><ele>151.0</ele><time>2026-04-29T17:21:53.999Z</time></trkpt><trkpt lat="40.05234267094089" lon="18.168597438242333"><ele>151.0</ele><time>2026-04-29T17:21:54.999Z</time></trkpt><trkpt lat="40.05259484614036" lon="18.168532613417703"><ele>149.0</ele><time>2026-04-29T17:21:55.999Z</time></trkpt><trkpt lat="40.05285046602627" lon="18.168476917884238"><ele>147.0</ele><time>2026-04-29T17:21:56.999Z</time></trkpt><trkpt lat="40.05310652796827" lon="18.168442315173838"><ele>144.5</ele><time>2026-04-29T17:21:57.999Z</time></trkpt><trkpt lat="40.05336547937084" lon="18.168441916173364"><ele>142.0</ele><time>2026-04-29T17:21:58.999Z</time></trkpt><trkpt lat="40.05362088225581" lon="18.168450017669663"><ele>142.0</ele><time>2026-04-29T17:21:59.999Z</time></trkpt><trkpt lat="40.053879072928645" lon="18.168465949073642"><ele>142.0</ele><time>2026-04-29T17:22:00.999Z</time></trkpt><trkpt lat="40.0541377155496" lon="18.168477572921947"><ele>139.5</ele><time>2026-04-29T17:22:01.999Z</time></trkpt><trkpt lat="40.0544004146437" lon="18.168487061169998"><ele>137.0</ele><time>2026-04-29T17:22:02.999Z</time></trkpt><trkpt lat="40.05466502452222" lon="18.168490347088902"><ele>137.0</ele><time>2026-04-29T17:22:03.999Z</time></trkpt><trkpt lat="40.05492444823482" lon="18.168499517123834"><ele>137.0</ele><time>2026-04-29T17:22:04.999Z</time></trkpt><trkpt lat="40.055182405986116" lon="18.16851520340373"><ele>135.5</ele><time>2026-04-29T17:22:05.999Z</time></trkpt><trkpt lat="40.05542026929347" lon="18.168523693591446"><ele>134.0</ele><time>2026-04-29T17:22:06.999Z</time></trkpt><trkpt lat="40.0556454417164" lon="18.168532287842805"><ele>132.66666666666666</ele><time>2026-04-29T17:22:07.999Z</time></trkpt><trkpt lat="40.0558636651258" lon="18.168531064501238"><ele>131.33333333333334</ele><time>2026-04-29T17:22:08.999Z</time></trkpt><trkpt lat="40.05608876863107" lon="18.168532709705836"><ele>130.0</ele><time>2026-04-29T17:22:09.999Z</time></trkpt><trkpt lat="40.05631125592543" lon="18.168515782852957"><ele>130.0</ele><time>2026-04-29T17:22:10.999Z</time></trkpt><trkpt lat="40.05652552699915" lon="18.16849116315998"><ele>130.0</ele><time>2026-04-29T17:22:11.999Z</time></trkpt><trkpt lat="40.056736735288915" lon="18.16844992964717"><ele>130.0</ele><time>2026-04-29T17:22:12.999Z</time></trkpt><trkpt lat="40.05694741655127" lon="18.16840010686537"><ele>129.33333333333334</ele><time>2026-04-29T17:22:13.999Z</time></trkpt><trkpt lat="40.05714980085477" lon="18.16834719583296"><ele>128.66666666666666</ele><time>2026-04-29T17:22:14.999Z</time></trkpt><trkpt lat="40.05732880231609" lon="18.168301164033007"><ele>128.0</ele><time>2026-04-29T17:22:15.999Z</time></trkpt><trkpt lat="40.05750316270134" lon="18.168254239206888"><ele>127.66666666666666</ele><time>2026-04-29T17:22:16.999Z</time></trkpt><trkpt lat="40.057675973071774" lon="18.168200868848796"><ele>127.33333333333334</ele><time>2026-04-29T17:22:17.999Z</time></trkpt><trkpt lat="40.05783882311281" lon="18.16815699502848"><ele>127.0</ele><time>2026-04-29T17:22:18.999Z</time></trkpt><trkpt lat="40.05801075272441" lon="18.168118576729245"><ele>127.0</ele><time>2026-04-29T17:22:19.999Z</time></trkpt><trkpt lat="40.05816659237267" lon="18.168081944670384"><ele>127.0</ele><time>2026-04-29T17:22:20.999Z</time></trkpt><trkpt lat="40.05831835952332" lon="18.168044924697796"><ele>127.0</ele><time>2026-04-29T17:22:21.999Z</time></trkpt><trkpt lat="40.05846697409332" lon="18.168002228652423"><ele>127.0</ele><time>2026-04-29T17:22:22.999Z</time></trkpt><trkpt lat="40.058610126155145" lon="18.16797045413362"><ele>127.0</ele><time>2026-04-29T17:22:23.999Z</time></trkpt><trkpt lat="40.05875482656029" lon="18.167935708043732"><ele>127.0</ele><time>2026-04-29T17:22:24.999Z</time></trkpt><trkpt lat="40.058888048362185" lon="18.16790306829759"><ele>127.0</ele><time>2026-04-29T17:22:25.999Z</time></trkpt><trkpt lat="40.05902087969222" lon="18.16786602123248"><ele>126.8</ele><time>2026-04-29T17:22:26.999Z</time></trkpt><trkpt lat="40.059146969251074" lon="18.167836016954897"><ele>126.6</ele><time>2026-04-29T17:22:27.999Z</time></trkpt><trkpt lat="40.059263346458636" lon="18.167803010924377"><ele>126.39999999999999</ele><time>2026-04-29T17:22:28.999Z</time></trkpt><trkpt lat="40.05936099242859" lon="18.167778306037615"><ele>126.19999999999999</ele><time>2026-04-29T17:22:29.999Z</time></trkpt><trkpt lat="40.05943401870424" lon="18.167762114690113"><ele>126.0</ele><time>2026-04-29T17:22:30.999Z</time></trkpt><trkpt lat="40.05951055919913" lon="18.167764088209932"><ele>126.0</ele><time>2026-04-29T17:22:32.999Z</time></trkpt><trkpt lat="40.05951691069692" lon="18.16787338515874"><ele>126.0</ele><time>2026-04-29T17:22:33.999Z</time></trkpt><trkpt lat="40.05954875799047" lon="18.167960049379484"><ele>126.0</ele><time>2026-04-29T17:22:34.999Z</time></trkpt><trkpt lat="40.05958708070985" lon="18.168061150277623"><ele>126.0</ele><time>2026-04-29T17:22:35.999Z</time></trkpt><trkpt lat="40.05963499985884" lon="18.168187568073712"><ele>126.0</ele><time>2026-04-29T17:22:36.999Z</time></trkpt><trkpt lat="40.05970132007849" lon="18.16831391641454"><ele>125.75</ele><time>2026-04-29T17:22:37.999Z</time></trkpt><trkpt lat="40.05976064716029" lon="18.16847486215604"><ele>125.5</ele><time>2026-04-29T17:22:38.999Z</time></trkpt><trkpt lat="40.05981481646066" lon="18.168632265655155"><ele>125.25</ele><time>2026-04-29T17:22:39.999Z</time></trkpt><trkpt lat="40.05987334292292" lon="18.168779840393476"><ele>125.0</ele><time>2026-04-29T17:22:40.999Z</time></trkpt><trkpt lat="40.05992229921579" lon="18.168909383958926"><ele>125.0</ele><time>2026-04-29T17:22:41.999Z</time></trkpt><trkpt lat="40.05996880537699" lon="18.169039457844594"><ele>125.0</ele><time>2026-04-29T17:22:42.999Z</time></trkpt><trkpt lat="40.060019615869614" lon="18.16917223192463"><ele>125.0</ele><time>2026-04-29T17:22:43.999Z</time></trkpt><trkpt lat="40.060070284253285" lon="18.169300706185453"><ele>125.0</ele><time>2026-04-29T17:22:44.999Z</time></trkpt><trkpt lat="40.06012043464589" lon="18.169423851830707"><ele>125.0</ele><time>2026-04-29T17:22:45.999Z</time></trkpt><trkpt lat="40.06016668756372" lon="18.169552918036537"><ele>125.0</ele><time>2026-04-29T17:22:46.998Z</time></trkpt><trkpt lat="40.0602227337883" lon="18.169686783152315"><ele>125.0</ele><time>2026-04-29T17:22:47.998Z</time></trkpt><trkpt lat="40.06028911304346" lon="18.169851598320545"><ele>125.0</ele><time>2026-04-29T17:22:48.998Z</time></trkpt><trkpt lat="40.06036275688986" lon="18.17003941859583"><ele>125.0</ele><time>2026-04-29T17:22:49.998Z</time></trkpt><trkpt lat="40.06044058130739" lon="18.170227755347852"><ele>124.66666666666666</ele><time>2026-04-29T17:22:50.998Z</time></trkpt><trkpt lat="40.06050443103" lon="18.170406585792517"><ele>124.33333333333334</ele><time>2026-04-29T17:22:51.998Z</time></trkpt><trkpt lat="40.06057169809814" lon="18.170587002681252"><ele>124.0</ele><time>2026-04-29T17:22:52.998Z</time></trkpt><trkpt lat="40.06064328542171" lon="18.17077401183916"><ele>124.0</ele><time>2026-04-29T17:22:53.998Z</time></trkpt><trkpt lat="40.06070859579798" lon="18.170984563833386"><ele>124.0</ele><time>2026-04-29T17:22:54.998Z</time></trkpt><trkpt lat="40.060792914790625" lon="18.171195949712594"><ele>124.0</ele><time>2026-04-29T17:22:55.998Z</time></trkpt><trkpt lat="40.06087049943651" lon="18.171420213232185"><ele>123.66666666666667</ele><time>2026-04-29T17:22:56.998Z</time></trkpt><trkpt lat="40.06094735893279" lon="18.171658181265336"><ele>123.33333333333334</ele><time>2026-04-29T17:22:57.998Z</time></trkpt><trkpt lat="40.0610220298734" lon="18.17188291352674"><ele>123.0</ele><time>2026-04-29T17:22:58.998Z</time></trkpt><trkpt lat="40.06108092320033" lon="18.172060160826085"><ele>123.0</ele><time>2026-04-29T17:22:59.998Z</time></trkpt><trkpt lat="40.06114724945081" lon="18.1722105301532"><ele>123.0</ele><time>2026-04-29T17:23:00.998Z</time></trkpt><trkpt lat="40.0611810346226" lon="18.17235640924447"><ele>123.0</ele><time>2026-04-29T17:23:01.998Z</time></trkpt><trkpt lat="40.06122695992879" lon="18.172485616644202"><ele>123.0</ele><time>2026-04-29T17:23:02.998Z</time></trkpt><trkpt lat="40.06127155215155" lon="18.172610373137015"><ele>123.2</ele><time>2026-04-29T17:23:03.998Z</time></trkpt><trkpt lat="40.06128469081171" lon="18.17274034245808"><ele>123.4</ele><time>2026-04-29T17:23:04.998Z</time></trkpt><trkpt lat="40.061302013888486" lon="18.172861313780388"><ele>123.60000000000001</ele><time>2026-04-29T17:23:05.998Z</time></trkpt><trkpt lat="40.061321210943824" lon="18.172989426093235"><ele>123.80000000000001</ele><time>2026-04-29T17:23:06.998Z</time></trkpt><trkpt lat="40.061354129360666" lon="18.173134137986903"><ele>124.0</ele><time>2026-04-29T17:23:07.998Z</time></trkpt><trkpt lat="40.06142079557956" lon="18.173293877883136"><ele>124.33333333333334</ele><time>2026-04-29T17:23:08.998Z</time></trkpt><trkpt lat="40.06148855624084" lon="18.17349324445144"><ele>124.66666666666666</ele><time>2026-04-29T17:23:09.998Z</time></trkpt><trkpt lat="40.06158129251931" lon="18.173710021203764"><ele>125.0</ele><time>2026-04-29T17:23:10.998Z</time></trkpt><trkpt lat="40.061682115155506" lon="18.17391992631918"><ele>125.0</ele><time>2026-04-29T17:23:11.998Z</time></trkpt><trkpt lat="40.06177391813347" lon="18.174107143485244"><ele>125.0</ele><time>2026-04-29T17:23:12.998Z</time></trkpt><trkpt lat="40.061849839604406" lon="18.174262811530614"><ele>125.0</ele><time>2026-04-29T17:23:13.998Z</time></trkpt><trkpt lat="40.06191771103962" lon="18.174397201454674"><ele>125.0</ele><time>2026-04-29T17:23:14.998Z</time></trkpt><trkpt lat="40.06199040919633" lon="18.174544190707103"><ele>125.0</ele><time>2026-04-29T17:23:15.998Z</time></trkpt><trkpt lat="40.062066274298786" lon="18.17469701404635"><ele>125.0</ele><time>2026-04-29T17:23:16.998Z</time></trkpt><trkpt lat="40.062146749913275" lon="18.174855778347535"><ele>125.0</ele><time>2026-04-29T17:23:17.998Z</time></trkpt><trkpt lat="40.062222913880404" lon="18.175029353810594"><ele>125.0</ele><time>2026-04-29T17:23:18.998Z</time></trkpt><trkpt lat="40.06231460860967" lon="18.17520120747801"><ele>125.0</ele><time>2026-04-29T17:23:19.999Z</time></trkpt><trkpt lat="40.062407482867044" lon="18.175366975485456"><ele>125.0</ele><time>2026-04-29T17:23:20.999Z</time></trkpt><trkpt lat="40.06250385583711" lon="18.175527423505606"><ele>125.0</ele><time>2026-04-29T17:23:21.999Z</time></trkpt><trkpt lat="40.062591015994535" lon="18.1756736449078"><ele>125.25</ele><time>2026-04-29T17:23:22.999Z</time></trkpt><trkpt lat="40.06267106146713" lon="18.17581568683058"><ele>125.5</ele><time>2026-04-29T17:23:23.999Z</time></trkpt><trkpt lat="40.062745944549064" lon="18.175947530421908"><ele>125.75</ele><time>2026-04-29T17:23:24.999Z</time></trkpt><trkpt lat="40.062829931488224" lon="18.176050703754914"><ele>126.0</ele><time>2026-04-29T17:23:25.999Z</time></trkpt><trkpt lat="40.06289928214343" lon="18.176169412672152"><ele>126.0</ele><time>2026-04-29T17:23:26.999Z</time></trkpt><trkpt lat="40.06297995612557" lon="18.17628554806457"><ele>126.0</ele><time>2026-04-29T17:23:27.999Z</time></trkpt><trkpt lat="40.06306605432986" lon="18.176413899874827"><ele>126.0</ele><time>2026-04-29T17:23:28.999Z</time></trkpt><trkpt lat="40.063152147401134" lon="18.17656513623207"><ele>126.0</ele><time>2026-04-29T17:23:29.999Z</time></trkpt><trkpt lat="40.063235744281776" lon="18.176724088849923"><ele>125.6</ele><time>2026-04-29T17:23:30.999Z</time></trkpt><trkpt lat="40.06330742219407" lon="18.176863677891028"><ele>125.19999999999999</ele><time>2026-04-29T17:23:31.999Z</time></trkpt><trkpt lat="40.06336727858043" lon="18.176969187328357"><ele>124.80000000000001</ele><time>2026-04-29T17:23:32.999Z</time></trkpt><trkpt lat="40.063426557040714" lon="18.17707700792011"><ele>124.4</ele><time>2026-04-29T17:23:34.999Z</time></trkpt><trkpt lat="40.06345866598222" lon="18.177161016944453"><ele>124.0</ele><time>2026-04-29T17:23:36.999Z</time></trkpt><trkpt lat="40.06350256417138" lon="18.177241854605423"><ele>124.0</ele><time>2026-04-29T17:23:38.999Z</time></trkpt><trkpt lat="40.063545009083484" lon="18.177348634690716"><ele>124.0</ele><time>2026-04-29T17:23:40.999Z</time></trkpt><trkpt lat="40.06359929397361" lon="18.177451606169335"><ele>124.0</ele><time>2026-04-29T17:23:42.999Z</time></trkpt><trkpt lat="40.06367370928855" lon="18.17759939338724"><ele>124.0</ele><time>2026-04-29T17:23:44.999Z</time></trkpt><trkpt lat="40.063723839654614" lon="18.177704904572543"><ele>124.0</ele><time>2026-04-29T17:23:45.999Z</time></trkpt><trkpt lat="40.06377966179519" lon="18.17782530794117"><ele>124.0</ele><time>2026-04-29T17:23:46.999Z</time></trkpt><trkpt lat="40.06384199499551" lon="18.177941280939322"><ele>124.0</ele><time>2026-04-29T17:23:47.999Z</time></trkpt><trkpt lat="40.06389642107078" lon="18.17804271518547"><ele>124.0</ele><time>2026-04-29T17:23:48.999Z</time></trkpt><trkpt lat="40.06394915953841" lon="18.17813179461465"><ele>124.0</ele><time>2026-04-29T17:23:49.999Z</time></trkpt><trkpt lat="40.06399629054483" lon="18.17822266894102"><ele>124.0</ele><time>2026-04-29T17:23:50.999Z</time></trkpt><trkpt lat="40.064033154823974" lon="18.17833512015132"><ele>124.0</ele><time>2026-04-29T17:23:51.999Z</time></trkpt><trkpt lat="40.06409129463442" lon="18.178452127173074"><ele>124.0</ele><time>2026-04-29T17:23:52.999Z</time></trkpt><trkpt lat="40.06415254273346" lon="18.178573787907805"><ele>124.0</ele><time>2026-04-29T17:23:53.999Z</time></trkpt><trkpt lat="40.06421783538234" lon="18.178698838037302"><ele>124.0</ele><time>2026-04-29T17:23:54.999Z</time></trkpt><trkpt lat="40.06429414584546" lon="18.17883436562749"><ele>124.25</ele><time>2026-04-29T17:23:55.999Z</time></trkpt><trkpt lat="40.06438576813282" lon="18.178968122177206"><ele>124.5</ele><time>2026-04-29T17:23:56.999Z</time></trkpt><trkpt lat="40.06445238321212" lon="18.179099863034793"><ele>124.75</ele><time>2026-04-29T17:23:57.999Z</time></trkpt><trkpt lat="40.06451703357892" lon="18.179219415615403"><ele>125.0</ele><time>2026-04-29T17:23:58.999Z</time></trkpt><trkpt lat="40.064575785210856" lon="18.179321933929543"><ele>124.99999999999999</ele><time>2026-04-29T17:23:59.999Z</time></trkpt><trkpt lat="40.06462523621568" lon="18.1794090548443"><ele>125.0</ele><time>2026-04-29T17:24:00.999Z</time></trkpt><trkpt lat="40.06466654775516" lon="18.179478564803095"><ele>125.0</ele><time>2026-04-29T17:24:01.999Z</time></trkpt><trkpt lat="40.06472362274669" lon="18.179590007664835"><ele>125.0</ele><time>2026-04-29T17:24:03.999Z</time></trkpt><trkpt lat="40.064798712467585" lon="18.179704791201853"><ele>124.99999999999999</ele><time>2026-04-29T17:24:05.999Z</time></trkpt><trkpt lat="40.06485268665481" lon="18.1797642877431"><ele>125.0</ele><time>2026-04-29T17:24:06.999Z</time></trkpt><trkpt lat="40.0649251423395" lon="18.179832239226737"><ele>124.0</ele><time>2026-04-29T17:24:07.999Z</time></trkpt><trkpt lat="40.06501260673383" lon="18.179921045673765"><ele>123.0</ele><time>2026-04-29T17:24:08.999Z</time></trkpt><trkpt lat="40.06511972302625" lon="18.18003981147231"><ele>122.0</ele><time>2026-04-29T17:24:09.999Z</time></trkpt><trkpt lat="40.06522863912632" lon="18.18016322631048"><ele>121.0</ele><time>2026-04-29T17:24:10.999Z</time></trkpt><trkpt lat="40.06531489941641" lon="18.180256024718496"><ele>121.0</ele><time>2026-04-29T17:24:11.999Z</time></trkpt><trkpt lat="40.065379168943515" lon="18.180326150853148"><ele>121.0</ele><time>2026-04-29T17:24:12.999Z</time></trkpt><trkpt lat="40.065472552839985" lon="18.18041794405979"><ele>121.0</ele><time>2026-04-29T17:24:14.999Z</time></trkpt><trkpt lat="40.06550338776768" lon="18.18053734717732"><ele>121.0</ele><time>2026-04-29T17:24:16.999Z</time></trkpt><trkpt lat="40.065605071618705" lon="18.180514673129853"><ele>121.0</ele><time>2026-04-29T17:24:17.999Z</time></trkpt><trkpt lat="40.06567145627467" lon="18.180509542531485"><ele>121.0</ele><time>2026-04-29T17:24:18.999Z</time></trkpt><trkpt lat="40.06575036082749" lon="18.180467911030448"><ele>121.0</ele><time>2026-04-29T17:24:19.999Z</time></trkpt><trkpt lat="40.065837554497755" lon="18.180410323805706"><ele>121.0</ele><time>2026-04-29T17:24:20.999Z</time></trkpt><trkpt lat="40.06589889749432" lon="18.180362565419152"><ele>121.0</ele><time>2026-04-29T17:24:21.999Z</time></trkpt><trkpt lat="40.0659656152356" lon="18.180231455767533"><ele>121.0</ele><time>2026-04-29T17:24:23.999Z</time></trkpt><trkpt lat="40.065975952540924" lon="18.18013135705202"><ele>121.0</ele><time>2026-04-29T17:24:24.999Z</time></trkpt><trkpt lat="40.065971346284485" lon="18.179996356641436"><ele>121.0</ele><time>2026-04-29T17:24:25.999Z</time></trkpt><trkpt lat="40.06596467212018" lon="18.179836126300316"><ele>121.0</ele><time>2026-04-29T17:24:26.999Z</time></trkpt><trkpt lat="40.06595884960938" lon="18.179646547253544"><ele>121.0</ele><time>2026-04-29T17:24:27.999Z</time></trkpt><trkpt lat="40.06595678749074" lon="18.179439906919814"><ele>121.0</ele><time>2026-04-29T17:24:28.999Z</time></trkpt><trkpt lat="40.06595227061667" lon="18.17921637650282"><ele>121.0</ele><time>2026-04-29T17:24:29.999Z</time></trkpt><trkpt lat="40.065951923564334" lon="18.178993774757355"><ele>121.0</ele><time>2026-04-29T17:24:30.999Z</time></trkpt><trkpt lat="40.065951960317925" lon="18.178801538099318"><ele>121.0</ele><time>2026-04-29T17:24:31.999Z</time></trkpt><trkpt lat="40.065948642334725" lon="18.17862052301514"><ele>121.0</ele><time>2026-04-29T17:24:32.999Z</time></trkpt><trkpt lat="40.065940424166335" lon="18.178438352861985"><ele>121.0</ele><time>2026-04-29T17:24:33.999Z</time></trkpt><trkpt lat="40.06593077832903" lon="18.178248888269575"><ele>121.0</ele><time>2026-04-29T17:24:34.999Z</time></trkpt><trkpt lat="40.06592964677951" lon="18.178080755973024"><ele>121.16666666666667</ele><time>2026-04-29T17:24:35.999Z</time></trkpt><trkpt lat="40.06593575571028" lon="18.17793660751785"><ele>121.33333333333334</ele><time>2026-04-29T17:24:36.999Z</time></trkpt><trkpt lat="40.06593633317809" lon="18.177810996553546"><ele>121.5</ele><time>2026-04-29T17:24:37.999Z</time></trkpt><trkpt lat="40.065933044704146" lon="18.177703503134335"><ele>121.66666666666666</ele><time>2026-04-29T17:24:38.999Z</time></trkpt><trkpt lat="40.0659344029851" lon="18.17761829490104"><ele>121.83333333333333</ele><time>2026-04-29T17:24:39.999Z</time></trkpt><trkpt lat="40.06596078318478" lon="18.177507062099664"><ele>122.0</ele><time>2026-04-29T17:24:41.999Z</time></trkpt><trkpt lat="40.06605532320413" lon="18.177486317581415"><ele>122.0</ele><time>2026-04-29T17:24:43.999Z</time></trkpt><trkpt lat="40.066122651689085" lon="18.177518459580714"><ele>121.99999999999999</ele><time>2026-04-29T17:24:44.999Z</time></trkpt><trkpt lat="40.066216185352296" lon="18.177519486496262"><ele>121.99999999999999</ele><time>2026-04-29T17:24:45.999Z</time></trkpt><trkpt lat="40.06633764545167" lon="18.177520365915623"><ele>122.0</ele><time>2026-04-29T17:24:46.999Z</time></trkpt><trkpt lat="40.06648713946219" lon="18.177518907181394"><ele>122.0</ele><time>2026-04-29T17:24:47.999Z</time></trkpt><trkpt lat="40.06664449418778" lon="18.177497511329005"><ele>121.66666666666666</ele><time>2026-04-29T17:24:48.999Z</time></trkpt><trkpt lat="40.06681181381697" lon="18.177506159210395"><ele>121.33333333333334</ele><time>2026-04-29T17:24:49.999Z</time></trkpt><trkpt lat="40.06698558084631" lon="18.177512081300414"><ele>121.0</ele><time>2026-04-29T17:24:50.999Z</time></trkpt><trkpt lat="40.06716703329554" lon="18.177517725797927"><ele>121.0</ele><time>2026-04-29T17:24:51.999Z</time></trkpt><trkpt lat="40.06735574116782" lon="18.17752177672855"><ele>121.0</ele><time>2026-04-29T17:24:52.999Z</time></trkpt><trkpt lat="40.06754218345016" lon="18.177519070971105"><ele>121.0</ele><time>2026-04-29T17:24:53.999Z</time></trkpt><trkpt lat="40.067733342918906" lon="18.17751502572975"><ele>121.0</ele><time>2026-04-29T17:24:54.999Z</time></trkpt><trkpt lat="40.067919251152006" lon="18.177512637884707"><ele>121.0</ele><time>2026-04-29T17:24:55.999Z</time></trkpt><trkpt lat="40.068098498432505" lon="18.177507415555898"><ele>121.0</ele><time>2026-04-29T17:24:56.999Z</time></trkpt><trkpt lat="40.06827101248454" lon="18.17749887329795"><ele>121.0</ele><time>2026-04-29T17:24:57.999Z</time></trkpt><trkpt lat="40.068426533860006" lon="18.177491303789957"><ele>121.0</ele><time>2026-04-29T17:24:58.999Z</time></trkpt><trkpt lat="40.068563928918095" lon="18.177481612556385"><ele>121.0</ele><time>2026-04-29T17:24:59.999Z</time></trkpt><trkpt lat="40.06869037803553" lon="18.17748049591821"><ele>121.0</ele><time>2026-04-29T17:25:00.999Z</time></trkpt><trkpt lat="40.06880730722001" lon="18.17748545077774"><ele>121.0</ele><time>2026-04-29T17:25:01.999Z</time></trkpt><trkpt lat="40.06892797110246" lon="18.17748683764432"><ele>121.0</ele><time>2026-04-29T17:25:02.999Z</time></trkpt><trkpt lat="40.0690456125872" lon="18.177486588620745"><ele>121.0</ele><time>2026-04-29T17:25:03.999Z</time></trkpt><trkpt lat="40.06915828755899" lon="18.177480866387352"><ele>121.0</ele><time>2026-04-29T17:25:04.999Z</time></trkpt><trkpt lat="40.06927268440449" lon="18.17747604315921"><ele>121.25</ele><time>2026-04-29T17:25:05.999Z</time></trkpt><trkpt lat="40.069400123804726" lon="18.177478375684167"><ele>121.5</ele><time>2026-04-29T17:25:06.999Z</time></trkpt><trkpt lat="40.06953101040123" lon="18.177469093531503"><ele>121.75</ele><time>2026-04-29T17:25:07.999Z</time></trkpt><trkpt lat="40.06967473299924" lon="18.17748421441792"><ele>122.0</ele><time>2026-04-29T17:25:08.999Z</time></trkpt><trkpt lat="40.06982438838713" lon="18.177482228938437"><ele>121.75</ele><time>2026-04-29T17:25:09.999Z</time></trkpt><trkpt lat="40.06997969735161" lon="18.177480169961314"><ele>121.5</ele><time>2026-04-29T17:25:10.999Z</time></trkpt><trkpt lat="40.07012737931268" lon="18.177478210663836"><ele>121.25</ele><time>2026-04-29T17:25:11.999Z</time></trkpt><trkpt lat="40.07026768094528" lon="18.17747634928076"><ele>121.0</ele><time>2026-04-29T17:25:12.999Z</time></trkpt><trkpt lat="40.07039377372592" lon="18.177475033155517"><ele>121.0</ele><time>2026-04-29T17:25:13.999Z</time></trkpt><trkpt lat="40.070512390296926" lon="18.177473804957238"><ele>121.0</ele><time>2026-04-29T17:25:14.999Z</time></trkpt><trkpt lat="40.07061687704954" lon="18.177472723058134"><ele>121.0</ele><time>2026-04-29T17:25:15.999Z</time></trkpt><trkpt lat="40.07070422289765" lon="18.177471818639134"><ele>121.0</ele><time>2026-04-29T17:25:16.999Z</time></trkpt><trkpt lat="40.0707803919864" lon="18.17747102995489"><ele>121.0</ele><time>2026-04-29T17:25:17.999Z</time></trkpt><trkpt lat="40.0708660939197" lon="18.17747014256022"><ele>121.0</ele><time>2026-04-29T17:25:19.999Z</time></trkpt><trkpt lat="40.07094133128746" lon="18.177356596806405"><ele>121.0</ele><time>2026-04-29T17:25:53.999Z</time></trkpt><trkpt lat="40.07095769173669" lon="18.177265821277253"><ele>121.0</ele><time>2026-04-29T17:25:54.999Z</time></trkpt><trkpt lat="40.070971268393" lon="18.177165114586796"><ele>121.0</ele><time>2026-04-29T17:25:55.999Z</time></trkpt><trkpt lat="40.071002149500295" lon="18.177046606498084"><ele>121.0</ele><time>2026-04-29T17:25:56.999Z</time></trkpt><trkpt lat="40.07102614185451" lon="18.176897682114546"><ele>120.66666666666667</ele><time>2026-04-29T17:25:57.999Z</time></trkpt><trkpt lat="40.07105325084685" lon="18.17672941262913"><ele>120.33333333333334</ele><time>2026-04-29T17:25:58.999Z</time></trkpt><trkpt lat="40.071084753973224" lon="18.176533868151317"><ele>120.0</ele><time>2026-04-29T17:25:59.999Z</time></trkpt><trkpt lat="40.07112005426224" lon="18.17631475392827"><ele>119.66666666666666</ele><time>2026-04-29T17:26:00.999Z</time></trkpt><trkpt lat="40.07115767493853" lon="18.176081921973232"><ele>119.33333333333333</ele><time>2026-04-29T17:26:01.999Z</time></trkpt><trkpt lat="40.07119923225053" lon="18.17583116698848"><ele>119.0</ele><time>2026-04-29T17:26:02.999Z</time></trkpt><trkpt lat="40.07123729912025" lon="18.175601473153083"><ele>119.0</ele><time>2026-04-29T17:26:03.999Z</time></trkpt><trkpt lat="40.07127246097704" lon="18.17538930814725"><ele>119.0</ele><time>2026-04-29T17:26:04.999Z</time></trkpt><trkpt lat="40.07130610364225" lon="18.175186309908348"><ele>119.0</ele><time>2026-04-29T17:26:05.999Z</time></trkpt><trkpt lat="40.07133816391016" lon="18.174996457713423"><ele>119.0</ele><time>2026-04-29T17:26:06.999Z</time></trkpt><trkpt lat="40.07137053243293" lon="18.174804841492474"><ele>119.0</ele><time>2026-04-29T17:26:07.999Z</time></trkpt><trkpt lat="40.07140295563837" lon="18.174612902919"><ele>119.0</ele><time>2026-04-29T17:26:08.999Z</time></trkpt><trkpt lat="40.0714362672756" lon="18.17442009181041"><ele>119.0</ele><time>2026-04-29T17:26:09.999Z</time></trkpt><trkpt lat="40.07146946557013" lon="18.17422491146979"><ele>119.0</ele><time>2026-04-29T17:26:10.999Z</time></trkpt><trkpt lat="40.07147523389653" lon="18.174019872586207"><ele>119.0</ele><time>2026-04-29T17:26:11.999Z</time></trkpt><trkpt lat="40.07151215016504" lon="18.173811379330672"><ele>119.25</ele><time>2026-04-29T17:26:12.999Z</time></trkpt><trkpt lat="40.071549286359094" lon="18.17362841201244"><ele>119.5</ele><time>2026-04-29T17:26:13.999Z</time></trkpt><trkpt lat="40.07158998312104" lon="18.17347508124777"><ele>119.75</ele><time>2026-04-29T17:26:14.999Z</time></trkpt><trkpt lat="40.07162195660893" lon="18.17334243996626"><ele>120.0</ele><time>2026-04-29T17:26:15.999Z</time></trkpt><trkpt lat="40.071644717117216" lon="18.17321899023231"><ele>120.25</ele><time>2026-04-29T17:26:16.999Z</time></trkpt><trkpt lat="40.071659589941646" lon="18.17310148013325"><ele>120.5</ele><time>2026-04-29T17:26:17.999Z</time></trkpt><trkpt lat="40.07167228166556" lon="18.17296146336286"><ele>120.75</ele><time>2026-04-29T17:26:18.999Z</time></trkpt><trkpt lat="40.07170025934917" lon="18.17280236931907"><ele>121.0</ele><time>2026-04-29T17:26:19.999Z</time></trkpt><trkpt lat="40.07173284617162" lon="18.172614432359858"><ele>121.0</ele><time>2026-04-29T17:26:20.999Z</time></trkpt><trkpt lat="40.07177235037206" lon="18.172386601106773"><ele>121.0</ele><time>2026-04-29T17:26:21.999Z</time></trkpt><trkpt lat="40.07181535884376" lon="18.172138560282654"><ele>121.0</ele><time>2026-04-29T17:26:22.999Z</time></trkpt><trkpt lat="40.07185213488509" lon="18.17191662514128"><ele>121.0</ele><time>2026-04-29T17:26:23.999Z</time></trkpt><trkpt lat="40.07188369596231" lon="18.171727313108743"><ele>121.0</ele><time>2026-04-29T17:26:24.999Z</time></trkpt><trkpt lat="40.07189670019803" lon="18.17155267831778"><ele>121.0</ele><time>2026-04-29T17:26:25.999Z</time></trkpt><trkpt lat="40.071929039020816" lon="18.171410351735048"><ele>121.0</ele><time>2026-04-29T17:26:26.999Z</time></trkpt><trkpt lat="40.07195100487711" lon="18.171304782774758"><ele>121.0</ele><time>2026-04-29T17:26:27.999Z</time></trkpt><trkpt lat="40.07196245557922" lon="18.17118639154792"><ele>121.0</ele><time>2026-04-29T17:26:29.999Z</time></trkpt><trkpt lat="40.07202973820849" lon="18.171144081990814"><ele>121.0</ele><time>2026-04-29T17:26:31.999Z</time></trkpt><trkpt lat="40.07218328609599" lon="18.171118042181423"><ele>121.0</ele><time>2026-04-29T17:26:33.999Z</time></trkpt><trkpt lat="40.072246707709375" lon="18.17109957666028"><ele>121.0</ele><time>2026-04-29T17:26:34.999Z</time></trkpt><trkpt lat="40.07234523926642" lon="18.171079050665835"><ele>121.0</ele><time>2026-04-29T17:26:36.999Z</time></trkpt><trkpt lat="40.07242284435385" lon="18.17103367488662"><ele>121.0</ele><time>2026-04-29T17:26:38.999Z</time></trkpt><trkpt lat="40.07256355261904" lon="18.17098588649709"><ele>121.0</ele><time>2026-04-29T17:26:40.999Z</time></trkpt><trkpt lat="40.07267964892412" lon="18.170947047509305"><ele>121.0</ele><time>2026-04-29T17:26:41.999Z</time></trkpt><trkpt lat="40.07282380862042" lon="18.170905994157355"><ele>120.25</ele><time>2026-04-29T17:26:42.999Z</time></trkpt><trkpt lat="40.07294781267487" lon="18.170869723410313"><ele>119.5</ele><time>2026-04-29T17:26:43.999Z</time></trkpt><trkpt lat="40.073053652808525" lon="18.17082524044788"><ele>118.75</ele><time>2026-04-29T17:26:44.999Z</time></trkpt><trkpt lat="40.07315366821339" lon="18.170781262438055"><ele>118.0</ele><time>2026-04-29T17:26:45.999Z</time></trkpt><trkpt lat="40.0732622272479" lon="18.17072808563937"><ele>117.60000000000001</ele><time>2026-04-29T17:26:46.999Z</time></trkpt><trkpt lat="40.073370506817696" lon="18.17069748834818"><ele>117.20000000000002</ele><time>2026-04-29T17:26:47.999Z</time></trkpt><trkpt lat="40.07346230642822" lon="18.1706609855715"><ele>116.8</ele><time>2026-04-29T17:26:48.999Z</time></trkpt><trkpt lat="40.07354108792181" lon="18.170639885484103"><ele>116.4</ele><time>2026-04-29T17:26:49.999Z</time></trkpt><trkpt lat="40.07363789906166" lon="18.170607935101014"><ele>116.0</ele><time>2026-04-29T17:26:51.999Z</time></trkpt><trkpt lat="40.07372302609599" lon="18.17057697368039"><ele>116.0</ele><time>2026-04-29T17:26:54.999Z</time></trkpt><trkpt lat="40.07379302839913" lon="18.170552884055347"><ele>116.0</ele><time>2026-04-29T17:26:55.999Z</time></trkpt><trkpt lat="40.073871714111775" lon="18.170520587529538"><ele>116.0</ele><time>2026-04-29T17:26:56.999Z</time></trkpt><trkpt lat="40.07396303050757" lon="18.170484059099177"><ele>116.0</ele><time>2026-04-29T17:26:57.999Z</time></trkpt><trkpt lat="40.074064705756435" lon="18.170452771282118"><ele>116.0</ele><time>2026-04-29T17:26:58.999Z</time></trkpt><trkpt lat="40.07419796841985" lon="18.170404397122642"><ele>115.75</ele><time>2026-04-29T17:26:59.999Z</time></trkpt><trkpt lat="40.07434109189419" lon="18.170348216193368"><ele>115.5</ele><time>2026-04-29T17:27:00.999Z</time></trkpt><trkpt lat="40.07447181912742" lon="18.17030257674698"><ele>115.25</ele><time>2026-04-29T17:27:01.999Z</time></trkpt><trkpt lat="40.07458698414256" lon="18.17027543584097"><ele>115.0</ele><time>2026-04-29T17:27:02.999Z</time></trkpt><trkpt lat="40.074684344138426" lon="18.170249800479272"><ele>115.00000000000001</ele><time>2026-04-29T17:27:03.999Z</time></trkpt><trkpt lat="40.07476141957748" lon="18.17022230280731"><ele>115.0</ele><time>2026-04-29T17:27:04.999Z</time></trkpt><trkpt lat="40.07482582849901" lon="18.17018390456404"><ele>115.0</ele><time>2026-04-29T17:27:06.999Z</time></trkpt><trkpt lat="40.07491862655712" lon="18.170134493093467"><ele>115.0</ele><time>2026-04-29T17:27:09.999Z</time></trkpt><trkpt lat="40.074999265086284" lon="18.17011644111541"><ele>115.00000000000001</ele><time>2026-04-29T17:27:10.999Z</time></trkpt><trkpt lat="40.07511100602036" lon="18.17009381179249"><ele>115.0</ele><time>2026-04-29T17:27:11.999Z</time></trkpt><trkpt lat="40.075217623707296" lon="18.170084748547016"><ele>114.0</ele><time>2026-04-29T17:27:12.999Z</time></trkpt><trkpt lat="40.075285271151564" lon="18.170052771291548"><ele>114.0</ele><time>2026-04-29T17:27:13.999Z</time></trkpt><trkpt lat="40.07537619492983" lon="18.170026127875577"><ele>114.0</ele><time>2026-04-29T17:27:15.999Z</time></trkpt></trkseg><trkseg><trkpt lat="40.07550223947837" lon="18.1699529274876"><ele>114.0</ele><time>2026-04-29T18:16:49.013Z</time></trkpt><trkpt lat="40.075587013716216" lon="18.169931559891108"><ele>114.0</ele><time>2026-04-29T18:16:50.013Z</time></trkpt><trkpt lat="40.075636954618425" lon="18.16987357008667"><ele>114.0</ele><time>2026-04-29T18:16:52.013Z</time></trkpt><trkpt lat="40.07563922193426" lon="18.16971677100066"><ele>114.0</ele><time>2026-04-29T18:16:54.013Z</time></trkpt><trkpt lat="40.07561655471944" lon="18.16961171605792"><ele>114.0</ele><time>2026-04-29T18:16:55.013Z</time></trkpt><trkpt lat="40.075578002436714" lon="18.169460775472494"><ele>113.80000000000001</ele><time>2026-04-29T18:16:56.013Z</time></trkpt><trkpt lat="40.07554606432837" lon="18.169296465429905"><ele>113.60000000000001</ele><time>2026-04-29T18:16:57.013Z</time></trkpt><trkpt lat="40.075521041906164" lon="18.1691760951243"><ele>113.4</ele><time>2026-04-29T18:16:58.013Z</time></trkpt><trkpt lat="40.07550293050934" lon="18.169058256744716"><ele>113.2</ele><time>2026-04-29T18:16:59.013Z</time></trkpt><trkpt lat="40.07547238467881" lon="18.168906284048735"><ele>113.0</ele><time>2026-04-29T18:17:00.013Z</time></trkpt><trkpt lat="40.075439380954336" lon="18.168731704400003"><ele>112.99999999999999</ele><time>2026-04-29T18:17:01.013Z</time></trkpt><trkpt lat="40.07540932116232" lon="18.168580915729766"><ele>113.0</ele><time>2026-04-29T18:17:02.013Z</time></trkpt><trkpt lat="40.07538986733439" lon="18.168474996688314"><ele>113.0</ele><time>2026-04-29T18:17:03.013Z</time></trkpt><trkpt lat="40.07537249710846" lon="18.16836933652373"><ele>113.0</ele><time>2026-04-29T18:17:05.013Z</time></trkpt><trkpt lat="40.075360143790455" lon="18.168279543602452"><ele>112.99999999999999</ele><time>2026-04-29T18:17:07.013Z</time></trkpt><trkpt lat="40.07533545993001" lon="18.168171837826502"><ele>113.0</ele><time>2026-04-29T18:17:08.013Z</time></trkpt><trkpt lat="40.07530580499876" lon="18.16804622352574"><ele>113.0</ele><time>2026-04-29T18:17:09.013Z</time></trkpt><trkpt lat="40.07526851634" lon="18.167879421550097"><ele>113.0</ele><time>2026-04-29T18:17:10.013Z</time></trkpt><trkpt lat="40.07522883584549" lon="18.167697732060603"><ele>113.0</ele><time>2026-04-29T18:17:11.013Z</time></trkpt><trkpt lat="40.075191485970294" lon="18.16750671541363"><ele>113.0</ele><time>2026-04-29T18:17:12.013Z</time></trkpt><trkpt lat="40.07516545916796" lon="18.167353487054427"><ele>113.2</ele><time>2026-04-29T18:17:13.013Z</time></trkpt><trkpt lat="40.07514983046401" lon="18.167238274640205"><ele>113.4</ele><time>2026-04-29T18:17:14.013Z</time></trkpt><trkpt lat="40.0751277609098" lon="18.167134958158147"><ele>113.60000000000001</ele><time>2026-04-29T18:17:15.013Z</time></trkpt><trkpt lat="40.07509653729915" lon="18.16701633788166"><ele>113.80000000000001</ele><time>2026-04-29T18:17:16.013Z</time></trkpt><trkpt lat="40.075068952506534" lon="18.166876064170523"><ele>114.0</ele><time>2026-04-29T18:17:17.013Z</time></trkpt><trkpt lat="40.075030099801644" lon="18.166696290709265"><ele>114.2</ele><time>2026-04-29T18:17:18.013Z</time></trkpt><trkpt lat="40.07499460492166" lon="18.166514409676704"><ele>114.4</ele><time>2026-04-29T18:17:19.013Z</time></trkpt><trkpt lat="40.07497304686481" lon="18.1663753025462"><ele>114.6</ele><time>2026-04-29T18:17:20.013Z</time></trkpt><trkpt lat="40.07495195000993" lon="18.166266372730334"><ele>114.8</ele><time>2026-04-29T18:17:21.013Z</time></trkpt><trkpt lat="40.07491812217114" lon="18.16617135209655"><ele>115.0</ele><time>2026-04-29T18:17:23.013Z</time></trkpt><trkpt lat="40.074752479191574" lon="18.16621912292031"><ele>115.0</ele><time>2026-04-29T18:17:27.013Z</time></trkpt><trkpt lat="40.07464067369016" lon="18.16627051445061"><ele>115.0</ele><time>2026-04-29T18:17:28.013Z</time></trkpt><trkpt lat="40.07447931438248" lon="18.16633952851498"><ele>115.0</ele><time>2026-04-29T18:17:29.013Z</time></trkpt><trkpt lat="40.07431065151607" lon="18.166398634010648"><ele>115.0</ele><time>2026-04-29T18:17:30.013Z</time></trkpt><trkpt lat="40.074162419892964" lon="18.166447268467774"><ele>115.0</ele><time>2026-04-29T18:17:31.013Z</time></trkpt><trkpt lat="40.07404644765308" lon="18.166471208580553"><ele>115.0</ele><time>2026-04-29T18:17:32.013Z</time></trkpt><trkpt lat="40.07394857311847" lon="18.16649061868868"><ele>115.0</ele><time>2026-04-29T18:17:33.013Z</time></trkpt><trkpt lat="40.07387775462322" lon="18.16650926403212"><ele>115.0</ele><time>2026-04-29T18:17:34.013Z</time></trkpt><trkpt lat="40.073809332855845" lon="18.16653202605351"><ele>115.4</ele><time>2026-04-29T18:17:36.013Z</time></trkpt><trkpt lat="40.073767119720024" lon="18.166464286032106"><ele>115.8</ele><time>2026-04-29T18:17:38.013Z</time></trkpt><trkpt lat="40.07371661295074" lon="18.166287794215446"><ele>116.19999999999999</ele><time>2026-04-29T18:17:40.013Z</time></trkpt><trkpt lat="40.07366805595036" lon="18.166159489176415"><ele>116.6</ele><time>2026-04-29T18:17:41.011Z</time></trkpt><trkpt lat="40.0736140740365" lon="18.166016864558486"><ele>117.0</ele><time>2026-04-29T18:17:42.009Z</time></trkpt><trkpt lat="40.07357650532194" lon="18.16590429169259"><ele>117.0</ele><time>2026-04-29T18:17:43.007Z</time></trkpt><trkpt lat="40.07354541500385" lon="18.165814447410987"><ele>116.99999999999999</ele><time>2026-04-29T18:17:44.005Z</time></trkpt><trkpt lat="40.07346387111794" lon="18.16580040879506"><ele>116.99999999999999</ele><time>2026-04-29T18:17:47Z</time></trkpt><trkpt lat="40.07340395005914" lon="18.165863209717237"><ele>117.0</ele><time>2026-04-29T18:17:47.999Z</time></trkpt><trkpt lat="40.07330870256541" lon="18.165909068725224"><ele>117.0</ele><time>2026-04-29T18:17:48.997Z</time></trkpt><trkpt lat="40.07318231287549" lon="18.165966388522403"><ele>117.19999999999999</ele><time>2026-04-29T18:17:49.996Z</time></trkpt><trkpt lat="40.073045129168555" lon="18.166054471506175"><ele>117.39999999999999</ele><time>2026-04-29T18:17:50.995Z</time></trkpt><trkpt lat="40.07292937032297" lon="18.166111333231832"><ele>117.60000000000001</ele><time>2026-04-29T18:17:51.994Z</time></trkpt><trkpt lat="40.072856051607985" lon="18.16615025230738"><ele>117.80000000000001</ele><time>2026-04-29T18:17:52.993Z</time></trkpt><trkpt lat="40.072791904644816" lon="18.166161561993622"><ele>118.0</ele><time>2026-04-29T18:17:55.99Z</time></trkpt><trkpt lat="40.072785257996046" lon="18.166049305883796"><ele>118.0</ele><time>2026-04-29T18:17:57.989Z</time></trkpt><trkpt lat="40.07278622156959" lon="18.16594872828701"><ele>118.00000000000001</ele><time>2026-04-29T18:17:58.988Z</time></trkpt><trkpt lat="40.072768584448696" lon="18.165823418557203"><ele>118.00000000000001</ele><time>2026-04-29T18:17:59.987Z</time></trkpt><trkpt lat="40.07271027276078" lon="18.165690357229295"><ele>118.0</ele><time>2026-04-29T18:18:00.987Z</time></trkpt><trkpt lat="40.07263958627283" lon="18.165550135436355"><ele>118.0</ele><time>2026-04-29T18:18:01.986Z</time></trkpt><trkpt lat="40.0725417551485" lon="18.165402121699756"><ele>118.5</ele><time>2026-04-29T18:18:02.986Z</time></trkpt><trkpt lat="40.072440011139626" lon="18.16525917673047"><ele>119.0</ele><time>2026-04-29T18:18:03.985Z</time></trkpt><trkpt lat="40.07233930097908" lon="18.16511119892064"><ele>119.5</ele><time>2026-04-29T18:18:04.985Z</time></trkpt><trkpt lat="40.072255961023686" lon="18.16497548837848"><ele>120.0</ele><time>2026-04-29T18:18:05.984Z</time></trkpt><trkpt lat="40.07217641521401" lon="18.1648524589378"><ele>120.2</ele><time>2026-04-29T18:18:06.984Z</time></trkpt><trkpt lat="40.07210205771342" lon="18.164728330808305"><ele>120.4</ele><time>2026-04-29T18:18:07.983Z</time></trkpt><trkpt lat="40.07204093537263" lon="18.164616768807598"><ele>120.6</ele><time>2026-04-29T18:18:08.983Z</time></trkpt><trkpt lat="40.07198275860549" lon="18.164510298994923"><ele>120.8</ele><time>2026-04-29T18:18:09.983Z</time></trkpt><trkpt lat="40.07191002232303" lon="18.164401047195167"><ele>121.0</ele><time>2026-04-29T18:18:10.982Z</time></trkpt><trkpt lat="40.07182910438291" lon="18.16429258327895"><ele>121.0</ele><time>2026-04-29T18:18:11.982Z</time></trkpt><trkpt lat="40.071752131995034" lon="18.16416819211909"><ele>121.0</ele><time>2026-04-29T18:18:12.982Z</time></trkpt><trkpt lat="40.07167433712687" lon="18.164043501336458"><ele>121.0</ele><time>2026-04-29T18:18:13.981Z</time></trkpt><trkpt lat="40.07159883966772" lon="18.163921524236155"><ele>121.0</ele><time>2026-04-29T18:18:14.981Z</time></trkpt><trkpt lat="40.07152792129884" lon="18.163811183920146"><ele>121.25</ele><time>2026-04-29T18:18:15.981Z</time></trkpt><trkpt lat="40.071450266287115" lon="18.163688945770247"><ele>121.5</ele><time>2026-04-29T18:18:16.981Z</time></trkpt><trkpt lat="40.071368147806915" lon="18.163562610125165"><ele>121.75</ele><time>2026-04-29T18:18:17.98Z</time></trkpt><trkpt lat="40.07127906668657" lon="18.163419949224426"><ele>122.0</ele><time>2026-04-29T18:18:18.98Z</time></trkpt><trkpt lat="40.071192595854036" lon="18.163275386031618"><ele>121.8</ele><time>2026-04-29T18:18:19.98Z</time></trkpt><trkpt lat="40.07112369092794" lon="18.163156703154442"><ele>121.6</ele><time>2026-04-29T18:18:20.98Z</time></trkpt><trkpt lat="40.071068720596465" lon="18.163071730037498"><ele>121.39999999999999</ele><time>2026-04-29T18:18:21.98Z</time></trkpt><trkpt lat="40.07101893937209" lon="18.16299050187229"><ele>121.19999999999999</ele><time>2026-04-29T18:18:23.979Z</time></trkpt><trkpt lat="40.0709440559387" lon="18.162879670551654"><ele>121.0</ele><time>2026-04-29T18:18:26.981Z</time></trkpt><trkpt lat="40.070885627379866" lon="18.162799893514467"><ele>121.0</ele><time>2026-04-29T18:18:27.981Z</time></trkpt><trkpt lat="40.07082206582788" lon="18.162701682975243"><ele>121.0</ele><time>2026-04-29T18:18:28.98Z</time></trkpt><trkpt lat="40.07074871171879" lon="18.162591990175603"><ele>121.0</ele><time>2026-04-29T18:18:29.98Z</time></trkpt><trkpt lat="40.070667548111345" lon="18.16245605516649"><ele>121.0</ele><time>2026-04-29T18:18:30.98Z</time></trkpt><trkpt lat="40.07057080842911" lon="18.16231030532915"><ele>121.0</ele><time>2026-04-29T18:18:31.981Z</time></trkpt><trkpt lat="40.070468610777816" lon="18.162142124441857"><ele>121.0</ele><time>2026-04-29T18:18:32.979Z</time></trkpt><trkpt lat="40.07036070940347" lon="18.161944634426373"><ele>121.0</ele><time>2026-04-29T18:18:33.979Z</time></trkpt><trkpt lat="40.07023812558525" lon="18.16175174336614"><ele>121.0</ele><time>2026-04-29T18:18:34.98Z</time></trkpt><trkpt lat="40.070121826169085" lon="18.161554295528322"><ele>121.0</ele><time>2026-04-29T18:18:35.979Z</time></trkpt><trkpt lat="40.070021851882395" lon="18.161384547529497"><ele>121.0</ele><time>2026-04-29T18:18:36.979Z</time></trkpt><trkpt lat="40.06994423899615" lon="18.161257439927752"><ele>121.50000000000001</ele><time>2026-04-29T18:18:37.979Z</time></trkpt><trkpt lat="40.06988032251012" lon="18.161146791472515"><ele>122.0</ele><time>2026-04-29T18:18:38.98Z</time></trkpt><trkpt lat="40.06982261748512" lon="18.16106282908854"><ele>122.5</ele><time>2026-04-29T18:18:39.98Z</time></trkpt><trkpt lat="40.06977803150089" lon="18.160979262144693"><ele>123.0</ele><time>2026-04-29T18:18:40.979Z</time></trkpt><trkpt lat="40.069731265449015" lon="18.160906026515434"><ele>123.50000000000001</ele><time>2026-04-29T18:18:41.979Z</time></trkpt><trkpt lat="40.06966743241388" lon="18.160802913718182"><ele>124.0</ele><time>2026-04-29T18:18:43.979Z</time></trkpt><trkpt lat="40.06962348127878" lon="18.160740922859762"><ele>124.2</ele><time>2026-04-29T18:18:47.979Z</time></trkpt><trkpt lat="40.06957328373558" lon="18.16064381736339"><ele>124.4</ele><time>2026-04-29T18:19:06.979Z</time></trkpt><trkpt lat="40.06952880425403" lon="18.16056237575488"><ele>124.6</ele><time>2026-04-29T18:19:07.979Z</time></trkpt><trkpt lat="40.069475969546204" lon="18.16047460927577"><ele>124.8</ele><time>2026-04-29T18:19:08.979Z</time></trkpt><trkpt lat="40.06941690427687" lon="18.16037281146742"><ele>125.0</ele><time>2026-04-29T18:19:09.979Z</time></trkpt><trkpt lat="40.06933071362354" lon="18.160243658498032"><ele>125.0</ele><time>2026-04-29T18:19:10.979Z</time></trkpt><trkpt lat="40.069223170969806" lon="18.160086645833843"><ele>125.0</ele><time>2026-04-29T18:19:11.979Z</time></trkpt><trkpt lat="40.06911486732154" lon="18.15991606445893"><ele>125.0</ele><time>2026-04-29T18:19:12.979Z</time></trkpt><trkpt lat="40.06900221534545" lon="18.159743705440587"><ele>125.66666666666666</ele><time>2026-04-29T18:19:13.979Z</time></trkpt><trkpt lat="40.0688949100812" lon="18.159561768164174"><ele>126.33333333333334</ele><time>2026-04-29T18:19:14.979Z</time></trkpt><trkpt lat="40.06878371892282" lon="18.159375434059253"><ele>127.0</ele><time>2026-04-29T18:19:15.979Z</time></trkpt><trkpt lat="40.06866230963776" lon="18.159182745379592"><ele>127.0</ele><time>2026-04-29T18:19:16.979Z</time></trkpt><trkpt lat="40.068539710571024" lon="18.158983271430806"><ele>127.0</ele><time>2026-04-29T18:19:17.979Z</time></trkpt><trkpt lat="40.06843526914436" lon="18.158799976421985"><ele>127.0</ele><time>2026-04-29T18:19:18.979Z</time></trkpt><trkpt lat="40.06833778333342" lon="18.1586412312772"><ele>127.0</ele><time>2026-04-29T18:19:19.979Z</time></trkpt><trkpt lat="40.06824894608174" lon="18.158505923131823"><ele>127.0</ele><time>2026-04-29T18:19:20.978Z</time></trkpt><trkpt lat="40.06815754777654" lon="18.158361867948894"><ele>127.0</ele><time>2026-04-29T18:19:21.978Z</time></trkpt><trkpt lat="40.06806110952362" lon="18.158204738654636"><ele>127.0</ele><time>2026-04-29T18:19:22.978Z</time></trkpt><trkpt lat="40.067957587436155" lon="18.15803579200964"><ele>127.5</ele><time>2026-04-29T18:19:23.978Z</time></trkpt><trkpt lat="40.06786127146162" lon="18.157876657594453"><ele>128.0</ele><time>2026-04-29T18:19:24.978Z</time></trkpt><trkpt lat="40.06778208699454" lon="18.157733942147324"><ele>128.5</ele><time>2026-04-29T18:19:25.978Z</time></trkpt><trkpt lat="40.067700493874725" lon="18.157603666967525"><ele>129.0</ele><time>2026-04-29T18:19:26.978Z</time></trkpt><trkpt lat="40.0676069298367" lon="18.15746981477896"><ele>129.75</ele><time>2026-04-29T18:19:27.978Z</time></trkpt><trkpt lat="40.06752261723146" lon="18.157344188517943"><ele>130.5</ele><time>2026-04-29T18:19:28.978Z</time></trkpt><trkpt lat="40.067443381184134" lon="18.157216941029407"><ele>131.25</ele><time>2026-04-29T18:19:29.978Z</time></trkpt><trkpt lat="40.06735895242656" lon="18.15709008966577"><ele>132.0</ele><time>2026-04-29T18:19:30.978Z</time></trkpt><trkpt lat="40.067269729542765" lon="18.15693650142744"><ele>133.0</ele><time>2026-04-29T18:19:31.978Z</time></trkpt><trkpt lat="40.06716788371604" lon="18.15676400799663"><ele>134.0</ele><time>2026-04-29T18:19:32.978Z</time></trkpt><trkpt lat="40.067057449581064" lon="18.15658536575873"><ele>135.0</ele><time>2026-04-29T18:19:33.978Z</time></trkpt><trkpt lat="40.06694153837396" lon="18.156409723879033"><ele>135.66666666666666</ele><time>2026-04-29T18:19:34.978Z</time></trkpt><trkpt lat="40.06680775003234" lon="18.156210730516882"><ele>136.33333333333331</ele><time>2026-04-29T18:19:35.978Z</time></trkpt><trkpt lat="40.066668693243706" lon="18.15599839039576"><ele>137.0</ele><time>2026-04-29T18:19:36.978Z</time></trkpt><trkpt lat="40.066527422395986" lon="18.155765779550634"><ele>138.66666666666666</ele><time>2026-04-29T18:19:37.978Z</time></trkpt><trkpt lat="40.06638716444975" lon="18.155530973390007"><ele>140.33333333333334</ele><time>2026-04-29T18:19:38.978Z</time></trkpt><trkpt lat="40.06625866996557" lon="18.15531503165104"><ele>142.0</ele><time>2026-04-29T18:19:39.978Z</time></trkpt><trkpt lat="40.06616284935672" lon="18.15512073155104"><ele>142.0</ele><time>2026-04-29T18:19:40.978Z</time></trkpt><trkpt lat="40.06608619936556" lon="18.15493207864417"><ele>142.0</ele><time>2026-04-29T18:19:41.978Z</time></trkpt><trkpt lat="40.06602427780423" lon="18.154758238063252"><ele>142.0</ele><time>2026-04-29T18:19:42.978Z</time></trkpt><trkpt lat="40.065963913701474" lon="18.154565015143614"><ele>142.5</ele><time>2026-04-29T18:19:43.978Z</time></trkpt><trkpt lat="40.06589918548802" lon="18.154380548647094"><ele>143.0</ele><time>2026-04-29T18:19:44.978Z</time></trkpt><trkpt lat="40.065841755263214" lon="18.154208870441842"><ele>143.5</ele><time>2026-04-29T18:19:45.978Z</time></trkpt><trkpt lat="40.06578744521408" lon="18.154053935484008"><ele>144.0</ele><time>2026-04-29T18:19:46.978Z</time></trkpt><trkpt lat="40.06574022954162" lon="18.153906072627663"><ele>144.66666666666666</ele><time>2026-04-29T18:19:47.978Z</time></trkpt><trkpt lat="40.06568717857144" lon="18.1537434397678"><ele>145.33333333333331</ele><time>2026-04-29T18:19:48.978Z</time></trkpt><trkpt lat="40.06562371460482" lon="18.153562284396873"><ele>146.0</ele><time>2026-04-29T18:19:49.978Z</time></trkpt><trkpt lat="40.065552308297924" lon="18.153352753434174"><ele>146.0</ele><time>2026-04-29T18:19:50.978Z</time></trkpt><trkpt lat="40.065476392363074" lon="18.15311475480953"><ele>146.0</ele><time>2026-04-29T18:19:51.978Z</time></trkpt><trkpt lat="40.06538518467554" lon="18.15286726418626"><ele>146.0</ele><time>2026-04-29T18:19:52.978Z</time></trkpt><trkpt lat="40.065310052299736" lon="18.15259080051963"><ele>146.5</ele><time>2026-04-29T18:19:53.978Z</time></trkpt><trkpt lat="40.0652278601364" lon="18.152301375621658"><ele>147.0</ele><time>2026-04-29T18:19:54.978Z</time></trkpt><trkpt lat="40.065138093495115" lon="18.15200431808762"><ele>147.0</ele><time>2026-04-29T18:19:55.978Z</time></trkpt><trkpt lat="40.065045393724176" lon="18.15169934729021"><ele>147.0</ele><time>2026-04-29T18:19:56.978Z</time></trkpt><trkpt lat="40.064949923389065" lon="18.151393880088293"><ele>149.0</ele><time>2026-04-29T18:19:57.978Z</time></trkpt><trkpt lat="40.064855458994664" lon="18.151086277299324"><ele>151.0</ele><time>2026-04-29T18:19:58.978Z</time></trkpt><trkpt lat="40.06476387297833" lon="18.15078229722646"><ele>152.5</ele><time>2026-04-29T18:19:59.978Z</time></trkpt><trkpt lat="40.064663798780515" lon="18.150482297744293"><ele>154.0</ele><time>2026-04-29T18:20:00.978Z</time></trkpt><trkpt lat="40.06454878709199" lon="18.150206098399714"><ele>154.0</ele><time>2026-04-29T18:20:01.978Z</time></trkpt><trkpt lat="40.064414324727544" lon="18.14994350587437"><ele>154.0</ele><time>2026-04-29T18:20:02.978Z</time></trkpt><trkpt lat="40.06426874055955" lon="18.149695079052645"><ele>157.5</ele><time>2026-04-29T18:20:03.978Z</time></trkpt><trkpt lat="40.06410812483194" lon="18.149463999448017"><ele>161.0</ele><time>2026-04-29T18:20:04.978Z</time></trkpt><trkpt lat="40.063930077186" lon="18.149250476436258"><ele>161.0</ele><time>2026-04-29T18:20:05.978Z</time></trkpt><trkpt lat="40.06374903552218" lon="18.149054109774518"><ele>161.0</ele><time>2026-04-29T18:20:06.978Z</time></trkpt><trkpt lat="40.06355754888743" lon="18.14887539965297"><ele>162.0</ele><time>2026-04-29T18:20:07.978Z</time></trkpt><trkpt lat="40.06336369191897" lon="18.148711642271554"><ele>163.0</ele><time>2026-04-29T18:20:08.978Z</time></trkpt><trkpt lat="40.063154899040256" lon="18.148562154654574"><ele>165.0</ele><time>2026-04-29T18:20:09.978Z</time></trkpt><trkpt lat="40.062935949257856" lon="18.148445804711837"><ele>167.0</ele><time>2026-04-29T18:20:10.978Z</time></trkpt><trkpt lat="40.06272501833779" lon="18.148321716657986"><ele>167.0</ele><time>2026-04-29T18:20:11.978Z</time></trkpt><trkpt lat="40.06250783964419" lon="18.148227404869715"><ele>167.0</ele><time>2026-04-29T18:20:12.978Z</time></trkpt><trkpt lat="40.062287717773316" lon="18.148141921267797"><ele>171.0</ele><time>2026-04-29T18:20:13.978Z</time></trkpt><trkpt lat="40.062064458241856" lon="18.14807736197249"><ele>175.0</ele><time>2026-04-29T18:20:14.978Z</time></trkpt><trkpt lat="40.06181879853093" lon="18.148096610032255"><ele>175.5</ele><time>2026-04-29T18:20:15.978Z</time></trkpt><trkpt lat="40.061591745515265" lon="18.14808611239414"><ele>176.0</ele><time>2026-04-29T18:20:16.978Z</time></trkpt><trkpt lat="40.061369444830866" lon="18.14807753803883"><ele>176.0</ele><time>2026-04-29T18:20:17.978Z</time></trkpt><trkpt lat="40.06115052499094" lon="18.14808559505772"><ele>176.0</ele><time>2026-04-29T18:20:18.978Z</time></trkpt><trkpt lat="40.06093204035372" lon="18.148119646275372"><ele>176.0</ele><time>2026-04-29T18:20:19.978Z</time></trkpt><trkpt lat="40.06070480785343" lon="18.148159785915198"><ele>175.5</ele><time>2026-04-29T18:20:20.978Z</time></trkpt><trkpt lat="40.06047585966313" lon="18.148196307784204"><ele>175.0</ele><time>2026-04-29T18:20:21.978Z</time></trkpt><trkpt lat="40.06023784598032" lon="18.148226293863544"><ele>175.0</ele><time>2026-04-29T18:20:22.978Z</time></trkpt><trkpt lat="40.0599964824155" lon="18.14825385453324"><ele>175.0</ele><time>2026-04-29T18:20:23.978Z</time></trkpt><trkpt lat="40.059759707334855" lon="18.14827583363114"><ele>176.5</ele><time>2026-04-29T18:20:24.978Z</time></trkpt><trkpt lat="40.05953250914857" lon="18.14830019167303"><ele>178.0</ele><time>2026-04-29T18:20:25.978Z</time></trkpt><trkpt lat="40.05930758197832" lon="18.148328389338282"><ele>178.33333333333334</ele><time>2026-04-29T18:20:26.978Z</time></trkpt><trkpt lat="40.05908588294474" lon="18.148340459554458"><ele>178.66666666666666</ele><time>2026-04-29T18:20:27.978Z</time></trkpt><trkpt lat="40.05886362045614" lon="18.14834056593312"><ele>179.0</ele><time>2026-04-29T18:20:28.978Z</time></trkpt><trkpt lat="40.058644154310294" lon="18.148323056949547"><ele>179.0</ele><time>2026-04-29T18:20:29.978Z</time></trkpt><trkpt lat="40.058416564752484" lon="18.148292669342997"><ele>179.0</ele><time>2026-04-29T18:20:30.978Z</time></trkpt><trkpt lat="40.05819283507476" lon="18.14824137993442"><ele>179.5</ele><time>2026-04-29T18:20:31.978Z</time></trkpt><trkpt lat="40.057967754971045" lon="18.148161921585515"><ele>180.0</ele><time>2026-04-29T18:20:32.978Z</time></trkpt><trkpt lat="40.0577473382779" lon="18.148071571874674"><ele>180.0</ele><time>2026-04-29T18:20:33.978Z</time></trkpt><trkpt lat="40.05752954582429" lon="18.14797055377778"><ele>180.0</ele><time>2026-04-29T18:20:34.978Z</time></trkpt><trkpt lat="40.05731124679901" lon="18.147848381277406"><ele>180.5</ele><time>2026-04-29T18:20:35.978Z</time></trkpt><trkpt lat="40.057100187352184" lon="18.147710865546006"><ele>181.0</ele><time>2026-04-29T18:20:36.978Z</time></trkpt><trkpt lat="40.05689216498252" lon="18.147560690001427"><ele>181.0</ele><time>2026-04-29T18:20:37.978Z</time></trkpt><trkpt lat="40.0566839254792" lon="18.147400961660075"><ele>181.0</ele><time>2026-04-29T18:20:38.978Z</time></trkpt><trkpt lat="40.05648252247607" lon="18.147214776234627"><ele>179.5</ele><time>2026-04-29T18:20:39.978Z</time></trkpt><trkpt lat="40.05628642210731" lon="18.14703268133952"><ele>178.0</ele><time>2026-04-29T18:20:40.978Z</time></trkpt><trkpt lat="40.056098435462275" lon="18.14683316477036"><ele>178.0</ele><time>2026-04-29T18:20:41.978Z</time></trkpt><trkpt lat="40.05592708580346" lon="18.14661303906887"><ele>178.0</ele><time>2026-04-29T18:20:42.978Z</time></trkpt><trkpt lat="40.055767473893326" lon="18.146374252445323"><ele>176.0</ele><time>2026-04-29T18:20:43.978Z</time></trkpt><trkpt lat="40.05561549237287" lon="18.146147747396576"><ele>174.0</ele><time>2026-04-29T18:20:44.978Z</time></trkpt><trkpt lat="40.05548722265569" lon="18.145918518286216"><ele>172.0</ele><time>2026-04-29T18:20:45.978Z</time></trkpt><trkpt lat="40.05536655404316" lon="18.14568670520832"><ele>171.66666666666669</ele><time>2026-04-29T18:20:46.978Z</time></trkpt><trkpt lat="40.05526865183324" lon="18.145451613455986"><ele>171.33333333333334</ele><time>2026-04-29T18:20:47.978Z</time></trkpt><trkpt lat="40.05518891742836" lon="18.145221116293232"><ele>171.0</ele><time>2026-04-29T18:20:48.978Z</time></trkpt><trkpt lat="40.0551060541757" lon="18.144999342862373"><ele>171.0</ele><time>2026-04-29T18:20:49.978Z</time></trkpt><trkpt lat="40.0550399796198" lon="18.14479025599084"><ele>171.0</ele><time>2026-04-29T18:20:50.978Z</time></trkpt><trkpt lat="40.05497399960207" lon="18.144568033242855"><ele>171.0</ele><time>2026-04-29T18:20:51.978Z</time></trkpt><trkpt lat="40.05491095252737" lon="18.144341147786324"><ele>169.33333333333334</ele><time>2026-04-29T18:20:52.978Z</time></trkpt><trkpt lat="40.05485429195641" lon="18.144109953379335"><ele>167.66666666666669</ele><time>2026-04-29T18:20:53.978Z</time></trkpt><trkpt lat="40.05481085138265" lon="18.143876170098107"><ele>166.0</ele><time>2026-04-29T18:20:54.978Z</time></trkpt><trkpt lat="40.054776291591736" lon="18.14363786073224"><ele>166.0</ele><time>2026-04-29T18:20:55.978Z</time></trkpt><trkpt lat="40.05474829915846" lon="18.14339407979887"><ele>166.0</ele><time>2026-04-29T18:20:56.978Z</time></trkpt><trkpt lat="40.054725226056746" lon="18.143144521234802"><ele>166.0</ele><time>2026-04-29T18:20:57.978Z</time></trkpt><trkpt lat="40.05470991849021" lon="18.142887213995504"><ele>164.66666666666669</ele><time>2026-04-29T18:20:58.978Z</time></trkpt><trkpt lat="40.05470079848618" lon="18.14263343846469"><ele>163.33333333333334</ele><time>2026-04-29T18:20:59.978Z</time></trkpt><trkpt lat="40.05470273631326" lon="18.142391725162927"><ele>162.0</ele><time>2026-04-29T18:21:00.978Z</time></trkpt><trkpt lat="40.05471163193657" lon="18.14215098563444"><ele>161.0</ele><time>2026-04-29T18:21:01.978Z</time></trkpt><trkpt lat="40.05472798831105" lon="18.14190499518565"><ele>160.0</ele><time>2026-04-29T18:21:02.978Z</time></trkpt><trkpt lat="40.054754824422986" lon="18.141657812054834"><ele>159.0</ele><time>2026-04-29T18:21:03.978Z</time></trkpt><trkpt lat="40.054778826788535" lon="18.141409904366242"><ele>158.0</ele><time>2026-04-29T18:21:04.978Z</time></trkpt><trkpt lat="40.054820487173814" lon="18.141159405131432"><ele>157.0</ele><time>2026-04-29T18:21:05.978Z</time></trkpt><trkpt lat="40.054870406542875" lon="18.140916144866072"><ele>156.0</ele><time>2026-04-29T18:21:06.978Z</time></trkpt><trkpt lat="40.054921888052334" lon="18.140658963985103"><ele>156.66666666666666</ele><time>2026-04-29T18:21:07.978Z</time></trkpt><trkpt lat="40.054977188569325" lon="18.14038724098056"><ele>157.33333333333331</ele><time>2026-04-29T18:21:08.978Z</time></trkpt><trkpt lat="40.055027478112564" lon="18.140091095799487"><ele>158.0</ele><time>2026-04-29T18:21:09.978Z</time></trkpt><trkpt lat="40.05510477764676" lon="18.13979066495387"><ele>154.5</ele><time>2026-04-29T18:21:10.978Z</time></trkpt><trkpt lat="40.0551656242592" lon="18.13948693162628"><ele>151.0</ele><time>2026-04-29T18:21:11.978Z</time></trkpt><trkpt lat="40.055221032935236" lon="18.139170582655748"><ele>148.5</ele><time>2026-04-29T18:21:12.978Z</time></trkpt><trkpt lat="40.055295742695435" lon="18.138861278480793"><ele>146.0</ele><time>2026-04-29T18:21:13.978Z</time></trkpt><trkpt lat="40.05536974213485" lon="18.138540659439773"><ele>145.0</ele><time>2026-04-29T18:21:14.978Z</time></trkpt><trkpt lat="40.055436353291526" lon="18.138216382664528"><ele>144.0</ele><time>2026-04-29T18:21:15.978Z</time></trkpt><trkpt lat="40.055503470140394" lon="18.13788884509805"><ele>144.0</ele><time>2026-04-29T18:21:16.978Z</time></trkpt><trkpt lat="40.05557291625701" lon="18.137559436211177"><ele>144.0</ele><time>2026-04-29T18:21:17.978Z</time></trkpt><trkpt lat="40.055636535740135" lon="18.137228324898096"><ele>143.5</ele><time>2026-04-29T18:21:18.978Z</time></trkpt><trkpt lat="40.05570503872683" lon="18.136893684732186"><ele>143.0</ele><time>2026-04-29T18:21:19.978Z</time></trkpt><trkpt lat="40.05577532362925" lon="18.136553111902998"><ele>140.0</ele><time>2026-04-29T18:21:20.978Z</time></trkpt><trkpt lat="40.05584706895562" lon="18.136217183076155"><ele>137.0</ele><time>2026-04-29T18:21:21.978Z</time></trkpt><trkpt lat="40.05591486028234" lon="18.135869650277463"><ele>135.5</ele><time>2026-04-29T18:21:22.978Z</time></trkpt><trkpt lat="40.05598696952244" lon="18.13553024704266"><ele>134.0</ele><time>2026-04-29T18:21:23.978Z</time></trkpt><trkpt lat="40.05605763773603" lon="18.135183815011697"><ele>133.5</ele><time>2026-04-29T18:21:24.978Z</time></trkpt><trkpt lat="40.05612569293363" lon="18.134838130703276"><ele>133.0</ele><time>2026-04-29T18:21:25.978Z</time></trkpt><trkpt lat="40.05619157103324" lon="18.13449436791148"><ele>133.0</ele><time>2026-04-29T18:21:26.978Z</time></trkpt><trkpt lat="40.05626043002059" lon="18.134150573281143"><ele>133.0</ele><time>2026-04-29T18:21:27.978Z</time></trkpt><trkpt lat="40.05633176491229" lon="18.13380315613218"><ele>132.0</ele><time>2026-04-29T18:21:28.978Z</time></trkpt><trkpt lat="40.05640064861642" lon="18.133462878131677"><ele>131.0</ele><time>2026-04-29T18:21:29.978Z</time></trkpt><trkpt lat="40.056467894363585" lon="18.13312467423605"><ele>130.0</ele><time>2026-04-29T18:21:30.978Z</time></trkpt><trkpt lat="40.056536282377344" lon="18.132784081885806"><ele>129.0</ele><time>2026-04-29T18:21:31.978Z</time></trkpt><trkpt lat="40.056606284776095" lon="18.132447358115208"><ele>129.5</ele><time>2026-04-29T18:21:32.978Z</time></trkpt><trkpt lat="40.056678523467944" lon="18.13210927556319"><ele>130.0</ele><time>2026-04-29T18:21:33.978Z</time></trkpt><trkpt lat="40.056746039512674" lon="18.131772708795822"><ele>128.5</ele><time>2026-04-29T18:21:34.978Z</time></trkpt><trkpt lat="40.05681338365503" lon="18.1314385450138"><ele>127.0</ele><time>2026-04-29T18:21:35.978Z</time></trkpt><trkpt lat="40.05688192633573" lon="18.1310972019556"><ele>127.0</ele><time>2026-04-29T18:21:36.978Z</time></trkpt><trkpt lat="40.05695073489741" lon="18.130759823218213"><ele>127.0</ele><time>2026-04-29T18:21:37.977Z</time></trkpt><trkpt lat="40.057016123262855" lon="18.13041903132706"><ele>126.5</ele><time>2026-04-29T18:21:38.977Z</time></trkpt><trkpt lat="40.057083146120576" lon="18.13008124517145"><ele>126.0</ele><time>2026-04-29T18:21:39.977Z</time></trkpt><trkpt lat="40.057151072792664" lon="18.129748234852276"><ele>125.5</ele><time>2026-04-29T18:21:40.977Z</time></trkpt><trkpt lat="40.05721906992879" lon="18.129414551511683"><ele>125.0</ele><time>2026-04-29T18:21:41.977Z</time></trkpt><trkpt lat="40.057288284826235" lon="18.129080653786247"><ele>125.0</ele><time>2026-04-29T18:21:42.977Z</time></trkpt><trkpt lat="40.057357864216364" lon="18.128751173921245"><ele>125.0</ele><time>2026-04-29T18:21:43.977Z</time></trkpt><trkpt lat="40.057425945911675" lon="18.12841975006596"><ele>124.0</ele><time>2026-04-29T18:21:44.977Z</time></trkpt><trkpt lat="40.0574930752848" lon="18.128088351522415"><ele>123.0</ele><time>2026-04-29T18:21:45.977Z</time></trkpt><trkpt lat="40.05755927280905" lon="18.12775790310583"><ele>123.0</ele><time>2026-04-29T18:21:46.977Z</time></trkpt><trkpt lat="40.05762889741621" lon="18.12742682202829"><ele>123.0</ele><time>2026-04-29T18:21:47.977Z</time></trkpt><trkpt lat="40.05769455727325" lon="18.127088671216615"><ele>121.5</ele><time>2026-04-29T18:21:48.977Z</time></trkpt><trkpt lat="40.057763769867144" lon="18.12675129268601"><ele>120.0</ele><time>2026-04-29T18:21:49.977Z</time></trkpt><trkpt lat="40.05783199987906" lon="18.12640897402636"><ele>118.0</ele><time>2026-04-29T18:21:50.977Z</time></trkpt><trkpt lat="40.05790414242367" lon="18.12606683342012"><ele>116.0</ele><time>2026-04-29T18:21:51.977Z</time></trkpt><trkpt lat="40.0579735986128" lon="18.125717482010824"><ele>114.0</ele><time>2026-04-29T18:21:52.977Z</time></trkpt><trkpt lat="40.05804405711928" lon="18.125374150703568"><ele>112.0</ele><time>2026-04-29T18:21:53.977Z</time></trkpt><trkpt lat="40.0581120855213" lon="18.125048182865022"><ele>111.0</ele><time>2026-04-29T18:21:54.977Z</time></trkpt><trkpt lat="40.058173567108135" lon="18.124739233832095"><ele>110.0</ele><time>2026-04-29T18:21:55.977Z</time></trkpt><trkpt lat="40.05823396161886" lon="18.124445970354614"><ele>109.66666666666666</ele><time>2026-04-29T18:21:56.977Z</time></trkpt><trkpt lat="40.05828851410435" lon="18.124161907187897"><ele>109.33333333333334</ele><time>2026-04-29T18:21:57.977Z</time></trkpt><trkpt lat="40.058342369725914" lon="18.123883475089997"><ele>109.0</ele><time>2026-04-29T18:21:58.977Z</time></trkpt><trkpt lat="40.05839282430999" lon="18.123617457960368"><ele>109.0</ele><time>2026-04-29T18:21:59.977Z</time></trkpt><trkpt lat="40.058446766576175" lon="18.123354610579163"><ele>109.0</ele><time>2026-04-29T18:22:00.977Z</time></trkpt><trkpt lat="40.05849685625842" lon="18.12310935553572"><ele>109.0</ele><time>2026-04-29T18:22:01.977Z</time></trkpt><trkpt lat="40.058546819982205" lon="18.122854276049694"><ele>108.0</ele><time>2026-04-29T18:22:02.977Z</time></trkpt><trkpt lat="40.05859018084532" lon="18.12259679150053"><ele>107.0</ele><time>2026-04-29T18:22:03.977Z</time></trkpt><trkpt lat="40.05861694451254" lon="18.12234641593784"><ele>106.0</ele><time>2026-04-29T18:22:04.977Z</time></trkpt><trkpt lat="40.05863771348576" lon="18.122117120416338"><ele>103.33333333333334</ele><time>2026-04-29T18:22:05.977Z</time></trkpt><trkpt lat="40.05864219091756" lon="18.121883962440073"><ele>100.66666666666666</ele><time>2026-04-29T18:22:06.977Z</time></trkpt><trkpt lat="40.0586398077654" lon="18.121669135417463"><ele>98.0</ele><time>2026-04-29T18:22:07.977Z</time></trkpt><trkpt lat="40.05863694515098" lon="18.121449679610432"><ele>96.0</ele><time>2026-04-29T18:22:08.977Z</time></trkpt><trkpt lat="40.058644288483656" lon="18.121229344763115"><ele>94.0</ele><time>2026-04-29T18:22:09.977Z</time></trkpt><trkpt lat="40.058624811568336" lon="18.12100781437523"><ele>92.0</ele><time>2026-04-29T18:22:10.977Z</time></trkpt><trkpt lat="40.058603397018494" lon="18.12078804372586"><ele>90.0</ele><time>2026-04-29T18:22:11.977Z</time></trkpt><trkpt lat="40.058572067288324" lon="18.12057373079205"><ele>88.0</ele><time>2026-04-29T18:22:12.977Z</time></trkpt><trkpt lat="40.05853209752852" lon="18.120355840216558"><ele>86.0</ele><time>2026-04-29T18:22:13.977Z</time></trkpt><trkpt lat="40.05849399829479" lon="18.120137413576256"><ele>86.0</ele><time>2026-04-29T18:22:14.977Z</time></trkpt><trkpt lat="40.0584506150053" lon="18.119922980638574"><ele>86.0</ele><time>2026-04-29T18:22:15.977Z</time></trkpt><trkpt lat="40.0584026883438" lon="18.119707210137356"><ele>86.0</ele><time>2026-04-29T18:22:16.977Z</time></trkpt><trkpt lat="40.05834749808719" lon="18.119497709817526"><ele>83.66666666666667</ele><time>2026-04-29T18:22:17.977Z</time></trkpt><trkpt lat="40.058286206021265" lon="18.11928937596179"><ele>81.33333333333333</ele><time>2026-04-29T18:22:18.977Z</time></trkpt><trkpt lat="40.058216866956045" lon="18.119076839902483"><ele>79.0</ele><time>2026-04-29T18:22:19.977Z</time></trkpt><trkpt lat="40.05812751828259" lon="18.118850964372196"><ele>76.66666666666666</ele><time>2026-04-29T18:22:20.977Z</time></trkpt><trkpt lat="40.05802132398215" lon="18.118613325538078"><ele>74.33333333333333</ele><time>2026-04-29T18:22:21.977Z</time></trkpt><trkpt lat="40.05791305727996" lon="18.118357310767852"><ele>72.0</ele><time>2026-04-29T18:22:22.977Z</time></trkpt><trkpt lat="40.05779251745253" lon="18.118095770640362"><ele>71.66666666666667</ele><time>2026-04-29T18:22:23.977Z</time></trkpt><trkpt lat="40.05767150218678" lon="18.117852638662495"><ele>71.33333333333334</ele><time>2026-04-29T18:22:24.977Z</time></trkpt><trkpt lat="40.05754046730974" lon="18.117641231200704"><ele>71.0</ele><time>2026-04-29T18:22:25.977Z</time></trkpt><trkpt lat="40.05740305938697" lon="18.11743043822686"><ele>69.33333333333334</ele><time>2026-04-29T18:22:26.977Z</time></trkpt><trkpt lat="40.057261382348884" lon="18.11723634124234"><ele>67.66666666666667</ele><time>2026-04-29T18:22:27.977Z</time></trkpt><trkpt lat="40.05711460672115" lon="18.117067402689315"><ele>66.0</ele><time>2026-04-29T18:22:28.977Z</time></trkpt><trkpt lat="40.056958302020966" lon="18.116908384274506"><ele>66.0</ele><time>2026-04-29T18:22:29.977Z</time></trkpt><trkpt lat="40.05678707800372" lon="18.11673671804627"><ele>66.0</ele><time>2026-04-29T18:22:30.977Z</time></trkpt><trkpt lat="40.05659749629571" lon="18.116551638533856"><ele>65.0</ele><time>2026-04-29T18:22:31.977Z</time></trkpt><trkpt lat="40.05639210488026" lon="18.116345574576183"><ele>64.0</ele><time>2026-04-29T18:22:32.977Z</time></trkpt><trkpt lat="40.05617587907837" lon="18.116126644990654"><ele>64.0</ele><time>2026-04-29T18:22:33.977Z</time></trkpt><trkpt lat="40.05594851092736" lon="18.115900704699175"><ele>64.0</ele><time>2026-04-29T18:22:34.977Z</time></trkpt><trkpt lat="40.055734418375856" lon="18.115696796438474"><ele>62.0</ele><time>2026-04-29T18:22:35.977Z</time></trkpt><trkpt lat="40.05551388236051" lon="18.11548570942573"><ele>60.0</ele><time>2026-04-29T18:22:36.977Z</time></trkpt><trkpt lat="40.05529997768468" lon="18.115288499120602"><ele>60.0</ele><time>2026-04-29T18:22:37.977Z</time></trkpt><trkpt lat="40.05507457720059" lon="18.115049519280678"><ele>60.0</ele><time>2026-04-29T18:22:38.976Z</time></trkpt><trkpt lat="40.05485120813358" lon="18.114838699446054"><ele>59.0</ele><time>2026-04-29T18:22:39.976Z</time></trkpt><trkpt lat="40.05462926285973" lon="18.114630212775825"><ele>58.0</ele><time>2026-04-29T18:22:40.977Z</time></trkpt><trkpt lat="40.05441430109639" lon="18.11442061585991"><ele>58.0</ele><time>2026-04-29T18:22:41.977Z</time></trkpt><trkpt lat="40.054200679977775" lon="18.11420600812375"><ele>58.0</ele><time>2026-04-29T18:22:42.977Z</time></trkpt><trkpt lat="40.054000173503354" lon="18.113978458497083"><ele>57.5</ele><time>2026-04-29T18:22:43.977Z</time></trkpt><trkpt lat="40.05380634772029" lon="18.11374250156658"><ele>57.0</ele><time>2026-04-29T18:22:44.977Z</time></trkpt><trkpt lat="40.05362388537793" lon="18.1134952861752"><ele>57.0</ele><time>2026-04-29T18:22:45.977Z</time></trkpt><trkpt lat="40.053450402566" lon="18.113240915328483"><ele>57.0</ele><time>2026-04-29T18:22:46.977Z</time></trkpt><trkpt lat="40.053284740443004" lon="18.11298176719667"><ele>57.0</ele><time>2026-04-29T18:22:47.977Z</time></trkpt><trkpt lat="40.05312841533357" lon="18.112714115280646"><ele>57.0</ele><time>2026-04-29T18:22:48.977Z</time></trkpt><trkpt lat="40.05297972409352" lon="18.112442747636734"><ele>57.0</ele><time>2026-04-29T18:22:49.977Z</time></trkpt><trkpt lat="40.05283663686493" lon="18.112166422035386"><ele>57.0</ele><time>2026-04-29T18:22:50.977Z</time></trkpt><trkpt lat="40.05270174340858" lon="18.111881334503927"><ele>57.0</ele><time>2026-04-29T18:22:51.977Z</time></trkpt><trkpt lat="40.0525941635693" lon="18.11157551981132"><ele>57.0</ele><time>2026-04-29T18:22:52.977Z</time></trkpt><trkpt lat="40.05248094024142" lon="18.11128021042445"><ele>56.5</ele><time>2026-04-29T18:22:53.977Z</time></trkpt><trkpt lat="40.052378247697504" lon="18.110983997030086"><ele>56.0</ele><time>2026-04-29T18:22:54.977Z</time></trkpt><trkpt lat="40.0522806322406" lon="18.110678703916246"><ele>55.5</ele><time>2026-04-29T18:22:55.977Z</time></trkpt><trkpt lat="40.052190539963924" lon="18.110370434372918"><ele>55.0</ele><time>2026-04-29T18:22:56.977Z</time></trkpt><trkpt lat="40.05210902638356" lon="18.11005645293505"><ele>55.0</ele><time>2026-04-29T18:22:57.977Z</time></trkpt><trkpt lat="40.0520392165899" lon="18.10974812445806"><ele>55.0</ele><time>2026-04-29T18:22:58.977Z</time></trkpt><trkpt lat="40.05197867368262" lon="18.10943814834109"><ele>55.0</ele><time>2026-04-29T18:22:59.977Z</time></trkpt><trkpt lat="40.05193018653756" lon="18.109153193966076"><ele>55.0</ele><time>2026-04-29T18:23:00.977Z</time></trkpt><trkpt lat="40.05191255677651" lon="18.108915749728332"><ele>55.0</ele><time>2026-04-29T18:23:01.977Z</time></trkpt><trkpt lat="40.051881503579565" lon="18.108707293618348"><ele>55.2</ele><time>2026-04-29T18:23:02.977Z</time></trkpt><trkpt lat="40.05185659339655" lon="18.10852555056104"><ele>55.4</ele><time>2026-04-29T18:23:03.977Z</time></trkpt><trkpt lat="40.05183646221416" lon="18.10837703817856"><ele>55.599999999999994</ele><time>2026-04-29T18:23:04.977Z</time></trkpt><trkpt lat="40.05181725911158" lon="18.108249901994064"><ele>55.8</ele><time>2026-04-29T18:23:05.977Z</time></trkpt><trkpt lat="40.051807110431" lon="18.10814391663169"><ele>56.0</ele><time>2026-04-29T18:23:06.977Z</time></trkpt><trkpt lat="40.05180878397884" lon="18.10804212718177"><ele>56.0</ele><time>2026-04-29T18:23:07.977Z</time></trkpt><trkpt lat="40.05181568995901" lon="18.107942500769553"><ele>56.0</ele><time>2026-04-29T18:23:08.977Z</time></trkpt><trkpt lat="40.05181119396409" lon="18.107851613773576"><ele>56.0</ele><time>2026-04-29T18:23:09.977Z</time></trkpt><trkpt lat="40.05177673604069" lon="18.107781848045445"><ele>56.0</ele><time>2026-04-29T18:23:10.977Z</time></trkpt><trkpt lat="40.05172038234041" lon="18.107728980316725"><ele>56.0</ele><time>2026-04-29T18:23:11.977Z</time></trkpt><trkpt lat="40.05164637559886" lon="18.10770875925796"><ele>56.0</ele><time>2026-04-29T18:23:12.977Z</time></trkpt><trkpt lat="40.05157379510091" lon="18.10773284683381"><ele>56.0</ele><time>2026-04-29T18:23:13.977Z</time></trkpt><trkpt lat="40.05151094652125" lon="18.10778321016437"><ele>56.0</ele><time>2026-04-29T18:23:14.977Z</time></trkpt><trkpt lat="40.05146056244539" lon="18.10785687357641"><ele>56.0</ele><time>2026-04-29T18:23:15.977Z</time></trkpt><trkpt lat="40.05142879178762" lon="18.107969658942608"><ele>56.0</ele><time>2026-04-29T18:23:16.977Z</time></trkpt><trkpt lat="40.05140839699422" lon="18.10814449232244"><ele>56.0</ele><time>2026-04-29T18:23:17.977Z</time></trkpt><trkpt lat="40.05136629750975" lon="18.108347627860894"><ele>56.0</ele><time>2026-04-29T18:23:18.977Z</time></trkpt><trkpt lat="40.05132982691634" lon="18.108551810841618"><ele>56.0</ele><time>2026-04-29T18:23:19.977Z</time></trkpt><trkpt lat="40.051300371452506" lon="18.108736437835386"><ele>56.0</ele><time>2026-04-29T18:23:20.977Z</time></trkpt><trkpt lat="40.0512576908381" lon="18.108889308170184"><ele>56.0</ele><time>2026-04-29T18:23:21.977Z</time></trkpt><trkpt lat="40.05122959013464" lon="18.109044624478607"><ele>56.0</ele><time>2026-04-29T18:23:22.977Z</time></trkpt><trkpt lat="40.051205897069735" lon="18.109176838030493"><ele>55.99999999999999</ele><time>2026-04-29T18:23:23.977Z</time></trkpt><trkpt lat="40.05117953515625" lon="18.109323551718543"><ele>55.99999999999999</ele><time>2026-04-29T18:23:24.977Z</time></trkpt><trkpt lat="40.05115347214372" lon="18.10946802672862"><ele>56.0</ele><time>2026-04-29T18:23:25.977Z</time></trkpt><trkpt lat="40.051129554640916" lon="18.10960073567819"><ele>56.0</ele><time>2026-04-29T18:23:26.977Z</time></trkpt><trkpt lat="40.05110752672655" lon="18.109722960187334"><ele>56.0</ele><time>2026-04-29T18:23:27.977Z</time></trkpt><trkpt lat="40.05108561110137" lon="18.109844584309908"><ele>55.99999999999999</ele><time>2026-04-29T18:23:28.977Z</time></trkpt><trkpt lat="40.05106367925692" lon="18.109966974903642"><ele>55.99999999999999</ele><time>2026-04-29T18:23:29.977Z</time></trkpt><trkpt lat="40.05103934105257" lon="18.11010304051803"><ele>56.0</ele><time>2026-04-29T18:23:30.977Z</time></trkpt><trkpt lat="40.05101398773523" lon="18.110244781310747"><ele>56.0</ele><time>2026-04-29T18:23:31.977Z</time></trkpt><trkpt lat="40.05098933166406" lon="18.110382623719314"><ele>56.0</ele><time>2026-04-29T18:23:32.977Z</time></trkpt><trkpt lat="40.05096632647917" lon="18.110511236776222"><ele>55.99999999999999</ele><time>2026-04-29T18:23:33.977Z</time></trkpt><trkpt lat="40.05094636606614" lon="18.110622827798153"><ele>55.99999999999999</ele><time>2026-04-29T18:23:34.976Z</time></trkpt><trkpt lat="40.050928537843134" lon="18.110722498805053"><ele>56.0</ele><time>2026-04-29T18:23:35.976Z</time></trkpt><trkpt lat="40.05091351508343" lon="18.110806485235944"><ele>56.0</ele><time>2026-04-29T18:23:36.976Z</time></trkpt><trkpt lat="40.05088569075511" lon="18.110962040367365"><ele>56.0</ele><time>2026-04-29T18:23:38.976Z</time></trkpt><trkpt lat="40.05086586179585" lon="18.111072896427192"><ele>56.0</ele><time>2026-04-29T18:23:39.976Z</time></trkpt><trkpt lat="40.050841613690885" lon="18.11120845825941"><ele>56.0</ele><time>2026-04-29T18:23:40.976Z</time></trkpt><trkpt lat="40.05080910235058" lon="18.111390216770225"><ele>56.0</ele><time>2026-04-29T18:23:41.976Z</time></trkpt><trkpt lat="40.05077156737882" lon="18.111600060038086"><ele>56.0</ele><time>2026-04-29T18:23:42.976Z</time></trkpt><trkpt lat="40.050743426133984" lon="18.111839627388832"><ele>56.0</ele><time>2026-04-29T18:23:43.976Z</time></trkpt><trkpt lat="40.05069894816382" lon="18.11208806137587"><ele>56.0</ele><time>2026-04-29T18:23:44.976Z</time></trkpt><trkpt lat="40.050647099499514" lon="18.112353977597348"><ele>56.333333333333336</ele><time>2026-04-29T18:23:45.976Z</time></trkpt><trkpt lat="40.050599685150836" lon="18.112626647608923"><ele>56.66666666666667</ele><time>2026-04-29T18:23:46.976Z</time></trkpt><trkpt lat="40.050551094614356" lon="18.11288454308576"><ele>57.0</ele><time>2026-04-29T18:23:47.976Z</time></trkpt><trkpt lat="40.05051254373759" lon="18.11311169890103"><ele>57.0</ele><time>2026-04-29T18:23:48.976Z</time></trkpt><trkpt lat="40.050479382959665" lon="18.113318750207203"><ele>57.0</ele><time>2026-04-29T18:23:49.976Z</time></trkpt><trkpt lat="40.05043107084512" lon="18.113510365971273"><ele>57.0</ele><time>2026-04-29T18:23:50.976Z</time></trkpt><trkpt lat="40.05039442788838" lon="18.113714724824707"><ele>57.0</ele><time>2026-04-29T18:23:51.976Z</time></trkpt><trkpt lat="40.05035620173182" lon="18.113927938441027"><ele>57.0</ele><time>2026-04-29T18:23:52.976Z</time></trkpt><trkpt lat="40.05031797675333" lon="18.114141145533114"><ele>57.0</ele><time>2026-04-29T18:23:53.976Z</time></trkpt><trkpt lat="40.05027893954826" lon="18.114358882979666"><ele>57.0</ele><time>2026-04-29T18:23:54.976Z</time></trkpt><trkpt lat="40.05023678734074" lon="18.114593994882277"><ele>57.0</ele><time>2026-04-29T18:23:55.976Z</time></trkpt><trkpt lat="40.050207910253036" lon="18.11482827467653"><ele>57.0</ele><time>2026-04-29T18:23:56.976Z</time></trkpt><trkpt lat="40.05015522590681" lon="18.115059973940927"><ele>57.0</ele><time>2026-04-29T18:23:57.976Z</time></trkpt><trkpt lat="40.05011504663035" lon="18.11529436142527"><ele>57.0</ele><time>2026-04-29T18:23:58.976Z</time></trkpt><trkpt lat="40.05007958489158" lon="18.11552296352519"><ele>57.0</ele><time>2026-04-29T18:23:59.976Z</time></trkpt><trkpt lat="40.05004530274429" lon="18.115732882276642"><ele>56.66666666666667</ele><time>2026-04-29T18:24:00.976Z</time></trkpt><trkpt lat="40.05001234332008" lon="18.1159342886723"><ele>56.333333333333336</ele><time>2026-04-29T18:24:01.976Z</time></trkpt><trkpt lat="40.04998021994532" lon="18.11612494940932"><ele>56.0</ele><time>2026-04-29T18:24:02.976Z</time></trkpt><trkpt lat="40.04994754672033" lon="18.116311268130403"><ele>55.75</ele><time>2026-04-29T18:24:03.976Z</time></trkpt><trkpt lat="40.04989766714534" lon="18.116498677318607"><ele>55.5</ele><time>2026-04-29T18:24:04.976Z</time></trkpt><trkpt lat="40.04986577703302" lon="18.116677609551466"><ele>55.25</ele><time>2026-04-29T18:24:05.976Z</time></trkpt><trkpt lat="40.04983434329915" lon="18.116853719625038"><ele>55.0</ele><time>2026-04-29T18:24:06.976Z</time></trkpt><trkpt lat="40.04980126036491" lon="18.117038418476575"><ele>55.5</ele><time>2026-04-29T18:24:07.976Z</time></trkpt><trkpt lat="40.04976941532951" lon="18.11721620622824"><ele>56.0</ele><time>2026-04-29T18:24:08.976Z</time></trkpt><trkpt lat="40.049740001902215" lon="18.11738041856804"><ele>56.5</ele><time>2026-04-29T18:24:09.976Z</time></trkpt><trkpt lat="40.04971077181931" lon="18.117543607332646"><ele>57.0</ele><time>2026-04-29T18:24:10.976Z</time></trkpt><trkpt lat="40.04968354947536" lon="18.11769558711143"><ele>57.333333333333336</ele><time>2026-04-29T18:24:11.976Z</time></trkpt><trkpt lat="40.049679331398686" lon="18.117826075585157"><ele>57.66666666666667</ele><time>2026-04-29T18:24:12.976Z</time></trkpt><trkpt lat="40.049658797808746" lon="18.117939053579853"><ele>58.0</ele><time>2026-04-29T18:24:13.976Z</time></trkpt><trkpt lat="40.04963593269607" lon="18.118050116808107"><ele>58.333333333333336</ele><time>2026-04-29T18:24:14.976Z</time></trkpt><trkpt lat="40.04961340344981" lon="18.11815230399277"><ele>58.66666666666667</ele><time>2026-04-29T18:24:15.976Z</time></trkpt><trkpt lat="40.04959797943152" lon="18.118259269694178"><ele>59.0</ele><time>2026-04-29T18:24:16.976Z</time></trkpt><trkpt lat="40.0495748953985" lon="18.11837317479909"><ele>59.333333333333336</ele><time>2026-04-29T18:24:17.976Z</time></trkpt><trkpt lat="40.04955308877215" lon="18.118500447953927"><ele>59.66666666666667</ele><time>2026-04-29T18:24:18.976Z</time></trkpt><trkpt lat="40.04951725969606" lon="18.118618854371096"><ele>60.0</ele><time>2026-04-29T18:24:19.976Z</time></trkpt><trkpt lat="40.049497447345544" lon="18.118728318137205"><ele>60.33333333333333</ele><time>2026-04-29T18:24:20.976Z</time></trkpt><trkpt lat="40.049479529219674" lon="18.118827316123404"><ele>60.666666666666664</ele><time>2026-04-29T18:24:21.976Z</time></trkpt><trkpt lat="40.04947837505206" lon="18.118925060579834"><ele>61.0</ele><time>2026-04-29T18:24:22.976Z</time></trkpt><trkpt lat="40.04946286921552" lon="18.119010286226114"><ele>61.0</ele><time>2026-04-29T18:24:23.976Z</time></trkpt><trkpt lat="40.0494193002749" lon="18.119158397279964"><ele>61.0</ele><time>2026-04-29T18:24:25.976Z</time></trkpt><trkpt lat="40.04939966216661" lon="18.11926637289206"><ele>61.0</ele><time>2026-04-29T18:24:26.976Z</time></trkpt><trkpt lat="40.04937053755381" lon="18.119426507778574"><ele>61.0</ele><time>2026-04-29T18:24:27.976Z</time></trkpt><trkpt lat="40.04933624869856" lon="18.11961503708419"><ele>61.0</ele><time>2026-04-29T18:24:28.976Z</time></trkpt><trkpt lat="40.04930252015698" lon="18.119800484555203"><ele>61.0</ele><time>2026-04-29T18:24:29.976Z</time></trkpt><trkpt lat="40.049302792708716" lon="18.11996649613528"><ele>61.0</ele><time>2026-04-29T18:24:30.976Z</time></trkpt><trkpt lat="40.04928317677481" lon="18.120120326294618"><ele>61.0</ele><time>2026-04-29T18:24:31.976Z</time></trkpt><trkpt lat="40.049251784774306" lon="18.120292170136665"><ele>61.199999999999996</ele><time>2026-04-29T18:24:32.976Z</time></trkpt><trkpt lat="40.04922073465872" lon="18.120448484616"><ele>61.39999999999999</ele><time>2026-04-29T18:24:33.976Z</time></trkpt><trkpt lat="40.04918936691008" lon="18.12058647255115"><ele>61.6</ele><time>2026-04-29T18:24:34.976Z</time></trkpt><trkpt lat="40.049161250757955" lon="18.12069800815515"><ele>61.8</ele><time>2026-04-29T18:24:35.976Z</time></trkpt><trkpt lat="40.04912217407825" lon="18.12078614095641"><ele>62.0</ele><time>2026-04-29T18:24:36.976Z</time></trkpt><trkpt lat="40.049122209017675" lon="18.120875871232254"><ele>62.16666666666667</ele><time>2026-04-29T18:24:37.976Z</time></trkpt><trkpt lat="40.049103112169654" lon="18.12096438689876"><ele>62.333333333333336</ele><time>2026-04-29T18:24:38.976Z</time></trkpt><trkpt lat="40.04908634995058" lon="18.121049722559402"><ele>62.5</ele><time>2026-04-29T18:24:39.976Z</time></trkpt><trkpt lat="40.049071763514895" lon="18.121134805616492"><ele>62.66666666666667</ele><time>2026-04-29T18:24:40.976Z</time></trkpt><trkpt lat="40.0490460311573" lon="18.121274723488387"><ele>62.833333333333336</ele><time>2026-04-29T18:24:42.976Z</time></trkpt><trkpt lat="40.04901489155566" lon="18.121413859090207"><ele>63.0</ele><time>2026-04-29T18:24:44.975Z</time></trkpt><trkpt lat="40.04897148019397" lon="18.121486021815343"><ele>64.0</ele><time>2026-04-29T18:24:45.975Z</time></trkpt><trkpt lat="40.048800725111455" lon="18.121582803669163"><ele>65.0</ele><time>2026-04-29T18:24:47.976Z</time></trkpt><trkpt lat="40.048668034278236" lon="18.121633016501807"><ele>66.0</ele><time>2026-04-29T18:24:48.976Z</time></trkpt><trkpt lat="40.048502063230316" lon="18.121690123234632"><ele>66.0</ele><time>2026-04-29T18:24:49.976Z</time></trkpt><trkpt lat="40.04831100888859" lon="18.121744661169167"><ele>66.0</ele><time>2026-04-29T18:24:50.976Z</time></trkpt><trkpt lat="40.04812392430585" lon="18.121808964078376"><ele>66.0</ele><time>2026-04-29T18:24:51.976Z</time></trkpt><trkpt lat="40.04797013885395" lon="18.121864768190633"><ele>65.83333333333333</ele><time>2026-04-29T18:24:52.975Z</time></trkpt><trkpt lat="40.04784750496422" lon="18.121903910306965"><ele>65.66666666666667</ele><time>2026-04-29T18:24:53.975Z</time></trkpt><trkpt lat="40.04775374524793" lon="18.12194323951639"><ele>65.5</ele><time>2026-04-29T18:24:54.975Z</time></trkpt><trkpt lat="40.0476873982989" lon="18.121983046373025"><ele>65.33333333333334</ele><time>2026-04-29T18:24:55.975Z</time></trkpt><trkpt lat="40.0476145330662" lon="18.122003646288945"><ele>65.16666666666667</ele><time>2026-04-29T18:24:56.976Z</time></trkpt><trkpt lat="40.047552999949524" lon="18.12202371256372"><ele>65.0</ele><time>2026-04-29T18:24:57.976Z</time></trkpt><trkpt lat="40.04749039354043" lon="18.122054511814728"><ele>65.0</ele><time>2026-04-29T18:24:59.976Z</time></trkpt><trkpt lat="40.04751764241056" lon="18.12214060351377"><ele>65.0</ele><time>2026-04-29T18:25:01.976Z</time></trkpt><trkpt lat="40.04753292842317" lon="18.122224519109217"><ele>65.0</ele><time>2026-04-29T18:25:06.976Z</time></trkpt><trkpt lat="40.04765857045372" lon="18.12219313876951"><ele>65.0</ele><time>2026-04-29T18:25:08.975Z</time></trkpt><trkpt lat="40.04771853015103" lon="18.122123187428578"><ele>65.0</ele><time>2026-04-29T18:25:11.975Z</time></trkpt></trkseg><trkseg><trkpt lat="40.047805601783296" lon="18.12217452635443"><ele>65.0</ele><time>2026-04-29T18:38:46.443Z</time></trkpt><trkpt lat="40.04776855304417" lon="18.122098628688583"><ele>65.0</ele><time>2026-04-29T18:39:14.971Z</time></trkpt><trkpt lat="40.047823449358226" lon="18.12202262935083"><ele>65.0</ele><time>2026-04-29T18:39:29.971Z</time></trkpt><trkpt lat="40.04793865727957" lon="18.12196030530174"><ele>65.0</ele><time>2026-04-29T18:39:31.971Z</time></trkpt><trkpt lat="40.04803983524932" lon="18.121924928565864"><ele>65.0</ele><time>2026-04-29T18:39:32.971Z</time></trkpt><trkpt lat="40.048190638202065" lon="18.121873859841998"><ele>65.25</ele><time>2026-04-29T18:39:33.971Z</time></trkpt><trkpt lat="40.04834306631729" lon="18.121814213651493"><ele>65.5</ele><time>2026-04-29T18:39:34.971Z</time></trkpt><trkpt lat="40.048470368889575" lon="18.121765105536372"><ele>65.75</ele><time>2026-04-29T18:39:35.971Z</time></trkpt><trkpt lat="40.048569512962494" lon="18.121717490893055"><ele>66.0</ele><time>2026-04-29T18:39:36.971Z</time></trkpt><trkpt lat="40.048649956633476" lon="18.121684719935864"><ele>66.0</ele><time>2026-04-29T18:39:37.971Z</time></trkpt><trkpt lat="40.048744363545225" lon="18.12163280267576"><ele>66.0</ele><time>2026-04-29T18:39:39.971Z</time></trkpt><trkpt lat="40.048814063231525" lon="18.12160984820899"><ele>66.0</ele><time>2026-04-29T18:39:41.971Z</time></trkpt><trkpt lat="40.04890574857735" lon="18.12164630054136"><ele>66.0</ele><time>2026-04-29T18:39:44.971Z</time></trkpt><trkpt lat="40.04893462582929" lon="18.121769833496177"><ele>66.0</ele><time>2026-04-29T18:39:46.971Z</time></trkpt><trkpt lat="40.04893160912199" lon="18.121867632855935"><ele>66.0</ele><time>2026-04-29T18:39:47.971Z</time></trkpt><trkpt lat="40.04891293265646" lon="18.121966733806595"><ele>66.0</ele><time>2026-04-29T18:39:48.971Z</time></trkpt><trkpt lat="40.04889359858778" lon="18.12206899520332"><ele>66.0</ele><time>2026-04-29T18:39:49.971Z</time></trkpt><trkpt lat="40.04887245083421" lon="18.12218118930762"><ele>66.0</ele><time>2026-04-29T18:39:50.971Z</time></trkpt><trkpt lat="40.048854096721875" lon="18.122309755820304"><ele>66.0</ele><time>2026-04-29T18:39:51.971Z</time></trkpt><trkpt lat="40.04883679214158" lon="18.122456417103777"><ele>66.0</ele><time>2026-04-29T18:39:52.971Z</time></trkpt><trkpt lat="40.04880891820934" lon="18.12261502233019"><ele>66.0</ele><time>2026-04-29T18:39:53.971Z</time></trkpt><trkpt lat="40.04879010907736" lon="18.122744959061905"><ele>66.0</ele><time>2026-04-29T18:39:54.971Z</time></trkpt><trkpt lat="40.04878834317898" lon="18.122863215316247"><ele>66.0</ele><time>2026-04-29T18:39:55.971Z</time></trkpt><trkpt lat="40.048791238429" lon="18.12296951725291"><ele>66.0</ele><time>2026-04-29T18:39:56.971Z</time></trkpt><trkpt lat="40.04880219681595" lon="18.123060638279608"><ele>66.0</ele><time>2026-04-29T18:39:57.971Z</time></trkpt><trkpt lat="40.04882102894674" lon="18.123141264086403"><ele>66.0</ele><time>2026-04-29T18:39:58.971Z</time></trkpt><trkpt lat="40.04884651719086" lon="18.123219773350925"><ele>66.33333333333333</ele><time>2026-04-29T18:39:59.971Z</time></trkpt><trkpt lat="40.048874146261795" lon="18.123302508730866"><ele>66.66666666666667</ele><time>2026-04-29T18:40:00.971Z</time></trkpt><trkpt lat="40.04890181263538" lon="18.123376681613635"><ele>67.0</ele><time>2026-04-29T18:40:01.971Z</time></trkpt><trkpt lat="40.048948040176" lon="18.123512304920375"><ele>67.33333333333334</ele><time>2026-04-29T18:40:03.971Z</time></trkpt><trkpt lat="40.04896798259907" lon="18.123597145112925"><ele>67.66666666666667</ele><time>2026-04-29T18:40:04.971Z</time></trkpt><trkpt lat="40.04900962740849" lon="18.123668622347505"><ele>68.0</ele><time>2026-04-29T18:40:05.971Z</time></trkpt><trkpt lat="40.04903731466719" lon="18.12376202546993"><ele>68.0</ele><time>2026-04-29T18:40:06.971Z</time></trkpt><trkpt lat="40.04909361324265" lon="18.123892196644643"><ele>68.0</ele><time>2026-04-29T18:40:08.971Z</time></trkpt><trkpt lat="40.04916072250952" lon="18.12404451422088"><ele>68.0</ele><time>2026-04-29T18:40:10.971Z</time></trkpt><trkpt lat="40.049194446516964" lon="18.124139344584968"><ele>68.0</ele><time>2026-04-29T18:40:11.971Z</time></trkpt><trkpt lat="40.04922228225645" lon="18.124230376670564"><ele>68.0</ele><time>2026-04-29T18:40:12.971Z</time></trkpt><trkpt lat="40.04925418996189" lon="18.124323702765967"><ele>68.83333333333334</ele><time>2026-04-29T18:40:13.971Z</time></trkpt><trkpt lat="40.04926583453089" lon="18.124437170211692"><ele>69.66666666666667</ele><time>2026-04-29T18:40:14.971Z</time></trkpt><trkpt lat="40.049303346595565" lon="18.12452264919467"><ele>70.5</ele><time>2026-04-29T18:40:15.971Z</time></trkpt><trkpt lat="40.049355110604694" lon="18.124666061599694"><ele>71.33333333333333</ele><time>2026-04-29T18:40:17.971Z</time></trkpt><trkpt lat="40.04939876743802" lon="18.124745032902954"><ele>72.16666666666666</ele><time>2026-04-29T18:40:18.971Z</time></trkpt><trkpt lat="40.04943352005354" lon="18.12483511559092"><ele>73.0</ele><time>2026-04-29T18:40:19.971Z</time></trkpt><trkpt lat="40.04946733468206" lon="18.12492388517458"><ele>73.2</ele><time>2026-04-29T18:40:20.971Z</time></trkpt><trkpt lat="40.0495100602987" lon="18.125079120133773"><ele>73.4</ele><time>2026-04-29T18:40:22.971Z</time></trkpt><trkpt lat="40.0495526665481" lon="18.125220349341728"><ele>73.60000000000001</ele><time>2026-04-29T18:40:24.971Z</time></trkpt><trkpt lat="40.04957328162762" lon="18.125298228931076"><ele>73.8</ele><time>2026-04-29T18:40:25.971Z</time></trkpt><trkpt lat="40.04960504667093" lon="18.12537048052144"><ele>74.0</ele><time>2026-04-29T18:40:26.971Z</time></trkpt><trkpt lat="40.04965034409579" lon="18.12547734531924"><ele>74.0</ele><time>2026-04-29T18:40:28.971Z</time></trkpt><trkpt lat="40.04968591846989" lon="18.125606384995432"><ele>74.0</ele><time>2026-04-29T18:40:30.971Z</time></trkpt><trkpt lat="40.04971200487185" lon="18.125696999433586"><ele>74.0</ele><time>2026-04-29T18:40:32.97Z</time></trkpt><trkpt lat="40.04974206726464" lon="18.125784893078162"><ele>74.0</ele><time>2026-04-29T18:40:34.97Z</time></trkpt><trkpt lat="40.04973105553528" lon="18.125873181456853"><ele>74.0</ele><time>2026-04-29T18:40:36.97Z</time></trkpt><trkpt lat="40.0496220260205" lon="18.125921130731555"><ele>74.0</ele><time>2026-04-29T18:40:38.97Z</time></trkpt><trkpt lat="40.04954887325194" lon="18.125957057653473"><ele>74.0</ele><time>2026-04-29T18:40:39.97Z</time></trkpt><trkpt lat="40.049474439508" lon="18.126004291000505"><ele>74.0</ele><time>2026-04-29T18:40:40.97Z</time></trkpt><trkpt lat="40.04940002855977" lon="18.126042712179146"><ele>74.0</ele><time>2026-04-29T18:40:41.97Z</time></trkpt><trkpt lat="40.049322522699136" lon="18.126079913531058"><ele>74.0</ele><time>2026-04-29T18:40:42.97Z</time></trkpt><trkpt lat="40.04925237060948" lon="18.126106522133835"><ele>74.0</ele><time>2026-04-29T18:40:43.97Z</time></trkpt><trkpt lat="40.04917693891893" lon="18.12613327792195"><ele>74.0</ele><time>2026-04-29T18:40:44.97Z</time></trkpt><trkpt lat="40.04905067072201" lon="18.126192444194718"><ele>74.0</ele><time>2026-04-29T18:40:46.97Z</time></trkpt><trkpt lat="40.04893858402986" lon="18.126242290614048"><ele>74.0</ele><time>2026-04-29T18:40:48.97Z</time></trkpt><trkpt lat="40.048831133121475" lon="18.126307175272448"><ele>74.0</ele><time>2026-04-29T18:40:50.97Z</time></trkpt><trkpt lat="40.048713701025406" lon="18.12635707219005"><ele>74.0</ele><time>2026-04-29T18:40:52.971Z</time></trkpt><trkpt lat="40.04861563455057" lon="18.126389908846168"><ele>74.0</ele><time>2026-04-29T18:40:54.971Z</time></trkpt><trkpt lat="40.04852982003378" lon="18.126428798047783"><ele>74.0</ele><time>2026-04-29T18:40:57.971Z</time></trkpt><trkpt lat="40.04845536214951" lon="18.126473969058715"><ele>74.0</ele><time>2026-04-29T18:41:00.971Z</time></trkpt><trkpt lat="40.04837615277461" lon="18.12648856264796"><ele>74.0</ele><time>2026-04-29T18:41:02.971Z</time></trkpt><trkpt lat="40.04827056930996" lon="18.126556292094715"><ele>74.0</ele><time>2026-04-29T18:41:04.971Z</time></trkpt><trkpt lat="40.04819700060045" lon="18.12659013526255"><ele>74.0</ele><time>2026-04-29T18:41:05.971Z</time></trkpt><trkpt lat="40.04812241274236" lon="18.126634726159768"><ele>74.16666666666667</ele><time>2026-04-29T18:41:06.971Z</time></trkpt><trkpt lat="40.04803936002546" lon="18.126665688405588"><ele>74.33333333333334</ele><time>2026-04-29T18:41:07.971Z</time></trkpt><trkpt lat="40.047968499919214" lon="18.126702607677707"><ele>74.5</ele><time>2026-04-29T18:41:08.971Z</time></trkpt><trkpt lat="40.04790249577793" lon="18.126744195558413"><ele>74.66666666666667</ele><time>2026-04-29T18:41:09.971Z</time></trkpt><trkpt lat="40.04782951071382" lon="18.126754875161147"><ele>74.83333333333333</ele><time>2026-04-29T18:41:10.971Z</time></trkpt><trkpt lat="40.04776643449861" lon="18.126786496639713"><ele>75.0</ele><time>2026-04-29T18:41:11.971Z</time></trkpt><trkpt lat="40.04768967095969" lon="18.126832552250992"><ele>75.0</ele><time>2026-04-29T18:41:12.971Z</time></trkpt><trkpt lat="40.04761990870032" lon="18.126868206296507"><ele>75.0</ele><time>2026-04-29T18:41:13.971Z</time></trkpt><trkpt lat="40.04756396474704" lon="18.126908526335537"><ele>75.0</ele><time>2026-04-29T18:41:14.971Z</time></trkpt><trkpt lat="40.047504672628484" lon="18.126948597962514"><ele>75.0</ele><time>2026-04-29T18:41:15.971Z</time></trkpt><trkpt lat="40.047406005041886" lon="18.12698969252186"><ele>75.0</ele><time>2026-04-29T18:41:17.971Z</time></trkpt><trkpt lat="40.04732466803719" lon="18.127041417149865"><ele>75.0</ele><time>2026-04-29T18:41:19.971Z</time></trkpt><trkpt lat="40.04721037649003" lon="18.127110707145835"><ele>74.66666666666667</ele><time>2026-04-29T18:41:21.97Z</time></trkpt><trkpt lat="40.047127914881095" lon="18.12716349931386"><ele>74.33333333333333</ele><time>2026-04-29T18:41:23.97Z</time></trkpt><trkpt lat="40.047047753198676" lon="18.12718762668549"><ele>74.0</ele><time>2026-04-29T18:41:25.97Z</time></trkpt><trkpt lat="40.04694168778125" lon="18.127247724530402"><ele>73.66666666666666</ele><time>2026-04-29T18:41:27.97Z</time></trkpt><trkpt lat="40.046879182788636" lon="18.127276074705616"><ele>73.33333333333333</ele><time>2026-04-29T18:41:28.97Z</time></trkpt><trkpt lat="40.046796280631014" lon="18.12731194895939"><ele>73.0</ele><time>2026-04-29T18:41:29.97Z</time></trkpt><trkpt lat="40.046720285300985" lon="18.127353771576544"><ele>73.4</ele><time>2026-04-29T18:41:30.97Z</time></trkpt><trkpt lat="40.04662869337881" lon="18.1274069049022"><ele>73.8</ele><time>2026-04-29T18:41:32.97Z</time></trkpt><trkpt lat="40.046575741759504" lon="18.12745620338751"><ele>74.2</ele><time>2026-04-29T18:41:34.97Z</time></trkpt><trkpt lat="40.04649898613628" lon="18.127504706097262"><ele>74.6</ele><time>2026-04-29T18:41:36.97Z</time></trkpt><trkpt lat="40.04638659055736" lon="18.12755130799728"><ele>75.0</ele><time>2026-04-29T18:41:38.97Z</time></trkpt><trkpt lat="40.046301665587094" lon="18.12758224631868"><ele>75.16666666666667</ele><time>2026-04-29T18:41:40.97Z</time></trkpt><trkpt lat="40.04621270859504" lon="18.127636200718413"><ele>75.33333333333333</ele><time>2026-04-29T18:41:44.97Z</time></trkpt><trkpt lat="40.046102932162974" lon="18.12768395153763"><ele>75.5</ele><time>2026-04-29T18:41:46.97Z</time></trkpt><trkpt lat="40.046038875471055" lon="18.127711495814303"><ele>75.66666666666666</ele><time>2026-04-29T18:41:47.97Z</time></trkpt><trkpt lat="40.04595246035103" lon="18.127741489293168"><ele>75.83333333333333</ele><time>2026-04-29T18:41:48.97Z</time></trkpt><trkpt lat="40.045883413339446" lon="18.12776892396513"><ele>76.0</ele><time>2026-04-29T18:41:49.97Z</time></trkpt><trkpt lat="40.04582526391691" lon="18.12780462243411"><ele>76.2</ele><time>2026-04-29T18:41:50.97Z</time></trkpt><trkpt lat="40.04576227868025" lon="18.127839443484884"><ele>76.39999999999999</ele><time>2026-04-29T18:41:51.97Z</time></trkpt><trkpt lat="40.04569610640516" lon="18.127864603403353"><ele>76.6</ele><time>2026-04-29T18:41:52.97Z</time></trkpt><trkpt lat="40.045601779915806" lon="18.127879087733714"><ele>76.8</ele><time>2026-04-29T18:41:55.97Z</time></trkpt><trkpt lat="40.0454831960318" lon="18.127934760068904"><ele>77.0</ele><time>2026-04-29T18:41:57.97Z</time></trkpt><trkpt lat="40.045397322000134" lon="18.12799074805555"><ele>77.0</ele><time>2026-04-29T18:41:58.97Z</time></trkpt><trkpt lat="40.045306184541914" lon="18.12804207867069"><ele>77.0</ele><time>2026-04-29T18:41:59.97Z</time></trkpt><trkpt lat="40.04518426517455" lon="18.12810518973724"><ele>77.0</ele><time>2026-04-29T18:42:00.97Z</time></trkpt><trkpt lat="40.04504736879219" lon="18.12816316826886"><ele>77.0</ele><time>2026-04-29T18:42:01.97Z</time></trkpt><trkpt lat="40.044917045599455" lon="18.128219215255683"><ele>77.5</ele><time>2026-04-29T18:42:02.97Z</time></trkpt><trkpt lat="40.04479776025875" lon="18.128270279808593"><ele>78.0</ele><time>2026-04-29T18:42:03.97Z</time></trkpt><trkpt lat="40.04468720910216" lon="18.128320263334572"><ele>78.5</ele><time>2026-04-29T18:42:04.97Z</time></trkpt><trkpt lat="40.04457251086812" lon="18.12838254933288"><ele>79.0</ele><time>2026-04-29T18:42:05.97Z</time></trkpt><trkpt lat="40.04446125483331" lon="18.128440568318453"><ele>79.0</ele><time>2026-04-29T18:42:06.97Z</time></trkpt><trkpt lat="40.044360098859904" lon="18.128494067139066"><ele>79.0</ele><time>2026-04-29T18:42:07.97Z</time></trkpt><trkpt lat="40.04424459152521" lon="18.128541671242985"><ele>79.0</ele><time>2026-04-29T18:42:08.97Z</time></trkpt><trkpt lat="40.044096507782044" lon="18.128613173541805"><ele>79.0</ele><time>2026-04-29T18:42:09.97Z</time></trkpt><trkpt lat="40.04395376715996" lon="18.128683623250605"><ele>79.0</ele><time>2026-04-29T18:42:10.97Z</time></trkpt><trkpt lat="40.04382640315973" lon="18.128727872994933"><ele>79.0</ele><time>2026-04-29T18:42:11.97Z</time></trkpt><trkpt lat="40.043716644171134" lon="18.128780942109273"><ele>79.0</ele><time>2026-04-29T18:42:12.97Z</time></trkpt><trkpt lat="40.04361648127069" lon="18.128830019269103"><ele>79.0</ele><time>2026-04-29T18:42:13.97Z</time></trkpt><trkpt lat="40.0435333650375" lon="18.128896929521474"><ele>79.0</ele><time>2026-04-29T18:42:14.97Z</time></trkpt><trkpt lat="40.04340454111018" lon="18.12893457302288"><ele>79.0</ele><time>2026-04-29T18:42:16.97Z</time></trkpt><trkpt lat="40.043336911916654" lon="18.12897721955171"><ele>79.0</ele><time>2026-04-29T18:42:17.97Z</time></trkpt><trkpt lat="40.04321036520214" lon="18.128865432750523"><ele>79.0</ele><time>2026-04-29T18:42:18.97Z</time></trkpt><trkpt lat="40.04309096233875" lon="18.128828592970272"><ele>78.60000000000001</ele><time>2026-04-29T18:42:19.97Z</time></trkpt><trkpt lat="40.04298125496084" lon="18.128796844841364"><ele>78.2</ele><time>2026-04-29T18:42:20.97Z</time></trkpt><trkpt lat="40.042886317721866" lon="18.128748090793753"><ele>77.80000000000001</ele><time>2026-04-29T18:42:21.97Z</time></trkpt><trkpt lat="40.042796074882126" lon="18.128734229385252"><ele>77.4</ele><time>2026-04-29T18:42:22.97Z</time></trkpt><trkpt lat="40.042715839724075" lon="18.12869031942993"><ele>77.0</ele><time>2026-04-29T18:42:23.97Z</time></trkpt><trkpt lat="40.042617611424866" lon="18.128666558751817"><ele>77.0</ele><time>2026-04-29T18:42:24.97Z</time></trkpt><trkpt lat="40.042522120565046" lon="18.128626719685894"><ele>77.0</ele><time>2026-04-29T18:42:25.97Z</time></trkpt><trkpt lat="40.04242498934114" lon="18.12860376411222"><ele>77.0</ele><time>2026-04-29T18:42:26.97Z</time></trkpt><trkpt lat="40.04232591264237" lon="18.128577440523582"><ele>77.0</ele><time>2026-04-29T18:42:27.97Z</time></trkpt><trkpt lat="40.04222230172788" lon="18.128555738601396"><ele>77.0</ele><time>2026-04-29T18:42:28.97Z</time></trkpt><trkpt lat="40.04210569051231" lon="18.128516824995152"><ele>76.6</ele><time>2026-04-29T18:42:29.97Z</time></trkpt><trkpt lat="40.04198234788447" lon="18.128487543874723"><ele>76.2</ele><time>2026-04-29T18:42:30.97Z</time></trkpt><trkpt lat="40.041883626528396" lon="18.128458455481642"><ele>75.8</ele><time>2026-04-29T18:42:31.97Z</time></trkpt><trkpt lat="40.041791878078705" lon="18.128446659261094"><ele>75.4</ele><time>2026-04-29T18:42:32.97Z</time></trkpt><trkpt lat="40.041699061838" lon="18.12846016758382"><ele>75.0</ele><time>2026-04-29T18:42:33.97Z</time></trkpt><trkpt lat="40.041607923192466" lon="18.128463582918677"><ele>74.2</ele><time>2026-04-29T18:42:34.97Z</time></trkpt><trkpt lat="40.0415345531507" lon="18.128471427744866"><ele>73.4</ele><time>2026-04-29T18:42:35.97Z</time></trkpt><trkpt lat="40.04145848955195" lon="18.128503067931543"><ele>72.6</ele><time>2026-04-29T18:42:39.97Z</time></trkpt><trkpt lat="40.04143016736651" lon="18.12870754178675"><ele>71.8</ele><time>2026-04-29T18:42:41.969Z</time></trkpt><trkpt lat="40.04144085796179" lon="18.128800969104983"><ele>71.0</ele><time>2026-04-29T18:42:42.969Z</time></trkpt><trkpt lat="40.04145065914455" lon="18.128919623175452"><ele>72.39999999999999</ele><time>2026-04-29T18:42:43.969Z</time></trkpt><trkpt lat="40.04146170378042" lon="18.129063890630107"><ele>73.8</ele><time>2026-04-29T18:42:44.969Z</time></trkpt><trkpt lat="40.041471363193764" lon="18.12919941812125"><ele>75.19999999999999</ele><time>2026-04-29T18:42:45.969Z</time></trkpt><trkpt lat="40.04148049434338" lon="18.129324890769034"><ele>76.6</ele><time>2026-04-29T18:42:46.969Z</time></trkpt><trkpt lat="40.041488477355" lon="18.129434586683143"><ele>78.0</ele><time>2026-04-29T18:42:47.969Z</time></trkpt><trkpt lat="40.0414968751548" lon="18.1295499822676"><ele>78.0</ele><time>2026-04-29T18:42:48.969Z</time></trkpt><trkpt lat="40.041505526498625" lon="18.12966886184463"><ele>78.0</ele><time>2026-04-29T18:42:49.969Z</time></trkpt><trkpt lat="40.04151524970718" lon="18.129802469770457"><ele>78.0</ele><time>2026-04-29T18:42:50.969Z</time></trkpt><trkpt lat="40.04153121541718" lon="18.12998338934286"><ele>78.0</ele><time>2026-04-29T18:42:51.969Z</time></trkpt><trkpt lat="40.04154873554989" lon="18.130147398323437"><ele>79.6</ele><time>2026-04-29T18:42:52.969Z</time></trkpt><trkpt lat="40.0415666504301" lon="18.13031510268617"><ele>81.19999999999999</ele><time>2026-04-29T18:42:53.969Z</time></trkpt><trkpt lat="40.041583053851014" lon="18.1304686578127"><ele>82.8</ele><time>2026-04-29T18:42:54.969Z</time></trkpt><trkpt lat="40.041597504643754" lon="18.13059617495053"><ele>84.39999999999999</ele><time>2026-04-29T18:42:55.969Z</time></trkpt><trkpt lat="40.04160994790364" lon="18.130707998016604"><ele>86.0</ele><time>2026-04-29T18:42:56.969Z</time></trkpt><trkpt lat="40.04167599655216" lon="18.130782566791737"><ele>87.8</ele><time>2026-04-29T18:42:57.97Z</time></trkpt><trkpt lat="40.041689221929815" lon="18.130867824817162"><ele>89.6</ele><time>2026-04-29T18:42:58.97Z</time></trkpt><trkpt lat="40.04169305860857" lon="18.13100346553036"><ele>91.4</ele><time>2026-04-29T18:42:59.97Z</time></trkpt><trkpt lat="40.04169545919616" lon="18.131160936021296"><ele>93.2</ele><time>2026-04-29T18:43:00.97Z</time></trkpt><trkpt lat="40.0417138475532" lon="18.13134763978"><ele>95.0</ele><time>2026-04-29T18:43:01.97Z</time></trkpt><trkpt lat="40.04172433260831" lon="18.131532070266157"><ele>96.5</ele><time>2026-04-29T18:43:02.97Z</time></trkpt><trkpt lat="40.041736522779566" lon="18.131706809916487"><ele>98.0</ele><time>2026-04-29T18:43:03.97Z</time></trkpt><trkpt lat="40.04176570084407" lon="18.131856232680406"><ele>99.5</ele><time>2026-04-29T18:43:04.969Z</time></trkpt><trkpt lat="40.04176796128166" lon="18.131993296548142"><ele>101.0</ele><time>2026-04-29T18:43:05.969Z</time></trkpt><trkpt lat="40.041771023070574" lon="18.13211697346666"><ele>101.0</ele><time>2026-04-29T18:43:06.97Z</time></trkpt><trkpt lat="40.04176998452248" lon="18.132248383036686"><ele>101.0</ele><time>2026-04-29T18:43:07.97Z</time></trkpt><trkpt lat="40.041770194814184" lon="18.132371782404356"><ele>101.0</ele><time>2026-04-29T18:43:08.97Z</time></trkpt><trkpt lat="40.041743916307944" lon="18.13247833083475"><ele>101.0</ele><time>2026-04-29T18:43:09.97Z</time></trkpt><trkpt lat="40.041749993889724" lon="18.13260089441947"><ele>101.0</ele><time>2026-04-29T18:43:11.969Z</time></trkpt><trkpt lat="40.04175720731035" lon="18.132729054725168"><ele>102.19999999999999</ele><time>2026-04-29T18:43:13.969Z</time></trkpt><trkpt lat="40.04178680776359" lon="18.132824320313915"><ele>103.39999999999999</ele><time>2026-04-29T18:43:14.969Z</time></trkpt><trkpt lat="40.041799570337496" lon="18.132944904518393"><ele>104.6</ele><time>2026-04-29T18:43:15.969Z</time></trkpt><trkpt lat="40.041816572447495" lon="18.133072729843715"><ele>105.8</ele><time>2026-04-29T18:43:16.969Z</time></trkpt><trkpt lat="40.041830308505496" lon="18.133218057361546"><ele>107.0</ele><time>2026-04-29T18:43:17.969Z</time></trkpt><trkpt lat="40.04184136602724" lon="18.133380161059428"><ele>107.5</ele><time>2026-04-29T18:43:18.969Z</time></trkpt><trkpt lat="40.041851199162565" lon="18.13356870956623"><ele>108.0</ele><time>2026-04-29T18:43:19.969Z</time></trkpt><trkpt lat="40.04187206015707" lon="18.133754929439423"><ele>108.5</ele><time>2026-04-29T18:43:20.969Z</time></trkpt><trkpt lat="40.041886092816526" lon="18.13391140766492"><ele>109.0</ele><time>2026-04-29T18:43:21.969Z</time></trkpt><trkpt lat="40.04193209609889" lon="18.13404162551389"><ele>109.5</ele><time>2026-04-29T18:43:22.969Z</time></trkpt><trkpt lat="40.04198774453131" lon="18.134148296897706"><ele>110.0</ele><time>2026-04-29T18:43:23.969Z</time></trkpt><trkpt lat="40.04208280912527" lon="18.134234483192845"><ele>110.5</ele><time>2026-04-29T18:43:24.969Z</time></trkpt><trkpt lat="40.042198349662016" lon="18.134312861737047"><ele>111.0</ele><time>2026-04-29T18:43:25.969Z</time></trkpt><trkpt lat="40.04232447864568" lon="18.13438261971754"><ele>110.0</ele><time>2026-04-29T18:43:26.969Z</time></trkpt><trkpt lat="40.04247389835481" lon="18.134448990645645"><ele>109.0</ele><time>2026-04-29T18:43:27.969Z</time></trkpt><trkpt lat="40.04265267798497" lon="18.134508973365353"><ele>108.0</ele><time>2026-04-29T18:43:28.969Z</time></trkpt><trkpt lat="40.04281804392303" lon="18.13459241619793"><ele>108.0</ele><time>2026-04-29T18:43:29.969Z</time></trkpt><trkpt lat="40.04299873560121" lon="18.13464820839273"><ele>108.0</ele><time>2026-04-29T18:43:30.969Z</time></trkpt><trkpt lat="40.043195224021794" lon="18.134730336986877"><ele>108.0</ele><time>2026-04-29T18:43:31.969Z</time></trkpt><trkpt lat="40.04340227057177" lon="18.13482863441658"><ele>109.0</ele><time>2026-04-29T18:43:32.969Z</time></trkpt><trkpt lat="40.043616315058735" lon="18.13492689600243"><ele>110.0</ele><time>2026-04-29T18:43:33.969Z</time></trkpt><trkpt lat="40.0438135308112" lon="18.13502871070803"><ele>111.0</ele><time>2026-04-29T18:43:34.969Z</time></trkpt><trkpt lat="40.04398809470958" lon="18.13510600154843"><ele>111.0</ele><time>2026-04-29T18:43:35.969Z</time></trkpt><trkpt lat="40.0441260016594" lon="18.13521168435473"><ele>111.0</ele><time>2026-04-29T18:43:36.969Z</time></trkpt><trkpt lat="40.04422607957593" lon="18.135355083625125"><ele>111.0</ele><time>2026-04-29T18:43:37.969Z</time></trkpt><trkpt lat="40.044323986833504" lon="18.135507647258734"><ele>111.33333333333334</ele><time>2026-04-29T18:43:38.969Z</time></trkpt><trkpt lat="40.04440224078912" lon="18.135689021337587"><ele>111.66666666666667</ele><time>2026-04-29T18:43:39.969Z</time></trkpt><trkpt lat="40.04444772573196" lon="18.135891664222896"><ele>112.0</ele><time>2026-04-29T18:43:40.969Z</time></trkpt><trkpt lat="40.04451157864144" lon="18.136119098251875"><ele>114.0</ele><time>2026-04-29T18:43:41.969Z</time></trkpt><trkpt lat="40.044559849197036" lon="18.136370520070454"><ele>116.0</ele><time>2026-04-29T18:43:42.969Z</time></trkpt><trkpt lat="40.04460520665773" lon="18.13659310260248"><ele>118.0</ele><time>2026-04-29T18:43:43.969Z</time></trkpt><trkpt lat="40.04463566430905" lon="18.13679414039496"><ele>119.0</ele><time>2026-04-29T18:43:44.969Z</time></trkpt><trkpt lat="40.044670314751336" lon="18.136943939282617"><ele>120.0</ele><time>2026-04-29T18:43:45.969Z</time></trkpt><trkpt lat="40.04471375222749" lon="18.137080476474523"><ele>121.0</ele><time>2026-04-29T18:43:46.969Z</time></trkpt><trkpt lat="40.04476015646331" lon="18.137226190359307"><ele>122.0</ele><time>2026-04-29T18:43:47.969Z</time></trkpt><trkpt lat="40.044815952574375" lon="18.137386549738512"><ele>123.33333333333333</ele><time>2026-04-29T18:43:48.969Z</time></trkpt><trkpt lat="40.04487970450163" lon="18.137563446280083"><ele>124.66666666666666</ele><time>2026-04-29T18:43:49.969Z</time></trkpt><trkpt lat="40.04495120487149" lon="18.137751352874503"><ele>126.0</ele><time>2026-04-29T18:43:50.969Z</time></trkpt><trkpt lat="40.04502178207834" lon="18.13794950398476"><ele>126.0</ele><time>2026-04-29T18:43:51.969Z</time></trkpt><trkpt lat="40.04509764734633" lon="18.13816784277489"><ele>126.0</ele><time>2026-04-29T18:43:52.969Z</time></trkpt><trkpt lat="40.045163903027145" lon="18.1383553129247"><ele>126.0</ele><time>2026-04-29T18:43:53.969Z</time></trkpt><trkpt lat="40.045257868308624" lon="18.138610646337565"><ele>127.0</ele><time>2026-04-29T18:43:54.969Z</time></trkpt><trkpt lat="40.04534289795479" lon="18.138832825164233"><ele>128.0</ele><time>2026-04-29T18:43:55.969Z</time></trkpt><trkpt lat="40.04543040839086" lon="18.139068908755668"><ele>129.0</ele><time>2026-04-29T18:43:56.969Z</time></trkpt><trkpt lat="40.045534825245966" lon="18.1393134515821"><ele>130.33333333333334</ele><time>2026-04-29T18:43:57.969Z</time></trkpt><trkpt lat="40.0456359167321" lon="18.139564656092343"><ele>131.66666666666669</ele><time>2026-04-29T18:43:58.969Z</time></trkpt><trkpt lat="40.045737046664485" lon="18.139823731562235"><ele>133.0</ele><time>2026-04-29T18:43:59.969Z</time></trkpt><trkpt lat="40.04583902435956" lon="18.140087052504715"><ele>133.5</ele><time>2026-04-29T18:44:00.969Z</time></trkpt><trkpt lat="40.045932645962445" lon="18.14036156808022"><ele>134.0</ele><time>2026-04-29T18:44:01.969Z</time></trkpt><trkpt lat="40.04603419570057" lon="18.1406350184627"><ele>134.5</ele><time>2026-04-29T18:44:02.969Z</time></trkpt><trkpt lat="40.04613617242378" lon="18.14090442984033"><ele>135.0</ele><time>2026-04-29T18:44:03.969Z</time></trkpt><trkpt lat="40.04623899491383" lon="18.141160139985388"><ele>135.0</ele><time>2026-04-29T18:44:04.969Z</time></trkpt><trkpt lat="40.04633406845272" lon="18.141415837182265"><ele>135.0</ele><time>2026-04-29T18:44:05.969Z</time></trkpt><trkpt lat="40.046428039641675" lon="18.141660472033955"><ele>135.0</ele><time>2026-04-29T18:44:06.969Z</time></trkpt><trkpt lat="40.04652483001614" lon="18.141905542786333"><ele>136.0</ele><time>2026-04-29T18:44:07.969Z</time></trkpt><trkpt lat="40.046634503657636" lon="18.142131455025467"><ele>137.0</ele><time>2026-04-29T18:44:08.969Z</time></trkpt><trkpt lat="40.04675730374139" lon="18.142337780807534"><ele>138.0</ele><time>2026-04-29T18:44:09.969Z</time></trkpt><trkpt lat="40.0468902804325" lon="18.14253811906318"><ele>138.33333333333334</ele><time>2026-04-29T18:44:10.969Z</time></trkpt><trkpt lat="40.04703206710981" lon="18.142724959375748"><ele>138.66666666666669</ele><time>2026-04-29T18:44:11.969Z</time></trkpt><trkpt lat="40.04717991249116" lon="18.142902482158863"><ele>139.0</ele><time>2026-04-29T18:44:12.969Z</time></trkpt><trkpt lat="40.047320175749334" lon="18.143087673174744"><ele>140.0</ele><time>2026-04-29T18:44:13.969Z</time></trkpt><trkpt lat="40.047452772488214" lon="18.14328013339761"><ele>141.0</ele><time>2026-04-29T18:44:14.969Z</time></trkpt><trkpt lat="40.04756451870697" lon="18.1434924567356"><ele>142.0</ele><time>2026-04-29T18:44:15.969Z</time></trkpt><trkpt lat="40.04767174170476" lon="18.143693101383366"><ele>142.33333333333334</ele><time>2026-04-29T18:44:16.969Z</time></trkpt><trkpt lat="40.04777766085744" lon="18.143891271207934"><ele>142.66666666666666</ele><time>2026-04-29T18:44:17.969Z</time></trkpt><trkpt lat="40.047876491943875" lon="18.14407293003649"><ele>143.0</ele><time>2026-04-29T18:44:18.969Z</time></trkpt><trkpt lat="40.047965856727224" lon="18.144234857826973"><ele>143.8</ele><time>2026-04-29T18:44:19.969Z</time></trkpt><trkpt lat="40.048037305806574" lon="18.14438143348343"><ele>144.60000000000002</ele><time>2026-04-29T18:44:20.969Z</time></trkpt><trkpt lat="40.04807802157644" lon="18.144507768543647"><ele>145.39999999999998</ele><time>2026-04-29T18:44:21.969Z</time></trkpt><trkpt lat="40.048122969680186" lon="18.14461376337725"><ele>146.2</ele><time>2026-04-29T18:44:22.969Z</time></trkpt><trkpt lat="40.0481275369486" lon="18.1447528163547"><ele>147.0</ele><time>2026-04-29T18:44:23.969Z</time></trkpt><trkpt lat="40.048160399417" lon="18.144877280771933"><ele>147.66666666666666</ele><time>2026-04-29T18:44:24.969Z</time></trkpt><trkpt lat="40.04801270281259" lon="18.145046586980683"><ele>148.33333333333331</ele><time>2026-04-29T18:44:25.969Z</time></trkpt><trkpt lat="40.047931945452575" lon="18.1451870629111"><ele>149.0</ele><time>2026-04-29T18:44:26.969Z</time></trkpt><trkpt lat="40.04782676644163" lon="18.145332478134318"><ele>149.0</ele><time>2026-04-29T18:44:27.969Z</time></trkpt><trkpt lat="40.04771926861463" lon="18.14548123602486"><ele>149.0</ele><time>2026-04-29T18:44:28.968Z</time></trkpt><trkpt lat="40.04759216541393" lon="18.145635668443155"><ele>149.0</ele><time>2026-04-29T18:44:29.968Z</time></trkpt><trkpt lat="40.04745803638175" lon="18.145792936360415"><ele>148.66666666666666</ele><time>2026-04-29T18:44:30.968Z</time></trkpt><trkpt lat="40.04732203547278" lon="18.145948058039345"><ele>148.33333333333334</ele><time>2026-04-29T18:44:31.968Z</time></trkpt><trkpt lat="40.04717961277998" lon="18.146099163658747"><ele>148.0</ele><time>2026-04-29T18:44:32.968Z</time></trkpt><trkpt lat="40.04702708446139" lon="18.146260507224994"><ele>148.0</ele><time>2026-04-29T18:44:33.968Z</time></trkpt><trkpt lat="40.0468749460718" lon="18.146426526231476"><ele>148.0</ele><time>2026-04-29T18:44:34.968Z</time></trkpt><trkpt lat="40.04671738244633" lon="18.146596890751375"><ele>148.0</ele><time>2026-04-29T18:44:35.968Z</time></trkpt><trkpt lat="40.04656114290599" lon="18.14676580904409"><ele>149.33333333333334</ele><time>2026-04-29T18:44:36.968Z</time></trkpt><trkpt lat="40.04641748925054" lon="18.146948813020867"><ele>150.66666666666666</ele><time>2026-04-29T18:44:37.968Z</time></trkpt><trkpt lat="40.04626411923652" lon="18.147113056610763"><ele>152.0</ele><time>2026-04-29T18:44:38.968Z</time></trkpt><trkpt lat="40.04609930858962" lon="18.147265120951893"><ele>152.66666666666666</ele><time>2026-04-29T18:44:39.968Z</time></trkpt><trkpt lat="40.04595026660984" lon="18.14742625758492"><ele>153.33333333333334</ele><time>2026-04-29T18:44:40.968Z</time></trkpt><trkpt lat="40.04581130786111" lon="18.14760409556051"><ele>154.0</ele><time>2026-04-29T18:44:41.968Z</time></trkpt><trkpt lat="40.04565059671805" lon="18.147765904628855"><ele>154.0</ele><time>2026-04-29T18:44:42.968Z</time></trkpt><trkpt lat="40.045501102250164" lon="18.14793246611095"><ele>154.0</ele><time>2026-04-29T18:44:43.968Z</time></trkpt><trkpt lat="40.04535059482011" lon="18.14809211721927"><ele>154.0</ele><time>2026-04-29T18:44:44.968Z</time></trkpt><trkpt lat="40.04519912159617" lon="18.14825369992901"><ele>154.66666666666669</ele><time>2026-04-29T18:44:45.968Z</time></trkpt><trkpt lat="40.04504984433803" lon="18.148413847881542"><ele>155.33333333333334</ele><time>2026-04-29T18:44:46.968Z</time></trkpt><trkpt lat="40.04490221897166" lon="18.148572265844717"><ele>156.0</ele><time>2026-04-29T18:44:47.968Z</time></trkpt><trkpt lat="40.04475491390379" lon="18.148731706540865"><ele>156.0</ele><time>2026-04-29T18:44:48.968Z</time></trkpt><trkpt lat="40.0446094657282" lon="18.148892797977204"><ele>156.0</ele><time>2026-04-29T18:44:49.968Z</time></trkpt><trkpt lat="40.04446452132051" lon="18.14905443766962"><ele>156.0</ele><time>2026-04-29T18:44:50.968Z</time></trkpt><trkpt lat="40.04432220159434" lon="18.14921362915049"><ele>156.66666666666666</ele><time>2026-04-29T18:44:51.968Z</time></trkpt><trkpt lat="40.04418065481933" lon="18.149365227822404"><ele>157.33333333333331</ele><time>2026-04-29T18:44:52.968Z</time></trkpt><trkpt lat="40.044036627488374" lon="18.149518011471763"><ele>158.0</ele><time>2026-04-29T18:44:53.968Z</time></trkpt><trkpt lat="40.043893301420184" lon="18.149665281720594"><ele>158.0</ele><time>2026-04-29T18:44:54.968Z</time></trkpt><trkpt lat="40.04374433308294" lon="18.14981353134044"><ele>158.0</ele><time>2026-04-29T18:44:55.968Z</time></trkpt><trkpt lat="40.043595320831415" lon="18.149963125624843"><ele>158.0</ele><time>2026-04-29T18:44:56.968Z</time></trkpt><trkpt lat="40.04344905903415" lon="18.1501156215945"><ele>158.0</ele><time>2026-04-29T18:44:57.968Z</time></trkpt><trkpt lat="40.04330612366163" lon="18.15026660012639"><ele>158.0</ele><time>2026-04-29T18:44:58.968Z</time></trkpt><trkpt lat="40.04316283479595" lon="18.15041219518557"><ele>158.0</ele><time>2026-04-29T18:44:59.968Z</time></trkpt><trkpt lat="40.04302716819395" lon="18.15054408386112"><ele>157.66666666666666</ele><time>2026-04-29T18:45:00.968Z</time></trkpt><trkpt lat="40.04289263800092" lon="18.15067313038279"><ele>157.33333333333334</ele><time>2026-04-29T18:45:01.968Z</time></trkpt><trkpt lat="40.042764032293476" lon="18.150795418255328"><ele>157.0</ele><time>2026-04-29T18:45:02.968Z</time></trkpt><trkpt lat="40.04264087780704" lon="18.150913425683367"><ele>157.0</ele><time>2026-04-29T18:45:03.969Z</time></trkpt><trkpt lat="40.042527177817846" lon="18.15102371931618"><ele>157.0</ele><time>2026-04-29T18:45:04.969Z</time></trkpt><trkpt lat="40.04241452255951" lon="18.151136060382502"><ele>157.0</ele><time>2026-04-29T18:45:05.969Z</time></trkpt><trkpt lat="40.04229812756061" lon="18.151257670175653"><ele>157.0</ele><time>2026-04-29T18:45:06.968Z</time></trkpt><trkpt lat="40.042185896965876" lon="18.151371149299745"><ele>157.0</ele><time>2026-04-29T18:45:07.969Z</time></trkpt><trkpt lat="40.04207568186167" lon="18.151476887926655"><ele>157.0</ele><time>2026-04-29T18:45:08.969Z</time></trkpt><trkpt lat="40.041968932879826" lon="18.151578331807684"><ele>157.0</ele><time>2026-04-29T18:45:09.969Z</time></trkpt><trkpt lat="40.04185001149645" lon="18.151689199960575"><ele>157.0</ele><time>2026-04-29T18:45:10.968Z</time></trkpt><trkpt lat="40.0417231116465" lon="18.151800038105524"><ele>157.0</ele><time>2026-04-29T18:45:11.968Z</time></trkpt><trkpt lat="40.04159581519236" lon="18.15191841914721"><ele>157.0</ele><time>2026-04-29T18:45:12.968Z</time></trkpt><trkpt lat="40.0414668163116" lon="18.152037542411776"><ele>157.0</ele><time>2026-04-29T18:45:13.969Z</time></trkpt><trkpt lat="40.04134161069432" lon="18.152161409639344"><ele>157.0</ele><time>2026-04-29T18:45:14.969Z</time></trkpt><trkpt lat="40.04122176671901" lon="18.15228616826073"><ele>157.0</ele><time>2026-04-29T18:45:15.969Z</time></trkpt><trkpt lat="40.041103762265884" lon="18.15240301901712"><ele>157.0</ele><time>2026-04-29T18:45:16.969Z</time></trkpt><trkpt lat="40.04098015224615" lon="18.152518497952265"><ele>156.33333333333334</ele><time>2026-04-29T18:45:17.969Z</time></trkpt><trkpt lat="40.04085898889009" lon="18.152637596452063"><ele>155.66666666666666</ele><time>2026-04-29T18:45:18.969Z</time></trkpt><trkpt lat="40.040734390429165" lon="18.152757773701385"><ele>155.0</ele><time>2026-04-29T18:45:19.969Z</time></trkpt><trkpt lat="40.04061352929389" lon="18.152875007710424"><ele>155.0</ele><time>2026-04-29T18:45:20.969Z</time></trkpt><trkpt lat="40.040503330293404" lon="18.152979439585657"><ele>155.0</ele><time>2026-04-29T18:45:21.969Z</time></trkpt><trkpt lat="40.040398912198356" lon="18.153081753289673"><ele>155.0</ele><time>2026-04-29T18:45:22.969Z</time></trkpt><trkpt lat="40.0403032410001" lon="18.15318029798106"><ele>155.0</ele><time>2026-04-29T18:45:23.969Z</time></trkpt><trkpt lat="40.04021494356029" lon="18.15326717992976"><ele>154.83333333333331</ele><time>2026-04-29T18:45:24.969Z</time></trkpt><trkpt lat="40.040129770217725" lon="18.15334470513656"><ele>154.66666666666666</ele><time>2026-04-29T18:45:25.969Z</time></trkpt><trkpt lat="40.04005171938834" lon="18.153417944889107"><ele>154.5</ele><time>2026-04-29T18:45:26.969Z</time></trkpt><trkpt lat="40.03997779243283" lon="18.153481163449698"><ele>154.33333333333334</ele><time>2026-04-29T18:45:27.969Z</time></trkpt><trkpt lat="40.03990556468025" lon="18.153538765550284"><ele>154.16666666666669</ele><time>2026-04-29T18:45:28.969Z</time></trkpt><trkpt lat="40.039839106917874" lon="18.153581328405096"><ele>154.0</ele><time>2026-04-29T18:45:29.969Z</time></trkpt><trkpt lat="40.039769877116484" lon="18.15362431387501"><ele>153.66666666666669</ele><time>2026-04-29T18:45:30.969Z</time></trkpt><trkpt lat="40.03970003211589" lon="18.15365600757063"><ele>153.33333333333334</ele><time>2026-04-29T18:45:31.969Z</time></trkpt><trkpt lat="40.03962945800526" lon="18.15367572467382"><ele>153.0</ele><time>2026-04-29T18:45:32.968Z</time></trkpt><trkpt lat="40.03956021474024" lon="18.153682910515947"><ele>152.66666666666666</ele><time>2026-04-29T18:45:33.968Z</time></trkpt><trkpt lat="40.039490780124105" lon="18.153680919394613"><ele>152.33333333333331</ele><time>2026-04-29T18:45:34.968Z</time></trkpt><trkpt lat="40.0393913080291" lon="18.153730239326148"><ele>152.0</ele><time>2026-04-29T18:45:36.968Z</time></trkpt><trkpt lat="40.0393537515778" lon="18.153796418613755"><ele>152.0</ele><time>2026-04-29T18:45:37.968Z</time></trkpt><trkpt lat="40.03932619604239" lon="18.153880317973076"><ele>152.0</ele><time>2026-04-29T18:45:38.968Z</time></trkpt><trkpt lat="40.03930324522" lon="18.153981121653917"><ele>152.0</ele><time>2026-04-29T18:45:39.968Z</time></trkpt><trkpt lat="40.039271289719274" lon="18.154099049019248"><ele>152.0</ele><time>2026-04-29T18:45:40.968Z</time></trkpt><trkpt lat="40.03920574358382" lon="18.154219957950755"><ele>152.0</ele><time>2026-04-29T18:45:41.968Z</time></trkpt><trkpt lat="40.039122303845616" lon="18.15433182222211"><ele>152.25</ele><time>2026-04-29T18:45:42.968Z</time></trkpt><trkpt lat="40.03902769011065" lon="18.154437310214792"><ele>152.5</ele><time>2026-04-29T18:45:43.968Z</time></trkpt><trkpt lat="40.03892471879831" lon="18.15453183934899"><ele>152.75</ele><time>2026-04-29T18:45:44.968Z</time></trkpt><trkpt lat="40.038826018142515" lon="18.154630408334498"><ele>153.0</ele><time>2026-04-29T18:45:45.968Z</time></trkpt><trkpt lat="40.038718869430525" lon="18.1547324041778"><ele>153.0</ele><time>2026-04-29T18:45:46.968Z</time></trkpt><trkpt lat="40.038603365811184" lon="18.154839763706676"><ele>153.0</ele><time>2026-04-29T18:45:47.968Z</time></trkpt><trkpt lat="40.038495946071066" lon="18.154946073632388"><ele>153.0</ele><time>2026-04-29T18:45:48.968Z</time></trkpt><trkpt lat="40.03838826479156" lon="18.155063795178506"><ele>153.0</ele><time>2026-04-29T18:45:49.968Z</time></trkpt><trkpt lat="40.03826920017383" lon="18.155191621664624"><ele>152.33333333333334</ele><time>2026-04-29T18:45:50.968Z</time></trkpt><trkpt lat="40.03812675463502" lon="18.155338270446446"><ele>151.66666666666669</ele><time>2026-04-29T18:45:51.968Z</time></trkpt><trkpt lat="40.03796748153247" lon="18.155491830952148"><ele>151.0</ele><time>2026-04-29T18:45:52.968Z</time></trkpt><trkpt lat="40.03779647663362" lon="18.155644100618296"><ele>150.0</ele><time>2026-04-29T18:45:53.968Z</time></trkpt><trkpt lat="40.03762385888162" lon="18.155798258972997"><ele>149.0</ele><time>2026-04-29T18:45:54.968Z</time></trkpt><trkpt lat="40.037448094434346" lon="18.155955226492804"><ele>148.0</ele><time>2026-04-29T18:45:55.968Z</time></trkpt><trkpt lat="40.03728009615601" lon="18.15610921156955"><ele>147.0</ele><time>2026-04-29T18:45:56.968Z</time></trkpt><trkpt lat="40.03711000437765" lon="18.156282179801966"><ele>146.0</ele><time>2026-04-29T18:45:57.968Z</time></trkpt><trkpt lat="40.03694351162739" lon="18.156453969696518"><ele>145.0</ele><time>2026-04-29T18:45:58.968Z</time></trkpt><trkpt lat="40.03676947296866" lon="18.1566207388492"><ele>144.33333333333334</ele><time>2026-04-29T18:45:59.968Z</time></trkpt><trkpt lat="40.036596382414174" lon="18.1567910759815"><ele>143.66666666666666</ele><time>2026-04-29T18:46:00.968Z</time></trkpt><trkpt lat="40.03641316081608" lon="18.15696479352908"><ele>143.0</ele><time>2026-04-29T18:46:01.968Z</time></trkpt><trkpt lat="40.036233155595625" lon="18.157138915787403"><ele>143.0</ele><time>2026-04-29T18:46:02.968Z</time></trkpt><trkpt lat="40.03604995660295" lon="18.157312813481234"><ele>143.0</ele><time>2026-04-29T18:46:03.968Z</time></trkpt><trkpt lat="40.03586226942911" lon="18.15748863037288"><ele>142.0</ele><time>2026-04-29T18:46:04.968Z</time></trkpt><trkpt lat="40.03567680235681" lon="18.15767322757164"><ele>141.0</ele><time>2026-04-29T18:46:05.968Z</time></trkpt><trkpt lat="40.035491213274625" lon="18.157856135884522"><ele>141.0</ele><time>2026-04-29T18:46:06.968Z</time></trkpt><trkpt lat="40.03530058570073" lon="18.15804108322346"><ele>141.0</ele><time>2026-04-29T18:46:07.968Z</time></trkpt><trkpt lat="40.035119141424204" lon="18.15822764448603"><ele>141.5</ele><time>2026-04-29T18:46:08.968Z</time></trkpt><trkpt lat="40.03492980647081" lon="18.15840545410448"><ele>142.0</ele><time>2026-04-29T18:46:09.968Z</time></trkpt><trkpt lat="40.034741136972315" lon="18.15858591235889"><ele>142.0</ele><time>2026-04-29T18:46:10.968Z</time></trkpt><trkpt lat="40.034554731068475" lon="18.158766568387378"><ele>142.0</ele><time>2026-04-29T18:46:11.968Z</time></trkpt><trkpt lat="40.03436985413106" lon="18.158943415052338"><ele>142.0</ele><time>2026-04-29T18:46:12.968Z</time></trkpt><trkpt lat="40.03418484220488" lon="18.159125064198783"><ele>142.0</ele><time>2026-04-29T18:46:13.968Z</time></trkpt><trkpt lat="40.034001805122536" lon="18.159304661125955"><ele>142.0</ele><time>2026-04-29T18:46:14.968Z</time></trkpt><trkpt lat="40.033818458719935" lon="18.159484667583154"><ele>142.0</ele><time>2026-04-29T18:46:15.968Z</time></trkpt><trkpt lat="40.0336348113927" lon="18.159663969415806"><ele>142.0</ele><time>2026-04-29T18:46:16.968Z</time></trkpt><trkpt lat="40.03345029507627" lon="18.1598423361375"><ele>142.0</ele><time>2026-04-29T18:46:17.968Z</time></trkpt><trkpt lat="40.03327126982364" lon="18.160025346320225"><ele>143.5</ele><time>2026-04-29T18:46:18.968Z</time></trkpt><trkpt lat="40.033094735544154" lon="18.160209726763767"><ele>145.0</ele><time>2026-04-29T18:46:19.968Z</time></trkpt><trkpt lat="40.03291552525168" lon="18.160396031316875"><ele>145.0</ele><time>2026-04-29T18:46:20.968Z</time></trkpt><trkpt lat="40.032739781326676" lon="18.16058076524738"><ele>145.0</ele><time>2026-04-29T18:46:21.968Z</time></trkpt><trkpt lat="40.03256475951099" lon="18.16077490900829"><ele>144.66666666666669</ele><time>2026-04-29T18:46:22.968Z</time></trkpt><trkpt lat="40.032394684477694" lon="18.160964467162938"><ele>144.33333333333334</ele><time>2026-04-29T18:46:23.968Z</time></trkpt><trkpt lat="40.032226683967195" lon="18.161156489065323"><ele>144.0</ele><time>2026-04-29T18:46:24.968Z</time></trkpt><trkpt lat="40.03206303617946" lon="18.1613413165295"><ele>144.0</ele><time>2026-04-29T18:46:25.968Z</time></trkpt><trkpt lat="40.03191597763219" lon="18.16151096509459"><ele>144.0</ele><time>2026-04-29T18:46:26.968Z</time></trkpt><trkpt lat="40.03177913190029" lon="18.161668183473722"><ele>144.0</ele><time>2026-04-29T18:46:27.968Z</time></trkpt><trkpt lat="40.03164063182802" lon="18.161823008635373"><ele>144.0</ele><time>2026-04-29T18:46:28.968Z</time></trkpt><trkpt lat="40.031497996473476" lon="18.16195917274952"><ele>144.0</ele><time>2026-04-29T18:46:29.968Z</time></trkpt><trkpt lat="40.03137658495103" lon="18.16208873142014"><ele>144.0</ele><time>2026-04-29T18:46:30.968Z</time></trkpt><trkpt lat="40.031265384442264" lon="18.16221540480788"><ele>144.0</ele><time>2026-04-29T18:46:31.968Z</time></trkpt><trkpt lat="40.03116415356827" lon="18.162338830432894"><ele>144.0</ele><time>2026-04-29T18:46:32.968Z</time></trkpt><trkpt lat="40.03106627858768" lon="18.162452615910485"><ele>144.0</ele><time>2026-04-29T18:46:33.968Z</time></trkpt><trkpt lat="40.03097251282249" lon="18.162566280034174"><ele>144.0</ele><time>2026-04-29T18:46:34.968Z</time></trkpt><trkpt lat="40.03088061710214" lon="18.162667038562002"><ele>144.0</ele><time>2026-04-29T18:46:35.968Z</time></trkpt><trkpt lat="40.03079450869459" lon="18.162766095019954"><ele>144.0</ele><time>2026-04-29T18:46:36.968Z</time></trkpt><trkpt lat="40.0307056718076" lon="18.162852239564792"><ele>144.0</ele><time>2026-04-29T18:46:37.968Z</time></trkpt><trkpt lat="40.030628637167936" lon="18.16292246167433"><ele>144.0</ele><time>2026-04-29T18:46:38.968Z</time></trkpt><trkpt lat="40.030548594147916" lon="18.16297409430185"><ele>144.0</ele><time>2026-04-29T18:46:39.968Z</time></trkpt><trkpt lat="40.03046620153451" lon="18.16300782935015"><ele>144.0</ele><time>2026-04-29T18:46:40.968Z</time></trkpt><trkpt lat="40.030385117327896" lon="18.163014036614236"><ele>144.0</ele><time>2026-04-29T18:46:41.968Z</time></trkpt><trkpt lat="40.0303240716093" lon="18.163042423672007"><ele>144.0</ele><time>2026-04-29T18:46:42.968Z</time></trkpt><trkpt lat="40.03024713402681" lon="18.163103021016184"><ele>144.0</ele><time>2026-04-29T18:46:43.968Z</time></trkpt><trkpt lat="40.03020584599494" lon="18.16324057499958"><ele>144.0</ele><time>2026-04-29T18:46:44.968Z</time></trkpt><trkpt lat="40.03018039289526" lon="18.163374358050895"><ele>144.25</ele><time>2026-04-29T18:46:45.968Z</time></trkpt><trkpt lat="40.03012557107745" lon="18.16349848920765"><ele>144.5</ele><time>2026-04-29T18:46:46.968Z</time></trkpt><trkpt lat="40.03003343985404" lon="18.163641359131425"><ele>144.75</ele><time>2026-04-29T18:46:47.968Z</time></trkpt><trkpt lat="40.029907854531466" lon="18.163762527850874"><ele>145.0</ele><time>2026-04-29T18:46:48.968Z</time></trkpt><trkpt lat="40.02977416421961" lon="18.16391522578066"><ele>145.66666666666669</ele><time>2026-04-29T18:46:49.968Z</time></trkpt><trkpt lat="40.02963113780659" lon="18.164091942586346"><ele>146.33333333333334</ele><time>2026-04-29T18:46:50.968Z</time></trkpt><trkpt lat="40.02946934613048" lon="18.16426731547649"><ele>147.0</ele><time>2026-04-29T18:46:51.968Z</time></trkpt><trkpt lat="40.029301276863734" lon="18.164454181773785"><ele>146.0</ele><time>2026-04-29T18:46:52.967Z</time></trkpt><trkpt lat="40.029126863587365" lon="18.164651849549486"><ele>145.0</ele><time>2026-04-29T18:46:53.967Z</time></trkpt><trkpt lat="40.028950646553426" lon="18.16485117900698"><ele>145.5</ele><time>2026-04-29T18:46:54.967Z</time></trkpt><trkpt lat="40.028771403515705" lon="18.165056289036908"><ele>146.0</ele><time>2026-04-29T18:46:55.967Z</time></trkpt><trkpt lat="40.02860665923287" lon="18.16524527206562"><ele>146.0</ele><time>2026-04-29T18:46:56.967Z</time></trkpt><trkpt lat="40.02845466528829" lon="18.165419089257544"><ele>146.0</ele><time>2026-04-29T18:46:57.967Z</time></trkpt><trkpt lat="40.02830400313215" lon="18.16558973912721"><ele>146.0</ele><time>2026-04-29T18:46:58.967Z</time></trkpt><trkpt lat="40.02816795244664" lon="18.16574479029112"><ele>145.66666666666666</ele><time>2026-04-29T18:46:59.967Z</time></trkpt><trkpt lat="40.02803925859366" lon="18.165895866888377"><ele>145.33333333333334</ele><time>2026-04-29T18:47:00.967Z</time></trkpt><trkpt lat="40.02792020600787" lon="18.166033237756764"><ele>145.0</ele><time>2026-04-29T18:47:01.967Z</time></trkpt><trkpt lat="40.027811558229146" lon="18.166162098467037"><ele>145.0</ele><time>2026-04-29T18:47:02.967Z</time></trkpt><trkpt lat="40.02769337614899" lon="18.166263153880006"><ele>145.0</ele><time>2026-04-29T18:47:03.967Z</time></trkpt><trkpt lat="40.02759737295242" lon="18.166372620248836"><ele>145.0</ele><time>2026-04-29T18:47:04.967Z</time></trkpt><trkpt lat="40.027512535493976" lon="18.166467024429195"><ele>145.0</ele><time>2026-04-29T18:47:05.967Z</time></trkpt><trkpt lat="40.02742969309833" lon="18.166558763226146"><ele>145.16666666666669</ele><time>2026-04-29T18:47:06.967Z</time></trkpt><trkpt lat="40.02734648566888" lon="18.166626524607327"><ele>145.33333333333334</ele><time>2026-04-29T18:47:07.967Z</time></trkpt><trkpt lat="40.027268660810755" lon="18.166665348945884"><ele>145.5</ele><time>2026-04-29T18:47:08.967Z</time></trkpt><trkpt lat="40.027199245123654" lon="18.1667040480802"><ele>145.66666666666666</ele><time>2026-04-29T18:47:09.968Z</time></trkpt><trkpt lat="40.02714195133146" lon="18.166780035299016"><ele>145.83333333333331</ele><time>2026-04-29T18:47:10.968Z</time></trkpt><trkpt lat="40.027091295664256" lon="18.166890731838087"><ele>146.0</ele><time>2026-04-29T18:47:11.968Z</time></trkpt><trkpt lat="40.02702775260686" lon="18.167012693375952"><ele>146.0</ele><time>2026-04-29T18:47:12.967Z</time></trkpt><trkpt lat="40.02693929225285" lon="18.16713588449963"><ele>146.0</ele><time>2026-04-29T18:47:13.967Z</time></trkpt><trkpt lat="40.02683238899336" lon="18.16726597485099"><ele>146.0</ele><time>2026-04-29T18:47:14.967Z</time></trkpt><trkpt lat="40.02671202211449" lon="18.167402303566586"><ele>146.0</ele><time>2026-04-29T18:47:15.968Z</time></trkpt><trkpt lat="40.02659624434052" lon="18.16752659494678"><ele>146.0</ele><time>2026-04-29T18:47:16.968Z</time></trkpt><trkpt lat="40.0264777449583" lon="18.167658466462267"><ele>146.0</ele><time>2026-04-29T18:47:17.968Z</time></trkpt><trkpt lat="40.02634088737938" lon="18.16781338396096"><ele>146.0</ele><time>2026-04-29T18:47:18.967Z</time></trkpt><trkpt lat="40.02618557415423" lon="18.16799470539962"><ele>146.0</ele><time>2026-04-29T18:47:19.968Z</time></trkpt><trkpt lat="40.02601691751901" lon="18.168191255351697"><ele>146.0</ele><time>2026-04-29T18:47:20.968Z</time></trkpt><trkpt lat="40.02580797916864" lon="18.1684290005916"><ele>146.0</ele><time>2026-04-29T18:47:21.967Z</time></trkpt><trkpt lat="40.025617178119724" lon="18.16861313662165"><ele>146.0</ele><time>2026-04-29T18:47:22.968Z</time></trkpt><trkpt lat="40.02546730672928" lon="18.168796678811525"><ele>146.0</ele><time>2026-04-29T18:47:23.968Z</time></trkpt><trkpt lat="40.02532701983903" lon="18.168954652566306"><ele>145.33333333333331</ele><time>2026-04-29T18:47:24.968Z</time></trkpt><trkpt lat="40.0251901398837" lon="18.16911616580704"><ele>144.66666666666666</ele><time>2026-04-29T18:47:25.968Z</time></trkpt><trkpt lat="40.02504950640048" lon="18.169268032767615"><ele>144.0</ele><time>2026-04-29T18:47:26.968Z</time></trkpt><trkpt lat="40.02490938927673" lon="18.16942184748867"><ele>144.0</ele><time>2026-04-29T18:47:27.968Z</time></trkpt><trkpt lat="40.0247638234093" lon="18.169578260177182"><ele>144.0</ele><time>2026-04-29T18:47:28.968Z</time></trkpt><trkpt lat="40.024626208308526" lon="18.16973616982977"><ele>144.0</ele><time>2026-04-29T18:47:29.968Z</time></trkpt><trkpt lat="40.024504043256265" lon="18.169882263422153"><ele>144.4</ele><time>2026-04-29T18:47:30.968Z</time></trkpt><trkpt lat="40.024398224911366" lon="18.170000598784313"><ele>144.8</ele><time>2026-04-29T18:47:31.968Z</time></trkpt><trkpt lat="40.024313600035924" lon="18.170094997653322"><ele>145.2</ele><time>2026-04-29T18:47:32.968Z</time></trkpt><trkpt lat="40.024235184268626" lon="18.170172276022246"><ele>145.6</ele><time>2026-04-29T18:47:33.968Z</time></trkpt><trkpt lat="40.02416126767128" lon="18.170260935277184"><ele>146.0</ele><time>2026-04-29T18:47:34.968Z</time></trkpt><trkpt lat="40.024072475682644" lon="18.170365279719103"><ele>146.0</ele><time>2026-04-29T18:47:35.968Z</time></trkpt><trkpt lat="40.02396869679318" lon="18.170491719691945"><ele>146.0</ele><time>2026-04-29T18:47:36.968Z</time></trkpt><trkpt lat="40.02384602409631" lon="18.170631969616526"><ele>146.0</ele><time>2026-04-29T18:47:37.968Z</time></trkpt><trkpt lat="40.023711784045574" lon="18.170785557866445"><ele>145.66666666666666</ele><time>2026-04-29T18:47:38.968Z</time></trkpt><trkpt lat="40.02356442375195" lon="18.17095375439488"><ele>145.33333333333334</ele><time>2026-04-29T18:47:39.968Z</time></trkpt><trkpt lat="40.02340913066103" lon="18.17112855728286"><ele>145.0</ele><time>2026-04-29T18:47:40.968Z</time></trkpt><trkpt lat="40.02324622556789" lon="18.171311549156417"><ele>145.0</ele><time>2026-04-29T18:47:41.968Z</time></trkpt><trkpt lat="40.02308322313422" lon="18.17150102007967"><ele>145.0</ele><time>2026-04-29T18:47:42.968Z</time></trkpt><trkpt lat="40.02291213254365" lon="18.171693202639347"><ele>145.0</ele><time>2026-04-29T18:47:43.968Z</time></trkpt><trkpt lat="40.02273812631184" lon="18.171889177087262"><ele>146.0</ele><time>2026-04-29T18:47:44.968Z</time></trkpt><trkpt lat="40.02256238241741" lon="18.172086682792333"><ele>147.0</ele><time>2026-04-29T18:47:45.968Z</time></trkpt><trkpt lat="40.022385130413696" lon="18.1722839417599"><ele>149.0</ele><time>2026-04-29T18:47:46.968Z</time></trkpt><trkpt lat="40.02220882288576" lon="18.17247894763214"><ele>151.0</ele><time>2026-04-29T18:47:47.968Z</time></trkpt><trkpt lat="40.022040536932884" lon="18.172683425464484"><ele>151.0</ele><time>2026-04-29T18:47:48.967Z</time></trkpt><trkpt lat="40.021867604243084" lon="18.172880202616412"><ele>151.0</ele><time>2026-04-29T18:47:49.967Z</time></trkpt><trkpt lat="40.02168992122744" lon="18.173081142060656"><ele>152.0</ele><time>2026-04-29T18:47:50.967Z</time></trkpt><trkpt lat="40.02151592471012" lon="18.173286096797437"><ele>153.0</ele><time>2026-04-29T18:47:51.967Z</time></trkpt><trkpt lat="40.021341002333145" lon="18.173488595413048"><ele>153.0</ele><time>2026-04-29T18:47:52.967Z</time></trkpt><trkpt lat="40.02116377331359" lon="18.173690391181708"><ele>153.0</ele><time>2026-04-29T18:47:53.967Z</time></trkpt><trkpt lat="40.02098216190922" lon="18.173894305694407"><ele>151.5</ele><time>2026-04-29T18:47:54.967Z</time></trkpt><trkpt lat="40.02080305475596" lon="18.17409549728357"><ele>150.0</ele><time>2026-04-29T18:47:55.967Z</time></trkpt><trkpt lat="40.0206203506562" lon="18.17429235029664"><ele>150.0</ele><time>2026-04-29T18:47:56.967Z</time></trkpt><trkpt lat="40.0204367035297" lon="18.17448941648831"><ele>150.0</ele><time>2026-04-29T18:47:57.967Z</time></trkpt><trkpt lat="40.02025469806308" lon="18.17468109453869"><ele>149.66666666666666</ele><time>2026-04-29T18:47:58.967Z</time></trkpt><trkpt lat="40.02008241132607" lon="18.17485519225272"><ele>149.33333333333331</ele><time>2026-04-29T18:47:59.967Z</time></trkpt><trkpt lat="40.01990611851305" lon="18.174994918289034"><ele>149.0</ele><time>2026-04-29T18:48:00.967Z</time></trkpt><trkpt lat="40.01975666193513" lon="18.175149791039907"><ele>148.66666666666666</ele><time>2026-04-29T18:48:01.967Z</time></trkpt><trkpt lat="40.019604863763" lon="18.175273119665484"><ele>148.33333333333334</ele><time>2026-04-29T18:48:02.967Z</time></trkpt><trkpt lat="40.01946087487677" lon="18.17539185825907"><ele>148.0</ele><time>2026-04-29T18:48:03.967Z</time></trkpt><trkpt lat="40.01931891764621" lon="18.175507901815518"><ele>148.0</ele><time>2026-04-29T18:48:04.967Z</time></trkpt><trkpt lat="40.0191869033765" lon="18.175614042684252"><ele>148.0</ele><time>2026-04-29T18:48:05.967Z</time></trkpt><trkpt lat="40.019065248089014" lon="18.17570263948506"><ele>148.0</ele><time>2026-04-29T18:48:06.967Z</time></trkpt><trkpt lat="40.018962385262604" lon="18.17577961265823"><ele>148.0</ele><time>2026-04-29T18:48:07.967Z</time></trkpt><trkpt lat="40.018880635354115" lon="18.175844557084993"><ele>148.0</ele><time>2026-04-29T18:48:08.967Z</time></trkpt><trkpt lat="40.01880301393023" lon="18.175899008147905"><ele>148.0</ele><time>2026-04-29T18:48:09.967Z</time></trkpt><trkpt lat="40.0187203860244" lon="18.17595577184806"><ele>148.0</ele><time>2026-04-29T18:48:10.967Z</time></trkpt><trkpt lat="40.01862920328363" lon="18.17601800046608"><ele>148.0</ele><time>2026-04-29T18:48:11.967Z</time></trkpt><trkpt lat="40.018526935710696" lon="18.176087123079764"><ele>148.0</ele><time>2026-04-29T18:48:12.967Z</time></trkpt><trkpt lat="40.01841572380977" lon="18.1761727294961"><ele>148.33333333333334</ele><time>2026-04-29T18:48:13.967Z</time></trkpt><trkpt lat="40.01829587326227" lon="18.176267200716737"><ele>148.66666666666666</ele><time>2026-04-29T18:48:14.967Z</time></trkpt><trkpt lat="40.01816476387158" lon="18.176359536033758"><ele>149.0</ele><time>2026-04-29T18:48:15.967Z</time></trkpt><trkpt lat="40.0180194355448" lon="18.176461487032547"><ele>148.33333333333331</ele><time>2026-04-29T18:48:16.967Z</time></trkpt><trkpt lat="40.01786426147157" lon="18.17657787240775"><ele>147.66666666666666</ele><time>2026-04-29T18:48:17.967Z</time></trkpt><trkpt lat="40.017702869433805" lon="18.176694408399104"><ele>147.0</ele><time>2026-04-29T18:48:18.967Z</time></trkpt><trkpt lat="40.01753564402262" lon="18.176816571632045"><ele>147.33333333333334</ele><time>2026-04-29T18:48:19.967Z</time></trkpt><trkpt lat="40.01736412022667" lon="18.17694513316397"><ele>147.66666666666669</ele><time>2026-04-29T18:48:20.967Z</time></trkpt><trkpt lat="40.017187699031254" lon="18.177073753334874"><ele>148.0</ele><time>2026-04-29T18:48:21.967Z</time></trkpt><trkpt lat="40.017009848651426" lon="18.177209350154712"><ele>148.0</ele><time>2026-04-29T18:48:22.967Z</time></trkpt><trkpt lat="40.01682202072128" lon="18.177342450032448"><ele>148.0</ele><time>2026-04-29T18:48:23.967Z</time></trkpt><trkpt lat="40.01663203600062" lon="18.177479916164213"><ele>148.0</ele><time>2026-04-29T18:48:24.967Z</time></trkpt><trkpt lat="40.01644111777657" lon="18.177621274997225"><ele>146.33333333333334</ele><time>2026-04-29T18:48:25.967Z</time></trkpt><trkpt lat="40.01625153088587" lon="18.177762244759048"><ele>144.66666666666666</ele><time>2026-04-29T18:48:26.967Z</time></trkpt><trkpt lat="40.0160653432048" lon="18.17789915200525"><ele>143.0</ele><time>2026-04-29T18:48:27.967Z</time></trkpt><trkpt lat="40.01587985219877" lon="18.178030729245748"><ele>142.66666666666666</ele><time>2026-04-29T18:48:28.967Z</time></trkpt><trkpt lat="40.01569591255363" lon="18.178161637731904"><ele>142.33333333333334</ele><time>2026-04-29T18:48:29.967Z</time></trkpt><trkpt lat="40.01551723764914" lon="18.178294250814456"><ele>142.0</ele><time>2026-04-29T18:48:30.967Z</time></trkpt><trkpt lat="40.015338362099236" lon="18.17842817004478"><ele>142.0</ele><time>2026-04-29T18:48:31.967Z</time></trkpt><trkpt lat="40.01516402097627" lon="18.178559452056746"><ele>142.0</ele><time>2026-04-29T18:48:32.967Z</time></trkpt><trkpt lat="40.014984548021694" lon="18.178691780536127"><ele>142.0</ele><time>2026-04-29T18:48:33.967Z</time></trkpt><trkpt lat="40.014801484215624" lon="18.178828719562595"><ele>141.0</ele><time>2026-04-29T18:48:34.967Z</time></trkpt><trkpt lat="40.014617217118285" lon="18.178965818546622"><ele>140.0</ele><time>2026-04-29T18:48:35.967Z</time></trkpt><trkpt lat="40.01443289937818" lon="18.179111269010228"><ele>139.0</ele><time>2026-04-29T18:48:36.967Z</time></trkpt><trkpt lat="40.014255681170795" lon="18.1792562495891"><ele>139.33333333333334</ele><time>2026-04-29T18:48:37.967Z</time></trkpt><trkpt lat="40.01410002799734" lon="18.17938222079637"><ele>139.66666666666666</ele><time>2026-04-29T18:48:38.967Z</time></trkpt><trkpt lat="40.01396114974994" lon="18.17949191694857"><ele>140.0</ele><time>2026-04-29T18:48:39.967Z</time></trkpt><trkpt lat="40.013839126285525" lon="18.179588134917395"><ele>140.0</ele><time>2026-04-29T18:48:40.967Z</time></trkpt><trkpt lat="40.01373366121635" lon="18.179669010428807"><ele>140.0</ele><time>2026-04-29T18:48:41.967Z</time></trkpt><trkpt lat="40.013650439584396" lon="18.17973843189411"><ele>140.0</ele><time>2026-04-29T18:48:42.967Z</time></trkpt><trkpt lat="40.013571038520695" lon="18.179791230698125"><ele>140.0</ele><time>2026-04-29T18:48:43.967Z</time></trkpt><trkpt lat="40.01349894611396" lon="18.179821578409076"><ele>140.0</ele><time>2026-04-29T18:48:44.967Z</time></trkpt><trkpt lat="40.01339359868768" lon="18.17979323415365"><ele>140.25</ele><time>2026-04-29T18:48:46.967Z</time></trkpt><trkpt lat="40.0133203780831" lon="18.17969983708596"><ele>140.5</ele><time>2026-04-29T18:48:48.967Z</time></trkpt><trkpt lat="40.01327804712871" lon="18.1796006506054"><ele>140.75</ele><time>2026-04-29T18:48:49.967Z</time></trkpt><trkpt lat="40.01323213777204" lon="18.179461858754603"><ele>141.0</ele><time>2026-04-29T18:48:50.967Z</time></trkpt><trkpt lat="40.01318204873225" lon="18.179282816090144"><ele>141.0</ele><time>2026-04-29T18:48:51.967Z</time></trkpt><trkpt lat="40.01312706233703" lon="18.179069579467228"><ele>141.0</ele><time>2026-04-29T18:48:52.967Z</time></trkpt><trkpt lat="40.013063973663" lon="18.17884931480369"><ele>141.0</ele><time>2026-04-29T18:48:53.967Z</time></trkpt><trkpt lat="40.012993217274804" lon="18.17860874794671"><ele>141.33333333333334</ele><time>2026-04-29T18:48:54.967Z</time></trkpt><trkpt lat="40.01292492438775" lon="18.178377849612126"><ele>141.66666666666669</ele><time>2026-04-29T18:48:55.967Z</time></trkpt><trkpt lat="40.012865150885666" lon="18.178180778604723"><ele>142.0</ele><time>2026-04-29T18:48:56.967Z</time></trkpt><trkpt lat="40.01281352021646" lon="18.178002837617225"><ele>142.2</ele><time>2026-04-29T18:48:57.967Z</time></trkpt><trkpt lat="40.012762394268705" lon="18.17784247183701"><ele>142.39999999999998</ele><time>2026-04-29T18:48:58.967Z</time></trkpt><trkpt lat="40.01271938855936" lon="18.177701987681928"><ele>142.60000000000002</ele><time>2026-04-29T18:48:59.967Z</time></trkpt><trkpt lat="40.012685009901716" lon="18.177589516326602"><ele>142.8</ele><time>2026-04-29T18:49:00.967Z</time></trkpt><trkpt lat="40.01265170395867" lon="18.177471944404868"><ele>143.0</ele><time>2026-04-29T18:49:01.967Z</time></trkpt><trkpt lat="40.01262053204357" lon="18.177382866225905"><ele>143.14285714285714</ele><time>2026-04-29T18:49:02.967Z</time></trkpt><trkpt lat="40.01257749775182" lon="18.177279769985585"><ele>143.28571428571428</ele><time>2026-04-29T18:49:04.967Z</time></trkpt><trkpt lat="40.01251451817298" lon="18.17726995463472"><ele>143.42857142857144</ele><time>2026-04-29T18:49:06.967Z</time></trkpt><trkpt lat="40.01244976121005" lon="18.17729249161595"><ele>143.57142857142856</ele><time>2026-04-29T18:49:07.967Z</time></trkpt><trkpt lat="40.01238405955579" lon="18.177322543395995"><ele>143.71428571428572</ele><time>2026-04-29T18:49:08.966Z</time></trkpt><trkpt lat="40.01231200732437" lon="18.177362516377773"><ele>143.85714285714286</ele><time>2026-04-29T18:49:09.966Z</time></trkpt><trkpt lat="40.01223870884805" lon="18.177397491665573"><ele>144.0</ele><time>2026-04-29T18:49:10.966Z</time></trkpt><trkpt lat="40.01213250768354" lon="18.177418371163146"><ele>144.0</ele><time>2026-04-29T18:49:12.966Z</time></trkpt><trkpt lat="40.01208856179487" lon="18.177508484974414"><ele>144.0</ele><time>2026-04-29T18:49:15.967Z</time></trkpt><trkpt lat="40.012110995938485" lon="18.17760554804464"><ele>144.0</ele><time>2026-04-29T18:49:17.966Z</time></trkpt><trkpt lat="40.01213992785028" lon="18.17772506165776"><ele>144.0</ele><time>2026-04-29T18:49:19.966Z</time></trkpt><trkpt lat="40.01215260098603" lon="18.177811407032795"><ele>144.0</ele><time>2026-04-29T18:49:22.967Z</time></trkpt></trkseg></trk></gpx>